<?xml version="1.0" encoding="UTF-8" standalone="no" ?>
<gpx xmlns="http://www.topografix.com/GPX/1/1" xmlns:xsi="http://www.w3.org/2001/XMLSchema-instance" xsi:schemaLocation="http://www.topografix.com/GPX/1/1 http://www.topografix.com/GPX/1/1/gpx.xsd" version="1.1" creator="VisuGPX - https://www.visugpx.com">
  <metadata>
    <name>sortie autour d'abos</name>
    <desc><![CDATA[petite sortie boueuse de 28 km ]]></desc>
  </metadata>
  <trk>
    <name><![CDATA[Tracé actuel: 04 FEV 2017 08:58]]></name>
    <trkseg>
      <trkpt lat="43.35234" lon="-0.55376">
        <ele>121.26</ele>
        <time>2017-02-04T07:58:34Z</time>
      </trkpt>
      <trkpt lat="43.35235" lon="-0.55377">
        <ele>119.34</ele>
        <time>2017-02-04T07:59:05Z</time>
      </trkpt>
      <trkpt lat="43.35233" lon="-0.55375">
        <ele>120.3</ele>
        <time>2017-02-04T07:59:18Z</time>
      </trkpt>
      <trkpt lat="43.3523" lon="-0.5537">
        <ele>119.82</ele>
        <time>2017-02-04T07:59:21Z</time>
      </trkpt>
      <trkpt lat="43.35229" lon="-0.55366">
        <ele>119.82</ele>
        <time>2017-02-04T07:59:22Z</time>
      </trkpt>
      <trkpt lat="43.35229" lon="-0.55363">
        <ele>119.34</ele>
        <time>2017-02-04T07:59:23Z</time>
      </trkpt>
      <trkpt lat="43.35229" lon="-0.55359">
        <ele>119.34</ele>
        <time>2017-02-04T07:59:24Z</time>
      </trkpt>
      <trkpt lat="43.35228" lon="-0.55355">
        <ele>119.34</ele>
        <time>2017-02-04T07:59:25Z</time>
      </trkpt>
      <trkpt lat="43.35227" lon="-0.5535">
        <ele>119.34</ele>
        <time>2017-02-04T07:59:26Z</time>
      </trkpt>
      <trkpt lat="43.35226" lon="-0.55346">
        <ele>119.34</ele>
        <time>2017-02-04T07:59:27Z</time>
      </trkpt>
      <trkpt lat="43.35225" lon="-0.55341">
        <ele>119.82</ele>
        <time>2017-02-04T07:59:28Z</time>
      </trkpt>
      <trkpt lat="43.35224" lon="-0.55337">
        <ele>119.82</ele>
        <time>2017-02-04T07:59:29Z</time>
      </trkpt>
      <trkpt lat="43.35223" lon="-0.55332">
        <ele>119.82</ele>
        <time>2017-02-04T07:59:30Z</time>
      </trkpt>
      <trkpt lat="43.35219" lon="-0.55253">
        <ele>121.26</ele>
        <time>2017-02-04T07:59:45Z</time>
      </trkpt>
      <trkpt lat="43.35201" lon="-0.55201">
        <ele>122.22</ele>
        <time>2017-02-04T07:59:57Z</time>
      </trkpt>
      <trkpt lat="43.35163" lon="-0.5514">
        <ele>124.63</ele>
        <time>2017-02-04T08:00:12Z</time>
      </trkpt>
      <trkpt lat="43.3516" lon="-0.55136">
        <ele>124.63</ele>
        <time>2017-02-04T08:00:13Z</time>
      </trkpt>
      <trkpt lat="43.35157" lon="-0.55133">
        <ele>124.63</ele>
        <time>2017-02-04T08:00:14Z</time>
      </trkpt>
      <trkpt lat="43.35149" lon="-0.55127">
        <ele>125.11</ele>
        <time>2017-02-04T08:00:16Z</time>
      </trkpt>
      <trkpt lat="43.35086" lon="-0.55097">
        <ele>124.63</ele>
        <time>2017-02-04T08:00:31Z</time>
      </trkpt>
      <trkpt lat="43.35047" lon="-0.55078">
        <ele>124.15</ele>
        <time>2017-02-04T08:00:39Z</time>
      </trkpt>
      <trkpt lat="43.35034" lon="-0.55067">
        <ele>124.15</ele>
        <time>2017-02-04T08:00:42Z</time>
      </trkpt>
      <trkpt lat="43.34969" lon="-0.54981">
        <ele>125.11</ele>
        <time>2017-02-04T08:00:59Z</time>
      </trkpt>
      <trkpt lat="43.34963" lon="-0.5497">
        <ele>125.59</ele>
        <time>2017-02-04T08:01:01Z</time>
      </trkpt>
      <trkpt lat="43.34928" lon="-0.54917">
        <ele>128.47</ele>
        <time>2017-02-04T08:01:14Z</time>
      </trkpt>
      <trkpt lat="43.34884" lon="-0.54895">
        <ele>128.95</ele>
        <time>2017-02-04T08:01:24Z</time>
      </trkpt>
      <trkpt lat="43.34879" lon="-0.54894">
        <ele>128.95</ele>
        <time>2017-02-04T08:01:25Z</time>
      </trkpt>
      <trkpt lat="43.34859" lon="-0.54892">
        <ele>128.95</ele>
        <time>2017-02-04T08:01:29Z</time>
      </trkpt>
      <trkpt lat="43.34854" lon="-0.5489">
        <ele>128.95</ele>
        <time>2017-02-04T08:01:30Z</time>
      </trkpt>
      <trkpt lat="43.3485" lon="-0.54888">
        <ele>128.95</ele>
        <time>2017-02-04T08:01:31Z</time>
      </trkpt>
      <trkpt lat="43.34846" lon="-0.54884">
        <ele>128.47</ele>
        <time>2017-02-04T08:01:32Z</time>
      </trkpt>
      <trkpt lat="43.34842" lon="-0.5488">
        <ele>128.47</ele>
        <time>2017-02-04T08:01:33Z</time>
      </trkpt>
      <trkpt lat="43.34839" lon="-0.54875">
        <ele>127.99</ele>
        <time>2017-02-04T08:01:34Z</time>
      </trkpt>
      <trkpt lat="43.34836" lon="-0.54869">
        <ele>127.99</ele>
        <time>2017-02-04T08:01:35Z</time>
      </trkpt>
      <trkpt lat="43.34831" lon="-0.54857">
        <ele>127.03</ele>
        <time>2017-02-04T08:01:37Z</time>
      </trkpt>
      <trkpt lat="43.34829" lon="-0.54849">
        <ele>126.55</ele>
        <time>2017-02-04T08:01:38Z</time>
      </trkpt>
      <trkpt lat="43.34829" lon="-0.54842">
        <ele>126.07</ele>
        <time>2017-02-04T08:01:39Z</time>
      </trkpt>
      <trkpt lat="43.34833" lon="-0.54806">
        <ele>123.67</ele>
        <time>2017-02-04T08:01:48Z</time>
      </trkpt>
      <trkpt lat="43.34856" lon="-0.54783">
        <ele>124.63</ele>
        <time>2017-02-04T08:02:00Z</time>
      </trkpt>
      <trkpt lat="43.34881" lon="-0.54758">
        <ele>130.88</ele>
        <time>2017-02-04T08:02:14Z</time>
      </trkpt>
      <trkpt lat="43.34903" lon="-0.54723">
        <ele>134.72</ele>
        <time>2017-02-04T08:02:29Z</time>
      </trkpt>
      <trkpt lat="43.34917" lon="-0.54685">
        <ele>135.68</ele>
        <time>2017-02-04T08:02:42Z</time>
      </trkpt>
      <trkpt lat="43.34933" lon="-0.54644">
        <ele>137.61</ele>
        <time>2017-02-04T08:02:57Z</time>
      </trkpt>
      <trkpt lat="43.34949" lon="-0.54634">
        <ele>139.53</ele>
        <time>2017-02-04T08:03:08Z</time>
      </trkpt>
      <trkpt lat="43.3495" lon="-0.54633">
        <ele>140.01</ele>
        <time>2017-02-04T08:03:09Z</time>
      </trkpt>
      <trkpt lat="43.34972" lon="-0.54632">
        <ele>145.78</ele>
        <time>2017-02-04T08:03:24Z</time>
      </trkpt>
      <trkpt lat="43.34984" lon="-0.54635">
        <ele>147.7</ele>
        <time>2017-02-04T08:03:32Z</time>
      </trkpt>
      <trkpt lat="43.34985" lon="-0.54635">
        <ele>148.18</ele>
        <time>2017-02-04T08:03:33Z</time>
      </trkpt>
      <trkpt lat="43.34986" lon="-0.54636">
        <ele>148.66</ele>
        <time>2017-02-04T08:03:34Z</time>
      </trkpt>
      <trkpt lat="43.34988" lon="-0.54636">
        <ele>149.14</ele>
        <time>2017-02-04T08:03:35Z</time>
      </trkpt>
      <trkpt lat="43.3499" lon="-0.54636">
        <ele>149.14</ele>
        <time>2017-02-04T08:03:36Z</time>
      </trkpt>
      <trkpt lat="43.35019" lon="-0.54644">
        <ele>152.99</ele>
        <time>2017-02-04T08:03:56Z</time>
      </trkpt>
      <trkpt lat="43.35043" lon="-0.54648">
        <ele>155.39</ele>
        <time>2017-02-04T08:04:12Z</time>
      </trkpt>
      <trkpt lat="43.35072" lon="-0.54652">
        <ele>158.27</ele>
        <time>2017-02-04T08:04:31Z</time>
      </trkpt>
      <trkpt lat="43.35092" lon="-0.5466">
        <ele>159.72</ele>
        <time>2017-02-04T08:04:47Z</time>
      </trkpt>
      <trkpt lat="43.35099" lon="-0.54657">
        <ele>161.16</ele>
        <time>2017-02-04T08:04:52Z</time>
      </trkpt>
      <trkpt lat="43.351" lon="-0.54655">
        <ele>161.16</ele>
        <time>2017-02-04T08:04:53Z</time>
      </trkpt>
      <trkpt lat="43.35101" lon="-0.54654">
        <ele>161.16</ele>
        <time>2017-02-04T08:04:54Z</time>
      </trkpt>
      <trkpt lat="43.35102" lon="-0.54653">
        <ele>161.16</ele>
        <time>2017-02-04T08:04:55Z</time>
      </trkpt>
      <trkpt lat="43.35103" lon="-0.54651">
        <ele>161.16</ele>
        <time>2017-02-04T08:04:56Z</time>
      </trkpt>
      <trkpt lat="43.35104" lon="-0.54649">
        <ele>161.16</ele>
        <time>2017-02-04T08:04:57Z</time>
      </trkpt>
      <trkpt lat="43.35105" lon="-0.54647">
        <ele>161.16</ele>
        <time>2017-02-04T08:04:58Z</time>
      </trkpt>
      <trkpt lat="43.35126" lon="-0.54629">
        <ele>166.93</ele>
        <time>2017-02-04T08:05:12Z</time>
      </trkpt>
      <trkpt lat="43.35143" lon="-0.54622">
        <ele>171.73</ele>
        <time>2017-02-04T08:05:24Z</time>
      </trkpt>
      <trkpt lat="43.35161" lon="-0.546">
        <ele>176.54</ele>
        <time>2017-02-04T08:05:38Z</time>
      </trkpt>
      <trkpt lat="43.35164" lon="-0.54593">
        <ele>177.98</ele>
        <time>2017-02-04T08:05:42Z</time>
      </trkpt>
      <trkpt lat="43.35165" lon="-0.54589">
        <ele>178.94</ele>
        <time>2017-02-04T08:05:44Z</time>
      </trkpt>
      <trkpt lat="43.35165" lon="-0.54587">
        <ele>179.42</ele>
        <time>2017-02-04T08:05:45Z</time>
      </trkpt>
      <trkpt lat="43.35165" lon="-0.54585">
        <ele>178.94</ele>
        <time>2017-02-04T08:05:46Z</time>
      </trkpt>
      <trkpt lat="43.35165" lon="-0.54576">
        <ele>178.94</ele>
        <time>2017-02-04T08:05:50Z</time>
      </trkpt>
      <trkpt lat="43.35165" lon="-0.54573">
        <ele>179.9</ele>
        <time>2017-02-04T08:05:52Z</time>
      </trkpt>
      <trkpt lat="43.35165" lon="-0.54571">
        <ele>179.9</ele>
        <time>2017-02-04T08:05:53Z</time>
      </trkpt>
      <trkpt lat="43.35165" lon="-0.54562">
        <ele>180.38</ele>
        <time>2017-02-04T08:05:57Z</time>
      </trkpt>
      <trkpt lat="43.35165" lon="-0.54557">
        <ele>179.9</ele>
        <time>2017-02-04T08:05:59Z</time>
      </trkpt>
      <trkpt lat="43.35165" lon="-0.54554">
        <ele>179.9</ele>
        <time>2017-02-04T08:06:00Z</time>
      </trkpt>
      <trkpt lat="43.35165" lon="-0.54551">
        <ele>179.9</ele>
        <time>2017-02-04T08:06:01Z</time>
      </trkpt>
      <trkpt lat="43.35165" lon="-0.54548">
        <ele>180.38</ele>
        <time>2017-02-04T08:06:02Z</time>
      </trkpt>
      <trkpt lat="43.35165" lon="-0.54546">
        <ele>180.38</ele>
        <time>2017-02-04T08:06:03Z</time>
      </trkpt>
      <trkpt lat="43.35168" lon="-0.545">
        <ele>178.46</ele>
        <time>2017-02-04T08:06:21Z</time>
      </trkpt>
      <trkpt lat="43.35169" lon="-0.5447">
        <ele>179.42</ele>
        <time>2017-02-04T08:06:37Z</time>
      </trkpt>
      <trkpt lat="43.35173" lon="-0.54453">
        <ele>179.42</ele>
        <time>2017-02-04T08:06:46Z</time>
      </trkpt>
      <trkpt lat="43.35173" lon="-0.54451">
        <ele>179.42</ele>
        <time>2017-02-04T08:06:47Z</time>
      </trkpt>
      <trkpt lat="43.35174" lon="-0.54449">
        <ele>179.42</ele>
        <time>2017-02-04T08:06:48Z</time>
      </trkpt>
      <trkpt lat="43.35185" lon="-0.54412">
        <ele>178.94</ele>
        <time>2017-02-04T08:07:02Z</time>
      </trkpt>
      <trkpt lat="43.35196" lon="-0.54341">
        <ele>176.06</ele>
        <time>2017-02-04T08:07:18Z</time>
      </trkpt>
      <trkpt lat="43.35204" lon="-0.54315">
        <ele>175.1</ele>
        <time>2017-02-04T08:07:23Z</time>
      </trkpt>
      <trkpt lat="43.35205" lon="-0.54309">
        <ele>175.1</ele>
        <time>2017-02-04T08:07:24Z</time>
      </trkpt>
      <trkpt lat="43.35204" lon="-0.54303">
        <ele>175.58</ele>
        <time>2017-02-04T08:07:25Z</time>
      </trkpt>
      <trkpt lat="43.35203" lon="-0.54298">
        <ele>175.58</ele>
        <time>2017-02-04T08:07:26Z</time>
      </trkpt>
      <trkpt lat="43.35201" lon="-0.54293">
        <ele>175.1</ele>
        <time>2017-02-04T08:07:27Z</time>
      </trkpt>
      <trkpt lat="43.35188" lon="-0.5424">
        <ele>177.5</ele>
        <time>2017-02-04T08:07:41Z</time>
      </trkpt>
      <trkpt lat="43.35174" lon="-0.54194">
        <ele>181.35</ele>
        <time>2017-02-04T08:07:56Z</time>
      </trkpt>
      <trkpt lat="43.35171" lon="-0.54161">
        <ele>185.19</ele>
        <time>2017-02-04T08:08:12Z</time>
      </trkpt>
      <trkpt lat="43.3518" lon="-0.54124">
        <ele>188.56</ele>
        <time>2017-02-04T08:08:31Z</time>
      </trkpt>
      <trkpt lat="43.35188" lon="-0.54097">
        <ele>192.4</ele>
        <time>2017-02-04T08:08:46Z</time>
      </trkpt>
      <trkpt lat="43.35191" lon="-0.54068">
        <ele>196.25</ele>
        <time>2017-02-04T08:09:03Z</time>
      </trkpt>
      <trkpt lat="43.35189" lon="-0.54064">
        <ele>198.17</ele>
        <time>2017-02-04T08:09:06Z</time>
      </trkpt>
      <trkpt lat="43.35187" lon="-0.54063">
        <ele>198.65</ele>
        <time>2017-02-04T08:09:07Z</time>
      </trkpt>
      <trkpt lat="43.35186" lon="-0.54062">
        <ele>199.13</ele>
        <time>2017-02-04T08:09:08Z</time>
      </trkpt>
      <trkpt lat="43.3516" lon="-0.54044">
        <ele>200.09</ele>
        <time>2017-02-04T08:09:23Z</time>
      </trkpt>
      <trkpt lat="43.35146" lon="-0.54037">
        <ele>198.65</ele>
        <time>2017-02-04T08:09:31Z</time>
      </trkpt>
      <trkpt lat="43.35145" lon="-0.54036">
        <ele>198.65</ele>
        <time>2017-02-04T08:09:32Z</time>
      </trkpt>
      <trkpt lat="43.35143" lon="-0.54035">
        <ele>198.65</ele>
        <time>2017-02-04T08:09:33Z</time>
      </trkpt>
      <trkpt lat="43.35109" lon="-0.54022">
        <ele>200.57</ele>
        <time>2017-02-04T08:09:46Z</time>
      </trkpt>
      <trkpt lat="43.35093" lon="-0.53993">
        <ele>201.53</ele>
        <time>2017-02-04T08:09:54Z</time>
      </trkpt>
      <trkpt lat="43.35091" lon="-0.53988">
        <ele>201.53</ele>
        <time>2017-02-04T08:09:55Z</time>
      </trkpt>
      <trkpt lat="43.35088" lon="-0.53983">
        <ele>201.53</ele>
        <time>2017-02-04T08:09:56Z</time>
      </trkpt>
      <trkpt lat="43.35082" lon="-0.53973">
        <ele>202.01</ele>
        <time>2017-02-04T08:09:58Z</time>
      </trkpt>
      <trkpt lat="43.35075" lon="-0.53954">
        <ele>201.53</ele>
        <time>2017-02-04T08:10:01Z</time>
      </trkpt>
      <trkpt lat="43.35072" lon="-0.53939">
        <ele>201.05</ele>
        <time>2017-02-04T08:10:03Z</time>
      </trkpt>
      <trkpt lat="43.35072" lon="-0.53925">
        <ele>200.57</ele>
        <time>2017-02-04T08:10:05Z</time>
      </trkpt>
      <trkpt lat="43.35072" lon="-0.53892">
        <ele>199.13</ele>
        <time>2017-02-04T08:10:11Z</time>
      </trkpt>
      <trkpt lat="43.35065" lon="-0.53829">
        <ele>197.69</ele>
        <time>2017-02-04T08:10:22Z</time>
      </trkpt>
      <trkpt lat="43.35064" lon="-0.53822">
        <ele>197.69</ele>
        <time>2017-02-04T08:10:23Z</time>
      </trkpt>
      <trkpt lat="43.35062" lon="-0.53816">
        <ele>197.21</ele>
        <time>2017-02-04T08:10:24Z</time>
      </trkpt>
      <trkpt lat="43.35061" lon="-0.53808">
        <ele>196.73</ele>
        <time>2017-02-04T08:10:25Z</time>
      </trkpt>
      <trkpt lat="43.35059" lon="-0.53799">
        <ele>196.73</ele>
        <time>2017-02-04T08:10:26Z</time>
      </trkpt>
      <trkpt lat="43.35034" lon="-0.53695">
        <ele>190.48</ele>
        <time>2017-02-04T08:10:38Z</time>
      </trkpt>
      <trkpt lat="43.35026" lon="-0.53676">
        <ele>190.48</ele>
        <time>2017-02-04T08:10:41Z</time>
      </trkpt>
      <trkpt lat="43.35024" lon="-0.5367">
        <ele>190.48</ele>
        <time>2017-02-04T08:10:42Z</time>
      </trkpt>
      <trkpt lat="43.35022" lon="-0.53664">
        <ele>190.48</ele>
        <time>2017-02-04T08:10:43Z</time>
      </trkpt>
      <trkpt lat="43.35004" lon="-0.53599">
        <ele>193.84</ele>
        <time>2017-02-04T08:10:57Z</time>
      </trkpt>
      <trkpt lat="43.35005" lon="-0.53541">
        <ele>193.36</ele>
        <time>2017-02-04T08:11:09Z</time>
      </trkpt>
      <trkpt lat="43.35006" lon="-0.53471">
        <ele>191.92</ele>
        <time>2017-02-04T08:11:23Z</time>
      </trkpt>
      <trkpt lat="43.35002" lon="-0.53409">
        <ele>192.88</ele>
        <time>2017-02-04T08:11:36Z</time>
      </trkpt>
      <trkpt lat="43.34996" lon="-0.53359">
        <ele>193.36</ele>
        <time>2017-02-04T08:11:48Z</time>
      </trkpt>
      <trkpt lat="43.34995" lon="-0.53356">
        <ele>193.36</ele>
        <time>2017-02-04T08:11:49Z</time>
      </trkpt>
      <trkpt lat="43.34993" lon="-0.53352">
        <ele>193.36</ele>
        <time>2017-02-04T08:11:50Z</time>
      </trkpt>
      <trkpt lat="43.34983" lon="-0.53336">
        <ele>193.36</ele>
        <time>2017-02-04T08:11:54Z</time>
      </trkpt>
      <trkpt lat="43.34981" lon="-0.53331">
        <ele>193.84</ele>
        <time>2017-02-04T08:11:55Z</time>
      </trkpt>
      <trkpt lat="43.34979" lon="-0.53327">
        <ele>193.84</ele>
        <time>2017-02-04T08:11:56Z</time>
      </trkpt>
      <trkpt lat="43.34978" lon="-0.53323">
        <ele>193.84</ele>
        <time>2017-02-04T08:11:57Z</time>
      </trkpt>
      <trkpt lat="43.34977" lon="-0.53319">
        <ele>193.84</ele>
        <time>2017-02-04T08:11:58Z</time>
      </trkpt>
      <trkpt lat="43.3497" lon="-0.53277">
        <ele>196.73</ele>
        <time>2017-02-04T08:12:12Z</time>
      </trkpt>
      <trkpt lat="43.34964" lon="-0.5324">
        <ele>198.17</ele>
        <time>2017-02-04T08:12:25Z</time>
      </trkpt>
      <trkpt lat="43.34943" lon="-0.53203">
        <ele>198.65</ele>
        <time>2017-02-04T08:12:34Z</time>
      </trkpt>
      <trkpt lat="43.34939" lon="-0.53199">
        <ele>198.17</ele>
        <time>2017-02-04T08:12:35Z</time>
      </trkpt>
      <trkpt lat="43.34926" lon="-0.53179">
        <ele>196.73</ele>
        <time>2017-02-04T08:12:39Z</time>
      </trkpt>
      <trkpt lat="43.34922" lon="-0.53176">
        <ele>196.73</ele>
        <time>2017-02-04T08:12:40Z</time>
      </trkpt>
      <trkpt lat="43.34919" lon="-0.53175">
        <ele>196.25</ele>
        <time>2017-02-04T08:12:41Z</time>
      </trkpt>
      <trkpt lat="43.34857" lon="-0.5317">
        <ele>194.32</ele>
        <time>2017-02-04T08:12:51Z</time>
      </trkpt>
      <trkpt lat="43.34826" lon="-0.53167">
        <ele>193.36</ele>
        <time>2017-02-04T08:12:56Z</time>
      </trkpt>
      <trkpt lat="43.34821" lon="-0.53167">
        <ele>193.36</ele>
        <time>2017-02-04T08:12:57Z</time>
      </trkpt>
      <trkpt lat="43.34817" lon="-0.53167">
        <ele>193.84</ele>
        <time>2017-02-04T08:12:58Z</time>
      </trkpt>
      <trkpt lat="43.34814" lon="-0.53165">
        <ele>194.32</ele>
        <time>2017-02-04T08:12:59Z</time>
      </trkpt>
      <trkpt lat="43.34812" lon="-0.53164">
        <ele>194.32</ele>
        <time>2017-02-04T08:13:00Z</time>
      </trkpt>
      <trkpt lat="43.3478" lon="-0.5315">
        <ele>194.8</ele>
        <time>2017-02-04T08:13:15Z</time>
      </trkpt>
      <trkpt lat="43.34764" lon="-0.53143">
        <ele>195.77</ele>
        <time>2017-02-04T08:13:24Z</time>
      </trkpt>
      <trkpt lat="43.34763" lon="-0.5314">
        <ele>196.25</ele>
        <time>2017-02-04T08:13:25Z</time>
      </trkpt>
      <trkpt lat="43.34763" lon="-0.53138">
        <ele>196.25</ele>
        <time>2017-02-04T08:13:26Z</time>
      </trkpt>
      <trkpt lat="43.34763" lon="-0.53136">
        <ele>196.25</ele>
        <time>2017-02-04T08:13:27Z</time>
      </trkpt>
      <trkpt lat="43.34762" lon="-0.53134">
        <ele>196.25</ele>
        <time>2017-02-04T08:13:28Z</time>
      </trkpt>
      <trkpt lat="43.3476" lon="-0.53131">
        <ele>195.28</ele>
        <time>2017-02-04T08:13:29Z</time>
      </trkpt>
      <trkpt lat="43.34741" lon="-0.53104">
        <ele>196.73</ele>
        <time>2017-02-04T08:13:43Z</time>
      </trkpt>
      <trkpt lat="43.34724" lon="-0.5308">
        <ele>200.57</ele>
        <time>2017-02-04T08:13:57Z</time>
      </trkpt>
      <trkpt lat="43.34702" lon="-0.53063">
        <ele>201.05</ele>
        <time>2017-02-04T08:14:09Z</time>
      </trkpt>
      <trkpt lat="43.34684" lon="-0.53044">
        <ele>201.53</ele>
        <time>2017-02-04T08:14:21Z</time>
      </trkpt>
      <trkpt lat="43.3467" lon="-0.5303">
        <ele>205.38</ele>
        <time>2017-02-04T08:14:33Z</time>
      </trkpt>
      <trkpt lat="43.3465" lon="-0.53014">
        <ele>204.9</ele>
        <time>2017-02-04T08:14:45Z</time>
      </trkpt>
      <trkpt lat="43.3463" lon="-0.52992">
        <ele>204.42</ele>
        <time>2017-02-04T08:14:57Z</time>
      </trkpt>
      <trkpt lat="43.34612" lon="-0.52975">
        <ele>202.49</ele>
        <time>2017-02-04T08:15:08Z</time>
      </trkpt>
      <trkpt lat="43.34594" lon="-0.52964">
        <ele>200.09</ele>
        <time>2017-02-04T08:15:18Z</time>
      </trkpt>
      <trkpt lat="43.34571" lon="-0.52944">
        <ele>200.57</ele>
        <time>2017-02-04T08:15:30Z</time>
      </trkpt>
      <trkpt lat="43.34558" lon="-0.52933">
        <ele>201.05</ele>
        <time>2017-02-04T08:15:38Z</time>
      </trkpt>
      <trkpt lat="43.34545" lon="-0.5292">
        <ele>199.61</ele>
        <time>2017-02-04T08:15:43Z</time>
      </trkpt>
      <trkpt lat="43.34542" lon="-0.52914">
        <ele>199.13</ele>
        <time>2017-02-04T08:15:44Z</time>
      </trkpt>
      <trkpt lat="43.34538" lon="-0.52908">
        <ele>198.65</ele>
        <time>2017-02-04T08:15:45Z</time>
      </trkpt>
      <trkpt lat="43.34509" lon="-0.5287">
        <ele>197.69</ele>
        <time>2017-02-04T08:15:54Z</time>
      </trkpt>
      <trkpt lat="43.34495" lon="-0.52852">
        <ele>202.01</ele>
        <time>2017-02-04T08:16:01Z</time>
      </trkpt>
      <trkpt lat="43.34485" lon="-0.52837">
        <ele>206.34</ele>
        <time>2017-02-04T08:16:08Z</time>
      </trkpt>
      <trkpt lat="43.34472" lon="-0.52801">
        <ele>209.7</ele>
        <time>2017-02-04T08:16:20Z</time>
      </trkpt>
      <trkpt lat="43.34469" lon="-0.52766">
        <ele>207.78</ele>
        <time>2017-02-04T08:16:26Z</time>
      </trkpt>
      <trkpt lat="43.34461" lon="-0.52721">
        <ele>204.42</ele>
        <time>2017-02-04T08:16:38Z</time>
      </trkpt>
      <trkpt lat="43.34448" lon="-0.52705">
        <ele>200.57</ele>
        <time>2017-02-04T08:16:47Z</time>
      </trkpt>
      <trkpt lat="43.34444" lon="-0.52701">
        <ele>199.61</ele>
        <time>2017-02-04T08:16:49Z</time>
      </trkpt>
      <trkpt lat="43.34443" lon="-0.52697">
        <ele>199.13</ele>
        <time>2017-02-04T08:16:50Z</time>
      </trkpt>
      <trkpt lat="43.34444" lon="-0.52686">
        <ele>196.73</ele>
        <time>2017-02-04T08:16:53Z</time>
      </trkpt>
      <trkpt lat="43.34443" lon="-0.52683">
        <ele>196.25</ele>
        <time>2017-02-04T08:16:54Z</time>
      </trkpt>
      <trkpt lat="43.34442" lon="-0.52682">
        <ele>195.77</ele>
        <time>2017-02-04T08:16:55Z</time>
      </trkpt>
      <trkpt lat="43.3444" lon="-0.52681">
        <ele>194.32</ele>
        <time>2017-02-04T08:16:57Z</time>
      </trkpt>
      <trkpt lat="43.34433" lon="-0.52679">
        <ele>193.36</ele>
        <time>2017-02-04T08:17:01Z</time>
      </trkpt>
      <trkpt lat="43.34432" lon="-0.52676">
        <ele>193.36</ele>
        <time>2017-02-04T08:17:02Z</time>
      </trkpt>
      <trkpt lat="43.34432" lon="-0.52672">
        <ele>192.88</ele>
        <time>2017-02-04T08:17:04Z</time>
      </trkpt>
      <trkpt lat="43.34424" lon="-0.5264">
        <ele>190.96</ele>
        <time>2017-02-04T08:17:16Z</time>
      </trkpt>
      <trkpt lat="43.34423" lon="-0.52634">
        <ele>191.44</ele>
        <time>2017-02-04T08:17:18Z</time>
      </trkpt>
      <trkpt lat="43.34422" lon="-0.52627">
        <ele>191.92</ele>
        <time>2017-02-04T08:17:20Z</time>
      </trkpt>
      <trkpt lat="43.34409" lon="-0.52617">
        <ele>188.08</ele>
        <time>2017-02-04T08:17:30Z</time>
      </trkpt>
      <trkpt lat="43.34405" lon="-0.52611">
        <ele>187.11</ele>
        <time>2017-02-04T08:17:39Z</time>
      </trkpt>
      <trkpt lat="43.34383" lon="-0.52587">
        <ele>186.15</ele>
        <time>2017-02-04T08:17:49Z</time>
      </trkpt>
      <trkpt lat="43.3437" lon="-0.52545">
        <ele>187.11</ele>
        <time>2017-02-04T08:17:59Z</time>
      </trkpt>
      <trkpt lat="43.34354" lon="-0.52514">
        <ele>187.59</ele>
        <time>2017-02-04T08:18:11Z</time>
      </trkpt>
      <trkpt lat="43.34334" lon="-0.52483">
        <ele>186.63</ele>
        <time>2017-02-04T08:18:20Z</time>
      </trkpt>
      <trkpt lat="43.34309" lon="-0.52452">
        <ele>180.38</ele>
        <time>2017-02-04T08:18:30Z</time>
      </trkpt>
      <trkpt lat="43.343" lon="-0.52426">
        <ele>182.31</ele>
        <time>2017-02-04T08:18:39Z</time>
      </trkpt>
      <trkpt lat="43.3429" lon="-0.52385">
        <ele>189.52</ele>
        <time>2017-02-04T08:18:51Z</time>
      </trkpt>
      <trkpt lat="43.34285" lon="-0.52374">
        <ele>190.48</ele>
        <time>2017-02-04T08:18:55Z</time>
      </trkpt>
      <trkpt lat="43.34283" lon="-0.52372">
        <ele>190.48</ele>
        <time>2017-02-04T08:18:56Z</time>
      </trkpt>
      <trkpt lat="43.34281" lon="-0.52369">
        <ele>190.48</ele>
        <time>2017-02-04T08:18:57Z</time>
      </trkpt>
      <trkpt lat="43.34279" lon="-0.52366">
        <ele>190.48</ele>
        <time>2017-02-04T08:18:58Z</time>
      </trkpt>
      <trkpt lat="43.34277" lon="-0.52364">
        <ele>190.48</ele>
        <time>2017-02-04T08:18:59Z</time>
      </trkpt>
      <trkpt lat="43.34275" lon="-0.52361">
        <ele>190.48</ele>
        <time>2017-02-04T08:19:00Z</time>
      </trkpt>
      <trkpt lat="43.34255" lon="-0.5234">
        <ele>192.4</ele>
        <time>2017-02-04T08:19:10Z</time>
      </trkpt>
      <trkpt lat="43.34253" lon="-0.5234">
        <ele>192.4</ele>
        <time>2017-02-04T08:19:11Z</time>
      </trkpt>
      <trkpt lat="43.3425" lon="-0.5234">
        <ele>191.92</ele>
        <time>2017-02-04T08:19:12Z</time>
      </trkpt>
      <trkpt lat="43.34223" lon="-0.52334">
        <ele>192.88</ele>
        <time>2017-02-04T08:19:23Z</time>
      </trkpt>
      <trkpt lat="43.34202" lon="-0.52319">
        <ele>194.32</ele>
        <time>2017-02-04T08:19:34Z</time>
      </trkpt>
      <trkpt lat="43.34184" lon="-0.52298">
        <ele>199.61</ele>
        <time>2017-02-04T08:19:45Z</time>
      </trkpt>
      <trkpt lat="43.34166" lon="-0.52281">
        <ele>203.94</ele>
        <time>2017-02-04T08:19:57Z</time>
      </trkpt>
      <trkpt lat="43.34147" lon="-0.52272">
        <ele>207.3</ele>
        <time>2017-02-04T08:20:06Z</time>
      </trkpt>
      <trkpt lat="43.34146" lon="-0.52271">
        <ele>207.78</ele>
        <time>2017-02-04T08:20:07Z</time>
      </trkpt>
      <trkpt lat="43.34144" lon="-0.5227">
        <ele>207.78</ele>
        <time>2017-02-04T08:20:08Z</time>
      </trkpt>
      <trkpt lat="43.34142" lon="-0.5227">
        <ele>207.78</ele>
        <time>2017-02-04T08:20:09Z</time>
      </trkpt>
      <trkpt lat="43.3414" lon="-0.52269">
        <ele>208.26</ele>
        <time>2017-02-04T08:20:10Z</time>
      </trkpt>
      <trkpt lat="43.34124" lon="-0.52257">
        <ele>208.26</ele>
        <time>2017-02-04T08:20:15Z</time>
      </trkpt>
      <trkpt lat="43.34095" lon="-0.52221">
        <ele>208.74</ele>
        <time>2017-02-04T08:20:22Z</time>
      </trkpt>
      <trkpt lat="43.34086" lon="-0.52214">
        <ele>208.74</ele>
        <time>2017-02-04T08:20:24Z</time>
      </trkpt>
      <trkpt lat="43.34082" lon="-0.52212">
        <ele>208.74</ele>
        <time>2017-02-04T08:20:25Z</time>
      </trkpt>
      <trkpt lat="43.34056" lon="-0.52195">
        <ele>209.22</ele>
        <time>2017-02-04T08:20:33Z</time>
      </trkpt>
      <trkpt lat="43.34053" lon="-0.52193">
        <ele>209.7</ele>
        <time>2017-02-04T08:20:34Z</time>
      </trkpt>
      <trkpt lat="43.34051" lon="-0.52192">
        <ele>210.19</ele>
        <time>2017-02-04T08:20:35Z</time>
      </trkpt>
      <trkpt lat="43.34048" lon="-0.52191">
        <ele>210.19</ele>
        <time>2017-02-04T08:20:36Z</time>
      </trkpt>
      <trkpt lat="43.34045" lon="-0.52191">
        <ele>209.7</ele>
        <time>2017-02-04T08:20:37Z</time>
      </trkpt>
      <trkpt lat="43.34042" lon="-0.5219">
        <ele>209.22</ele>
        <time>2017-02-04T08:20:38Z</time>
      </trkpt>
      <trkpt lat="43.34025" lon="-0.52183">
        <ele>209.7</ele>
        <time>2017-02-04T08:20:47Z</time>
      </trkpt>
      <trkpt lat="43.34018" lon="-0.52181">
        <ele>213.07</ele>
        <time>2017-02-04T08:21:20Z</time>
      </trkpt>
      <trkpt lat="43.33997" lon="-0.52168">
        <ele>215.47</ele>
        <time>2017-02-04T08:21:32Z</time>
      </trkpt>
      <trkpt lat="43.33965" lon="-0.52157">
        <ele>215.95</ele>
        <time>2017-02-04T08:21:45Z</time>
      </trkpt>
      <trkpt lat="43.33933" lon="-0.5215">
        <ele>215.47</ele>
        <time>2017-02-04T08:21:58Z</time>
      </trkpt>
      <trkpt lat="43.33896" lon="-0.52118">
        <ele>214.51</ele>
        <time>2017-02-04T08:22:12Z</time>
      </trkpt>
      <trkpt lat="43.33866" lon="-0.5208">
        <ele>213.07</ele>
        <time>2017-02-04T08:22:19Z</time>
      </trkpt>
      <trkpt lat="43.33862" lon="-0.52075">
        <ele>212.59</ele>
        <time>2017-02-04T08:22:20Z</time>
      </trkpt>
      <trkpt lat="43.33857" lon="-0.52071">
        <ele>212.11</ele>
        <time>2017-02-04T08:22:21Z</time>
      </trkpt>
      <trkpt lat="43.33852" lon="-0.52066">
        <ele>212.11</ele>
        <time>2017-02-04T08:22:22Z</time>
      </trkpt>
      <trkpt lat="43.33848" lon="-0.5206">
        <ele>211.63</ele>
        <time>2017-02-04T08:22:23Z</time>
      </trkpt>
      <trkpt lat="43.33833" lon="-0.52042">
        <ele>211.15</ele>
        <time>2017-02-04T08:22:27Z</time>
      </trkpt>
      <trkpt lat="43.3383" lon="-0.52037">
        <ele>211.15</ele>
        <time>2017-02-04T08:22:28Z</time>
      </trkpt>
      <trkpt lat="43.33828" lon="-0.52032">
        <ele>211.15</ele>
        <time>2017-02-04T08:22:29Z</time>
      </trkpt>
      <trkpt lat="43.33826" lon="-0.52028">
        <ele>211.63</ele>
        <time>2017-02-04T08:22:30Z</time>
      </trkpt>
      <trkpt lat="43.33824" lon="-0.52024">
        <ele>211.63</ele>
        <time>2017-02-04T08:22:31Z</time>
      </trkpt>
      <trkpt lat="43.3382" lon="-0.51976">
        <ele>212.59</ele>
        <time>2017-02-04T08:22:43Z</time>
      </trkpt>
      <trkpt lat="43.33812" lon="-0.51921">
        <ele>211.15</ele>
        <time>2017-02-04T08:22:55Z</time>
      </trkpt>
      <trkpt lat="43.33782" lon="-0.5186">
        <ele>209.7</ele>
        <time>2017-02-04T08:23:07Z</time>
      </trkpt>
      <trkpt lat="43.33769" lon="-0.51836">
        <ele>208.74</ele>
        <time>2017-02-04T08:23:14Z</time>
      </trkpt>
      <trkpt lat="43.33763" lon="-0.51819">
        <ele>208.26</ele>
        <time>2017-02-04T08:23:19Z</time>
      </trkpt>
      <trkpt lat="43.33716" lon="-0.5177">
        <ele>206.34</ele>
        <time>2017-02-04T08:23:31Z</time>
      </trkpt>
      <trkpt lat="43.33712" lon="-0.51764">
        <ele>206.34</ele>
        <time>2017-02-04T08:23:32Z</time>
      </trkpt>
      <trkpt lat="43.33708" lon="-0.51759">
        <ele>206.34</ele>
        <time>2017-02-04T08:23:33Z</time>
      </trkpt>
      <trkpt lat="43.33668" lon="-0.51714">
        <ele>205.38</ele>
        <time>2017-02-04T08:23:43Z</time>
      </trkpt>
      <trkpt lat="43.33656" lon="-0.51706">
        <ele>203.94</ele>
        <time>2017-02-04T08:23:45Z</time>
      </trkpt>
      <trkpt lat="43.33637" lon="-0.51696">
        <ele>201.53</ele>
        <time>2017-02-04T08:23:48Z</time>
      </trkpt>
      <trkpt lat="43.33631" lon="-0.51692">
        <ele>201.05</ele>
        <time>2017-02-04T08:23:49Z</time>
      </trkpt>
      <trkpt lat="43.33625" lon="-0.51687">
        <ele>200.09</ele>
        <time>2017-02-04T08:23:50Z</time>
      </trkpt>
      <trkpt lat="43.33592" lon="-0.5166">
        <ele>199.13</ele>
        <time>2017-02-04T08:23:59Z</time>
      </trkpt>
      <trkpt lat="43.33554" lon="-0.51636">
        <ele>196.73</ele>
        <time>2017-02-04T08:24:08Z</time>
      </trkpt>
      <trkpt lat="43.33548" lon="-0.51633">
        <ele>196.25</ele>
        <time>2017-02-04T08:24:09Z</time>
      </trkpt>
      <trkpt lat="43.33527" lon="-0.51626">
        <ele>195.28</ele>
        <time>2017-02-04T08:24:13Z</time>
      </trkpt>
      <trkpt lat="43.33522" lon="-0.51623">
        <ele>195.28</ele>
        <time>2017-02-04T08:24:14Z</time>
      </trkpt>
      <trkpt lat="43.33517" lon="-0.5162">
        <ele>194.8</ele>
        <time>2017-02-04T08:24:15Z</time>
      </trkpt>
      <trkpt lat="43.33513" lon="-0.51616">
        <ele>194.8</ele>
        <time>2017-02-04T08:24:16Z</time>
      </trkpt>
      <trkpt lat="43.33508" lon="-0.51612">
        <ele>194.8</ele>
        <time>2017-02-04T08:24:17Z</time>
      </trkpt>
      <trkpt lat="43.33491" lon="-0.51592">
        <ele>194.32</ele>
        <time>2017-02-04T08:24:21Z</time>
      </trkpt>
      <trkpt lat="43.33481" lon="-0.51575">
        <ele>194.32</ele>
        <time>2017-02-04T08:24:24Z</time>
      </trkpt>
      <trkpt lat="43.33479" lon="-0.51569">
        <ele>194.8</ele>
        <time>2017-02-04T08:24:25Z</time>
      </trkpt>
      <trkpt lat="43.33477" lon="-0.51564">
        <ele>194.8</ele>
        <time>2017-02-04T08:24:26Z</time>
      </trkpt>
      <trkpt lat="43.33472" lon="-0.51553">
        <ele>195.28</ele>
        <time>2017-02-04T08:24:28Z</time>
      </trkpt>
      <trkpt lat="43.33439" lon="-0.51485">
        <ele>200.09</ele>
        <time>2017-02-04T08:24:42Z</time>
      </trkpt>
      <trkpt lat="43.33429" lon="-0.51458">
        <ele>201.05</ele>
        <time>2017-02-04T08:24:47Z</time>
      </trkpt>
      <trkpt lat="43.33427" lon="-0.51452">
        <ele>201.53</ele>
        <time>2017-02-04T08:24:48Z</time>
      </trkpt>
      <trkpt lat="43.33425" lon="-0.51447">
        <ele>201.53</ele>
        <time>2017-02-04T08:24:49Z</time>
      </trkpt>
      <trkpt lat="43.33419" lon="-0.51431">
        <ele>202.49</ele>
        <time>2017-02-04T08:24:52Z</time>
      </trkpt>
      <trkpt lat="43.33417" lon="-0.51425">
        <ele>202.49</ele>
        <time>2017-02-04T08:24:53Z</time>
      </trkpt>
      <trkpt lat="43.33401" lon="-0.51388">
        <ele>201.53</ele>
        <time>2017-02-04T08:25:00Z</time>
      </trkpt>
      <trkpt lat="43.33385" lon="-0.51333">
        <ele>203.46</ele>
        <time>2017-02-04T08:25:12Z</time>
      </trkpt>
      <trkpt lat="43.33374" lon="-0.51292">
        <ele>204.42</ele>
        <time>2017-02-04T08:25:25Z</time>
      </trkpt>
      <trkpt lat="43.33364" lon="-0.51263">
        <ele>205.86</ele>
        <time>2017-02-04T08:25:38Z</time>
      </trkpt>
      <trkpt lat="43.33361" lon="-0.51253">
        <ele>206.82</ele>
        <time>2017-02-04T08:25:43Z</time>
      </trkpt>
      <trkpt lat="43.3336" lon="-0.51251">
        <ele>207.3</ele>
        <time>2017-02-04T08:25:44Z</time>
      </trkpt>
      <trkpt lat="43.3336" lon="-0.51249">
        <ele>207.78</ele>
        <time>2017-02-04T08:25:45Z</time>
      </trkpt>
      <trkpt lat="43.33359" lon="-0.51247">
        <ele>208.26</ele>
        <time>2017-02-04T08:25:46Z</time>
      </trkpt>
      <trkpt lat="43.33357" lon="-0.51245">
        <ele>208.74</ele>
        <time>2017-02-04T08:25:47Z</time>
      </trkpt>
      <trkpt lat="43.33356" lon="-0.51244">
        <ele>209.22</ele>
        <time>2017-02-04T08:25:48Z</time>
      </trkpt>
      <trkpt lat="43.33354" lon="-0.51244">
        <ele>209.22</ele>
        <time>2017-02-04T08:25:49Z</time>
      </trkpt>
      <trkpt lat="43.33351" lon="-0.51244">
        <ele>209.22</ele>
        <time>2017-02-04T08:25:50Z</time>
      </trkpt>
      <trkpt lat="43.33349" lon="-0.51246">
        <ele>209.7</ele>
        <time>2017-02-04T08:25:51Z</time>
      </trkpt>
      <trkpt lat="43.33346" lon="-0.51249">
        <ele>209.7</ele>
        <time>2017-02-04T08:25:52Z</time>
      </trkpt>
      <trkpt lat="43.33343" lon="-0.51252">
        <ele>210.19</ele>
        <time>2017-02-04T08:25:53Z</time>
      </trkpt>
      <trkpt lat="43.33336" lon="-0.51261">
        <ele>210.19</ele>
        <time>2017-02-04T08:25:55Z</time>
      </trkpt>
      <trkpt lat="43.33334" lon="-0.51266">
        <ele>210.19</ele>
        <time>2017-02-04T08:25:56Z</time>
      </trkpt>
      <trkpt lat="43.33333" lon="-0.5127">
        <ele>210.19</ele>
        <time>2017-02-04T08:25:57Z</time>
      </trkpt>
      <trkpt lat="43.33327" lon="-0.51321">
        <ele>211.63</ele>
        <time>2017-02-04T08:26:13Z</time>
      </trkpt>
      <trkpt lat="43.33317" lon="-0.51368">
        <ele>213.55</ele>
        <time>2017-02-04T08:26:28Z</time>
      </trkpt>
      <trkpt lat="43.33294" lon="-0.51407">
        <ele>215.47</ele>
        <time>2017-02-04T08:26:43Z</time>
      </trkpt>
      <trkpt lat="43.33269" lon="-0.51446">
        <ele>213.55</ele>
        <time>2017-02-04T08:26:58Z</time>
      </trkpt>
      <trkpt lat="43.33256" lon="-0.51452">
        <ele>211.63</ele>
        <time>2017-02-04T08:27:01Z</time>
      </trkpt>
      <trkpt lat="43.33251" lon="-0.51456">
        <ele>211.15</ele>
        <time>2017-02-04T08:27:02Z</time>
      </trkpt>
      <trkpt lat="43.33246" lon="-0.51461">
        <ele>210.19</ele>
        <time>2017-02-04T08:27:03Z</time>
      </trkpt>
      <trkpt lat="43.33217" lon="-0.51489">
        <ele>206.82</ele>
        <time>2017-02-04T08:27:11Z</time>
      </trkpt>
      <trkpt lat="43.33203" lon="-0.51507">
        <ele>203.46</ele>
        <time>2017-02-04T08:27:15Z</time>
      </trkpt>
      <trkpt lat="43.33188" lon="-0.51524">
        <ele>198.65</ele>
        <time>2017-02-04T08:27:20Z</time>
      </trkpt>
      <trkpt lat="43.33187" lon="-0.51528">
        <ele>197.69</ele>
        <time>2017-02-04T08:27:21Z</time>
      </trkpt>
      <trkpt lat="43.33185" lon="-0.51532">
        <ele>196.25</ele>
        <time>2017-02-04T08:27:23Z</time>
      </trkpt>
      <trkpt lat="43.33185" lon="-0.51534">
        <ele>195.28</ele>
        <time>2017-02-04T08:27:24Z</time>
      </trkpt>
      <trkpt lat="43.33184" lon="-0.51536">
        <ele>194.8</ele>
        <time>2017-02-04T08:27:25Z</time>
      </trkpt>
      <trkpt lat="43.33182" lon="-0.51541">
        <ele>193.84</ele>
        <time>2017-02-04T08:27:27Z</time>
      </trkpt>
      <trkpt lat="43.33181" lon="-0.51561">
        <ele>194.32</ele>
        <time>2017-02-04T08:27:37Z</time>
      </trkpt>
      <trkpt lat="43.3318" lon="-0.51568">
        <ele>195.77</ele>
        <time>2017-02-04T08:27:40Z</time>
      </trkpt>
      <trkpt lat="43.33179" lon="-0.51569">
        <ele>195.77</ele>
        <time>2017-02-04T08:27:41Z</time>
      </trkpt>
      <trkpt lat="43.33179" lon="-0.51571">
        <ele>196.25</ele>
        <time>2017-02-04T08:27:42Z</time>
      </trkpt>
      <trkpt lat="43.33178" lon="-0.51574">
        <ele>197.21</ele>
        <time>2017-02-04T08:27:43Z</time>
      </trkpt>
      <trkpt lat="43.33177" lon="-0.51576">
        <ele>198.17</ele>
        <time>2017-02-04T08:27:44Z</time>
      </trkpt>
      <trkpt lat="43.33172" lon="-0.51602">
        <ele>202.49</ele>
        <time>2017-02-04T08:27:58Z</time>
      </trkpt>
      <trkpt lat="43.33173" lon="-0.51616">
        <ele>205.86</ele>
        <time>2017-02-04T08:28:06Z</time>
      </trkpt>
      <trkpt lat="43.33174" lon="-0.51618">
        <ele>206.34</ele>
        <time>2017-02-04T08:28:07Z</time>
      </trkpt>
      <trkpt lat="43.33189" lon="-0.51637">
        <ele>209.7</ele>
        <time>2017-02-04T08:28:20Z</time>
      </trkpt>
      <trkpt lat="43.33216" lon="-0.51657">
        <ele>206.82</ele>
        <time>2017-02-04T08:28:31Z</time>
      </trkpt>
      <trkpt lat="43.33248" lon="-0.51683">
        <ele>205.86</ele>
        <time>2017-02-04T08:28:42Z</time>
      </trkpt>
      <trkpt lat="43.33281" lon="-0.51708">
        <ele>207.78</ele>
        <time>2017-02-04T08:28:55Z</time>
      </trkpt>
      <trkpt lat="43.33311" lon="-0.51735">
        <ele>208.74</ele>
        <time>2017-02-04T08:29:06Z</time>
      </trkpt>
      <trkpt lat="43.33338" lon="-0.51771">
        <ele>208.74</ele>
        <time>2017-02-04T08:29:17Z</time>
      </trkpt>
      <trkpt lat="43.33352" lon="-0.51814">
        <ele>208.26</ele>
        <time>2017-02-04T08:29:30Z</time>
      </trkpt>
      <trkpt lat="43.33364" lon="-0.51855">
        <ele>208.26</ele>
        <time>2017-02-04T08:29:41Z</time>
      </trkpt>
      <trkpt lat="43.33369" lon="-0.51892">
        <ele>211.63</ele>
        <time>2017-02-04T08:29:50Z</time>
      </trkpt>
      <trkpt lat="43.3337" lon="-0.51897">
        <ele>211.15</ele>
        <time>2017-02-04T08:29:51Z</time>
      </trkpt>
      <trkpt lat="43.33369" lon="-0.51901">
        <ele>211.15</ele>
        <time>2017-02-04T08:29:52Z</time>
      </trkpt>
      <trkpt lat="43.3336" lon="-0.51941">
        <ele>208.26</ele>
        <time>2017-02-04T08:30:05Z</time>
      </trkpt>
      <trkpt lat="43.33355" lon="-0.51969">
        <ele>208.26</ele>
        <time>2017-02-04T08:30:13Z</time>
      </trkpt>
      <trkpt lat="43.33355" lon="-0.51972">
        <ele>208.26</ele>
        <time>2017-02-04T08:30:14Z</time>
      </trkpt>
      <trkpt lat="43.33356" lon="-0.51976">
        <ele>208.26</ele>
        <time>2017-02-04T08:30:15Z</time>
      </trkpt>
      <trkpt lat="43.33366" lon="-0.52028">
        <ele>209.22</ele>
        <time>2017-02-04T08:30:28Z</time>
      </trkpt>
      <trkpt lat="43.33376" lon="-0.52079">
        <ele>206.34</ele>
        <time>2017-02-04T08:30:40Z</time>
      </trkpt>
      <trkpt lat="43.33379" lon="-0.5211">
        <ele>207.78</ele>
        <time>2017-02-04T08:30:46Z</time>
      </trkpt>
      <trkpt lat="43.3338" lon="-0.52115">
        <ele>207.78</ele>
        <time>2017-02-04T08:30:47Z</time>
      </trkpt>
      <trkpt lat="43.3338" lon="-0.5212">
        <ele>207.78</ele>
        <time>2017-02-04T08:30:48Z</time>
      </trkpt>
      <trkpt lat="43.3338" lon="-0.52126">
        <ele>207.78</ele>
        <time>2017-02-04T08:30:49Z</time>
      </trkpt>
      <trkpt lat="43.33381" lon="-0.52131">
        <ele>207.78</ele>
        <time>2017-02-04T08:30:50Z</time>
      </trkpt>
      <trkpt lat="43.33382" lon="-0.52137">
        <ele>207.78</ele>
        <time>2017-02-04T08:30:51Z</time>
      </trkpt>
      <trkpt lat="43.33389" lon="-0.5219">
        <ele>207.3</ele>
        <time>2017-02-04T08:31:03Z</time>
      </trkpt>
      <trkpt lat="43.33391" lon="-0.52242">
        <ele>207.3</ele>
        <time>2017-02-04T08:31:14Z</time>
      </trkpt>
      <trkpt lat="43.33392" lon="-0.52288">
        <ele>208.26</ele>
        <time>2017-02-04T08:31:26Z</time>
      </trkpt>
      <trkpt lat="43.33388" lon="-0.52327">
        <ele>211.15</ele>
        <time>2017-02-04T08:31:40Z</time>
      </trkpt>
      <trkpt lat="43.33385" lon="-0.52358">
        <ele>213.55</ele>
        <time>2017-02-04T08:31:55Z</time>
      </trkpt>
      <trkpt lat="43.33385" lon="-0.52359">
        <ele>214.03</ele>
        <time>2017-02-04T08:31:56Z</time>
      </trkpt>
      <trkpt lat="43.33384" lon="-0.52361">
        <ele>214.03</ele>
        <time>2017-02-04T08:31:57Z</time>
      </trkpt>
      <trkpt lat="43.33381" lon="-0.52372">
        <ele>215.95</ele>
        <time>2017-02-04T08:32:05Z</time>
      </trkpt>
      <trkpt lat="43.33371" lon="-0.52393">
        <ele>220.28</ele>
        <time>2017-02-04T08:32:20Z</time>
      </trkpt>
      <trkpt lat="43.33367" lon="-0.52403">
        <ele>222.2</ele>
        <time>2017-02-04T08:32:28Z</time>
      </trkpt>
      <trkpt lat="43.33366" lon="-0.52405">
        <ele>222.2</ele>
        <time>2017-02-04T08:32:29Z</time>
      </trkpt>
      <trkpt lat="43.33356" lon="-0.52415">
        <ele>226.05</ele>
        <time>2017-02-04T08:32:42Z</time>
      </trkpt>
      <trkpt lat="43.33355" lon="-0.52416">
        <ele>226.53</ele>
        <time>2017-02-04T08:32:57Z</time>
      </trkpt>
      <trkpt lat="43.33354" lon="-0.52417">
        <ele>226.05</ele>
        <time>2017-02-04T08:33:05Z</time>
      </trkpt>
      <trkpt lat="43.33358" lon="-0.52426">
        <ele>225.57</ele>
        <time>2017-02-04T08:33:19Z</time>
      </trkpt>
      <trkpt lat="43.33364" lon="-0.52441">
        <ele>226.53</ele>
        <time>2017-02-04T08:33:30Z</time>
      </trkpt>
      <trkpt lat="43.33364" lon="-0.52443">
        <ele>226.53</ele>
        <time>2017-02-04T08:33:31Z</time>
      </trkpt>
      <trkpt lat="43.33365" lon="-0.52445">
        <ele>226.53</ele>
        <time>2017-02-04T08:33:32Z</time>
      </trkpt>
      <trkpt lat="43.33366" lon="-0.52446">
        <ele>226.05</ele>
        <time>2017-02-04T08:33:33Z</time>
      </trkpt>
      <trkpt lat="43.33367" lon="-0.52448">
        <ele>226.05</ele>
        <time>2017-02-04T08:33:34Z</time>
      </trkpt>
      <trkpt lat="43.33377" lon="-0.52483">
        <ele>227.49</ele>
        <time>2017-02-04T08:33:49Z</time>
      </trkpt>
      <trkpt lat="43.3338" lon="-0.525">
        <ele>227.97</ele>
        <time>2017-02-04T08:33:56Z</time>
      </trkpt>
      <trkpt lat="43.33381" lon="-0.52501">
        <ele>227.97</ele>
        <time>2017-02-04T08:33:57Z</time>
      </trkpt>
      <trkpt lat="43.33382" lon="-0.52502">
        <ele>227.49</ele>
        <time>2017-02-04T08:33:58Z</time>
      </trkpt>
      <trkpt lat="43.33384" lon="-0.52503">
        <ele>227.01</ele>
        <time>2017-02-04T08:34:00Z</time>
      </trkpt>
      <trkpt lat="43.33386" lon="-0.52503">
        <ele>226.53</ele>
        <time>2017-02-04T08:34:01Z</time>
      </trkpt>
      <trkpt lat="43.33394" lon="-0.52499">
        <ele>225.09</ele>
        <time>2017-02-04T08:34:07Z</time>
      </trkpt>
      <trkpt lat="43.33395" lon="-0.52498">
        <ele>224.61</ele>
        <time>2017-02-04T08:34:08Z</time>
      </trkpt>
      <trkpt lat="43.33398" lon="-0.52496">
        <ele>222.68</ele>
        <time>2017-02-04T08:34:11Z</time>
      </trkpt>
      <trkpt lat="43.33399" lon="-0.52498">
        <ele>222.68</ele>
        <time>2017-02-04T08:34:12Z</time>
      </trkpt>
      <trkpt lat="43.33402" lon="-0.52504">
        <ele>220.76</ele>
        <time>2017-02-04T08:34:15Z</time>
      </trkpt>
      <trkpt lat="43.33405" lon="-0.52505">
        <ele>220.28</ele>
        <time>2017-02-04T08:34:16Z</time>
      </trkpt>
      <trkpt lat="43.33408" lon="-0.52506">
        <ele>219.32</ele>
        <time>2017-02-04T08:34:17Z</time>
      </trkpt>
      <trkpt lat="43.33412" lon="-0.52507">
        <ele>218.84</ele>
        <time>2017-02-04T08:34:18Z</time>
      </trkpt>
      <trkpt lat="43.33416" lon="-0.52509">
        <ele>218.36</ele>
        <time>2017-02-04T08:34:19Z</time>
      </trkpt>
      <trkpt lat="43.33421" lon="-0.5251">
        <ele>217.4</ele>
        <time>2017-02-04T08:34:20Z</time>
      </trkpt>
      <trkpt lat="43.33425" lon="-0.52512">
        <ele>216.91</ele>
        <time>2017-02-04T08:34:21Z</time>
      </trkpt>
      <trkpt lat="43.3343" lon="-0.52512">
        <ele>216.43</ele>
        <time>2017-02-04T08:34:22Z</time>
      </trkpt>
      <trkpt lat="43.33435" lon="-0.52512">
        <ele>215.95</ele>
        <time>2017-02-04T08:34:23Z</time>
      </trkpt>
      <trkpt lat="43.3344" lon="-0.5251">
        <ele>215.95</ele>
        <time>2017-02-04T08:34:24Z</time>
      </trkpt>
      <trkpt lat="43.33445" lon="-0.52509">
        <ele>215.47</ele>
        <time>2017-02-04T08:34:25Z</time>
      </trkpt>
      <trkpt lat="43.3345" lon="-0.52507">
        <ele>215.47</ele>
        <time>2017-02-04T08:34:26Z</time>
      </trkpt>
      <trkpt lat="43.33454" lon="-0.52505">
        <ele>214.99</ele>
        <time>2017-02-04T08:34:27Z</time>
      </trkpt>
      <trkpt lat="43.33456" lon="-0.52503">
        <ele>214.51</ele>
        <time>2017-02-04T08:34:28Z</time>
      </trkpt>
      <trkpt lat="43.33458" lon="-0.52501">
        <ele>214.51</ele>
        <time>2017-02-04T08:34:29Z</time>
      </trkpt>
      <trkpt lat="43.33461" lon="-0.52498">
        <ele>213.55</ele>
        <time>2017-02-04T08:34:30Z</time>
      </trkpt>
      <trkpt lat="43.33466" lon="-0.52493">
        <ele>210.67</ele>
        <time>2017-02-04T08:34:33Z</time>
      </trkpt>
      <trkpt lat="43.33469" lon="-0.52491">
        <ele>209.22</ele>
        <time>2017-02-04T08:34:35Z</time>
      </trkpt>
      <trkpt lat="43.33471" lon="-0.5249">
        <ele>208.26</ele>
        <time>2017-02-04T08:34:36Z</time>
      </trkpt>
      <trkpt lat="43.33472" lon="-0.52488">
        <ele>208.26</ele>
        <time>2017-02-04T08:34:37Z</time>
      </trkpt>
      <trkpt lat="43.33474" lon="-0.52488">
        <ele>207.78</ele>
        <time>2017-02-04T08:34:38Z</time>
      </trkpt>
      <trkpt lat="43.33477" lon="-0.52488">
        <ele>206.82</ele>
        <time>2017-02-04T08:34:39Z</time>
      </trkpt>
      <trkpt lat="43.33485" lon="-0.52489">
        <ele>204.42</ele>
        <time>2017-02-04T08:34:42Z</time>
      </trkpt>
      <trkpt lat="43.33517" lon="-0.52477">
        <ele>195.28</ele>
        <time>2017-02-04T08:34:53Z</time>
      </trkpt>
      <trkpt lat="43.33528" lon="-0.52475">
        <ele>191.92</ele>
        <time>2017-02-04T08:34:57Z</time>
      </trkpt>
      <trkpt lat="43.33532" lon="-0.52476">
        <ele>190.48</ele>
        <time>2017-02-04T08:34:59Z</time>
      </trkpt>
      <trkpt lat="43.33533" lon="-0.52477">
        <ele>189.52</ele>
        <time>2017-02-04T08:35:00Z</time>
      </trkpt>
      <trkpt lat="43.33535" lon="-0.5248">
        <ele>189.04</ele>
        <time>2017-02-04T08:35:01Z</time>
      </trkpt>
      <trkpt lat="43.33536" lon="-0.52482">
        <ele>188.56</ele>
        <time>2017-02-04T08:35:02Z</time>
      </trkpt>
      <trkpt lat="43.33536" lon="-0.52484">
        <ele>188.56</ele>
        <time>2017-02-04T08:35:03Z</time>
      </trkpt>
      <trkpt lat="43.33546" lon="-0.52516">
        <ele>187.59</ele>
        <time>2017-02-04T08:35:15Z</time>
      </trkpt>
      <trkpt lat="43.33547" lon="-0.52571">
        <ele>188.08</ele>
        <time>2017-02-04T08:35:29Z</time>
      </trkpt>
      <trkpt lat="43.33525" lon="-0.5262">
        <ele>189.04</ele>
        <time>2017-02-04T08:35:42Z</time>
      </trkpt>
      <trkpt lat="43.33513" lon="-0.52643">
        <ele>189.04</ele>
        <time>2017-02-04T08:35:48Z</time>
      </trkpt>
      <trkpt lat="43.33512" lon="-0.52645">
        <ele>189.04</ele>
        <time>2017-02-04T08:35:49Z</time>
      </trkpt>
      <trkpt lat="43.33511" lon="-0.52647">
        <ele>189.04</ele>
        <time>2017-02-04T08:35:50Z</time>
      </trkpt>
      <trkpt lat="43.33495" lon="-0.52669">
        <ele>186.63</ele>
        <time>2017-02-04T08:36:02Z</time>
      </trkpt>
      <trkpt lat="43.33494" lon="-0.5267">
        <ele>186.63</ele>
        <time>2017-02-04T08:36:03Z</time>
      </trkpt>
      <trkpt lat="43.33483" lon="-0.52683">
        <ele>187.59</ele>
        <time>2017-02-04T08:36:12Z</time>
      </trkpt>
      <trkpt lat="43.33483" lon="-0.52692">
        <ele>187.11</ele>
        <time>2017-02-04T08:36:15Z</time>
      </trkpt>
      <trkpt lat="43.3348" lon="-0.52703">
        <ele>184.23</ele>
        <time>2017-02-04T08:36:19Z</time>
      </trkpt>
      <trkpt lat="43.33479" lon="-0.52704">
        <ele>183.75</ele>
        <time>2017-02-04T08:36:20Z</time>
      </trkpt>
      <trkpt lat="43.33477" lon="-0.52705">
        <ele>183.27</ele>
        <time>2017-02-04T08:36:21Z</time>
      </trkpt>
      <trkpt lat="43.33475" lon="-0.52707">
        <ele>182.79</ele>
        <time>2017-02-04T08:36:22Z</time>
      </trkpt>
      <trkpt lat="43.33474" lon="-0.52709">
        <ele>182.79</ele>
        <time>2017-02-04T08:36:23Z</time>
      </trkpt>
      <trkpt lat="43.33473" lon="-0.5271">
        <ele>181.83</ele>
        <time>2017-02-04T08:36:24Z</time>
      </trkpt>
      <trkpt lat="43.33473" lon="-0.52723">
        <ele>177.98</ele>
        <time>2017-02-04T08:36:29Z</time>
      </trkpt>
      <trkpt lat="43.33471" lon="-0.52751">
        <ele>167.41</ele>
        <time>2017-02-04T08:36:40Z</time>
      </trkpt>
      <trkpt lat="43.3346" lon="-0.5277">
        <ele>160.68</ele>
        <time>2017-02-04T08:36:47Z</time>
      </trkpt>
      <trkpt lat="43.3346" lon="-0.52798">
        <ele>154.91</ele>
        <time>2017-02-04T08:36:56Z</time>
      </trkpt>
      <trkpt lat="43.33462" lon="-0.528">
        <ele>154.43</ele>
        <time>2017-02-04T08:36:57Z</time>
      </trkpt>
      <trkpt lat="43.33467" lon="-0.52807">
        <ele>153.47</ele>
        <time>2017-02-04T08:37:00Z</time>
      </trkpt>
      <trkpt lat="43.33477" lon="-0.52816">
        <ele>151.54</ele>
        <time>2017-02-04T08:37:05Z</time>
      </trkpt>
      <trkpt lat="43.33482" lon="-0.52822">
        <ele>151.06</ele>
        <time>2017-02-04T08:37:08Z</time>
      </trkpt>
      <trkpt lat="43.33483" lon="-0.52829">
        <ele>152.03</ele>
        <time>2017-02-04T08:37:11Z</time>
      </trkpt>
      <trkpt lat="43.33483" lon="-0.52833">
        <ele>152.99</ele>
        <time>2017-02-04T08:37:14Z</time>
      </trkpt>
      <trkpt lat="43.33484" lon="-0.52843">
        <ele>152.99</ele>
        <time>2017-02-04T08:37:19Z</time>
      </trkpt>
      <trkpt lat="43.33495" lon="-0.5286">
        <ele>154.43</ele>
        <time>2017-02-04T08:37:30Z</time>
      </trkpt>
      <trkpt lat="43.33495" lon="-0.52861">
        <ele>154.91</ele>
        <time>2017-02-04T08:37:32Z</time>
      </trkpt>
      <trkpt lat="43.33496" lon="-0.5287">
        <ele>154.91</ele>
        <time>2017-02-04T08:37:40Z</time>
      </trkpt>
      <trkpt lat="43.33509" lon="-0.52881">
        <ele>154.43</ele>
        <time>2017-02-04T08:37:48Z</time>
      </trkpt>
      <trkpt lat="43.33512" lon="-0.52893">
        <ele>154.43</ele>
        <time>2017-02-04T08:37:53Z</time>
      </trkpt>
      <trkpt lat="43.33521" lon="-0.52915">
        <ele>155.39</ele>
        <time>2017-02-04T08:38:02Z</time>
      </trkpt>
      <trkpt lat="43.33535" lon="-0.52914">
        <ele>152.03</ele>
        <time>2017-02-04T08:38:13Z</time>
      </trkpt>
      <trkpt lat="43.3354" lon="-0.52913">
        <ele>150.1</ele>
        <time>2017-02-04T08:38:25Z</time>
      </trkpt>
      <trkpt lat="43.33545" lon="-0.52912">
        <ele>150.1</ele>
        <time>2017-02-04T08:38:31Z</time>
      </trkpt>
      <trkpt lat="43.33551" lon="-0.52912">
        <ele>150.1</ele>
        <time>2017-02-04T08:38:36Z</time>
      </trkpt>
      <trkpt lat="43.33557" lon="-0.52922">
        <ele>146.74</ele>
        <time>2017-02-04T08:38:45Z</time>
      </trkpt>
      <trkpt lat="43.33558" lon="-0.52926">
        <ele>145.3</ele>
        <time>2017-02-04T08:38:48Z</time>
      </trkpt>
      <trkpt lat="43.33561" lon="-0.5293">
        <ele>143.37</ele>
        <time>2017-02-04T08:38:51Z</time>
      </trkpt>
      <trkpt lat="43.33562" lon="-0.52946">
        <ele>138.57</ele>
        <time>2017-02-04T08:38:59Z</time>
      </trkpt>
      <trkpt lat="43.33577" lon="-0.52975">
        <ele>137.61</ele>
        <time>2017-02-04T08:39:10Z</time>
      </trkpt>
      <trkpt lat="43.33578" lon="-0.52978">
        <ele>137.13</ele>
        <time>2017-02-04T08:39:11Z</time>
      </trkpt>
      <trkpt lat="43.33575" lon="-0.52993">
        <ele>138.09</ele>
        <time>2017-02-04T08:39:18Z</time>
      </trkpt>
      <trkpt lat="43.33577" lon="-0.53003">
        <ele>138.09</ele>
        <time>2017-02-04T08:39:22Z</time>
      </trkpt>
      <trkpt lat="43.33584" lon="-0.53013">
        <ele>137.61</ele>
        <time>2017-02-04T08:39:27Z</time>
      </trkpt>
      <trkpt lat="43.33576" lon="-0.53036">
        <ele>136.64</ele>
        <time>2017-02-04T08:39:38Z</time>
      </trkpt>
      <trkpt lat="43.3356" lon="-0.53064">
        <ele>133.76</ele>
        <time>2017-02-04T08:39:50Z</time>
      </trkpt>
      <trkpt lat="43.33547" lon="-0.53085">
        <ele>134.72</ele>
        <time>2017-02-04T08:39:59Z</time>
      </trkpt>
      <trkpt lat="43.33534" lon="-0.53103">
        <ele>136.16</ele>
        <time>2017-02-04T08:40:11Z</time>
      </trkpt>
      <trkpt lat="43.33521" lon="-0.53123">
        <ele>138.09</ele>
        <time>2017-02-04T08:40:21Z</time>
      </trkpt>
      <trkpt lat="43.33505" lon="-0.53145">
        <ele>137.13</ele>
        <time>2017-02-04T08:40:31Z</time>
      </trkpt>
      <trkpt lat="43.33494" lon="-0.53156">
        <ele>135.2</ele>
        <time>2017-02-04T08:40:36Z</time>
      </trkpt>
      <trkpt lat="43.33491" lon="-0.53166">
        <ele>133.76</ele>
        <time>2017-02-04T08:40:41Z</time>
      </trkpt>
      <trkpt lat="43.33488" lon="-0.53167">
        <ele>133.76</ele>
        <time>2017-02-04T08:40:43Z</time>
      </trkpt>
      <trkpt lat="43.33458" lon="-0.53183">
        <ele>135.68</ele>
        <time>2017-02-04T08:40:54Z</time>
      </trkpt>
      <trkpt lat="43.33413" lon="-0.53203">
        <ele>136.64</ele>
        <time>2017-02-04T08:41:08Z</time>
      </trkpt>
      <trkpt lat="43.33379" lon="-0.53211">
        <ele>138.09</ele>
        <time>2017-02-04T08:41:19Z</time>
      </trkpt>
      <trkpt lat="43.33341" lon="-0.53188">
        <ele>138.09</ele>
        <time>2017-02-04T08:41:31Z</time>
      </trkpt>
      <trkpt lat="43.33324" lon="-0.53128">
        <ele>138.57</ele>
        <time>2017-02-04T08:41:43Z</time>
      </trkpt>
      <trkpt lat="43.33309" lon="-0.5307">
        <ele>139.05</ele>
        <time>2017-02-04T08:41:57Z</time>
      </trkpt>
      <trkpt lat="43.33288" lon="-0.53029">
        <ele>140.01</ele>
        <time>2017-02-04T08:42:06Z</time>
      </trkpt>
      <trkpt lat="43.33237" lon="-0.52974">
        <ele>137.13</ele>
        <time>2017-02-04T08:42:18Z</time>
      </trkpt>
      <trkpt lat="43.33186" lon="-0.52928">
        <ele>137.13</ele>
        <time>2017-02-04T08:42:32Z</time>
      </trkpt>
      <trkpt lat="43.33183" lon="-0.52924">
        <ele>137.13</ele>
        <time>2017-02-04T08:42:33Z</time>
      </trkpt>
      <trkpt lat="43.3314" lon="-0.52848">
        <ele>137.61</ele>
        <time>2017-02-04T08:42:50Z</time>
      </trkpt>
      <trkpt lat="43.33111" lon="-0.52811">
        <ele>139.05</ele>
        <time>2017-02-04T08:43:01Z</time>
      </trkpt>
      <trkpt lat="43.3308" lon="-0.52761">
        <ele>142.41</ele>
        <time>2017-02-04T08:43:13Z</time>
      </trkpt>
      <trkpt lat="43.33063" lon="-0.52705">
        <ele>143.37</ele>
        <time>2017-02-04T08:43:23Z</time>
      </trkpt>
      <trkpt lat="43.33061" lon="-0.52699">
        <ele>143.37</ele>
        <time>2017-02-04T08:43:24Z</time>
      </trkpt>
      <trkpt lat="43.33058" lon="-0.52686">
        <ele>142.89</ele>
        <time>2017-02-04T08:43:26Z</time>
      </trkpt>
      <trkpt lat="43.33056" lon="-0.52679">
        <ele>142.41</ele>
        <time>2017-02-04T08:43:27Z</time>
      </trkpt>
      <trkpt lat="43.33051" lon="-0.52659">
        <ele>141.93</ele>
        <time>2017-02-04T08:43:30Z</time>
      </trkpt>
      <trkpt lat="43.33048" lon="-0.52652">
        <ele>141.93</ele>
        <time>2017-02-04T08:43:31Z</time>
      </trkpt>
      <trkpt lat="43.33026" lon="-0.52606">
        <ele>144.34</ele>
        <time>2017-02-04T08:43:40Z</time>
      </trkpt>
      <trkpt lat="43.33024" lon="-0.526">
        <ele>145.3</ele>
        <time>2017-02-04T08:43:41Z</time>
      </trkpt>
      <trkpt lat="43.33022" lon="-0.52595">
        <ele>145.78</ele>
        <time>2017-02-04T08:43:42Z</time>
      </trkpt>
      <trkpt lat="43.3302" lon="-0.52591">
        <ele>146.26</ele>
        <time>2017-02-04T08:43:43Z</time>
      </trkpt>
      <trkpt lat="43.33018" lon="-0.52586">
        <ele>146.74</ele>
        <time>2017-02-04T08:43:44Z</time>
      </trkpt>
      <trkpt lat="43.33016" lon="-0.52581">
        <ele>147.22</ele>
        <time>2017-02-04T08:43:45Z</time>
      </trkpt>
      <trkpt lat="43.32993" lon="-0.52528">
        <ele>150.1</ele>
        <time>2017-02-04T08:43:55Z</time>
      </trkpt>
      <trkpt lat="43.32973" lon="-0.52481">
        <ele>151.06</ele>
        <time>2017-02-04T08:44:05Z</time>
      </trkpt>
      <trkpt lat="43.32959" lon="-0.52423">
        <ele>150.1</ele>
        <time>2017-02-04T08:44:16Z</time>
      </trkpt>
      <trkpt lat="43.32947" lon="-0.52354">
        <ele>148.18</ele>
        <time>2017-02-04T08:44:29Z</time>
      </trkpt>
      <trkpt lat="43.32941" lon="-0.52323">
        <ele>147.22</ele>
        <time>2017-02-04T08:44:35Z</time>
      </trkpt>
      <trkpt lat="43.32937" lon="-0.52312">
        <ele>146.74</ele>
        <time>2017-02-04T08:44:37Z</time>
      </trkpt>
      <trkpt lat="43.32933" lon="-0.52307">
        <ele>146.74</ele>
        <time>2017-02-04T08:44:38Z</time>
      </trkpt>
      <trkpt lat="43.32929" lon="-0.52303">
        <ele>146.26</ele>
        <time>2017-02-04T08:44:39Z</time>
      </trkpt>
      <trkpt lat="43.32924" lon="-0.52298">
        <ele>145.78</ele>
        <time>2017-02-04T08:44:40Z</time>
      </trkpt>
      <trkpt lat="43.32918" lon="-0.52295">
        <ele>145.3</ele>
        <time>2017-02-04T08:44:41Z</time>
      </trkpt>
      <trkpt lat="43.32913" lon="-0.52293">
        <ele>144.82</ele>
        <time>2017-02-04T08:44:42Z</time>
      </trkpt>
      <trkpt lat="43.32907" lon="-0.52292">
        <ele>144.34</ele>
        <time>2017-02-04T08:44:43Z</time>
      </trkpt>
      <trkpt lat="43.329" lon="-0.52291">
        <ele>144.34</ele>
        <time>2017-02-04T08:44:44Z</time>
      </trkpt>
      <trkpt lat="43.32894" lon="-0.52291">
        <ele>143.85</ele>
        <time>2017-02-04T08:44:45Z</time>
      </trkpt>
      <trkpt lat="43.32888" lon="-0.52291">
        <ele>143.37</ele>
        <time>2017-02-04T08:44:46Z</time>
      </trkpt>
      <trkpt lat="43.32812" lon="-0.52282">
        <ele>139.05</ele>
        <time>2017-02-04T08:44:57Z</time>
      </trkpt>
      <trkpt lat="43.32798" lon="-0.52275">
        <ele>138.09</ele>
        <time>2017-02-04T08:44:59Z</time>
      </trkpt>
      <trkpt lat="43.32741" lon="-0.52239">
        <ele>133.76</ele>
        <time>2017-02-04T08:45:08Z</time>
      </trkpt>
      <trkpt lat="43.3273" lon="-0.52233">
        <ele>133.28</ele>
        <time>2017-02-04T08:45:10Z</time>
      </trkpt>
      <trkpt lat="43.32685" lon="-0.52204">
        <ele>133.28</ele>
        <time>2017-02-04T08:45:21Z</time>
      </trkpt>
      <trkpt lat="43.32673" lon="-0.52193">
        <ele>133.76</ele>
        <time>2017-02-04T08:45:24Z</time>
      </trkpt>
      <trkpt lat="43.3264" lon="-0.52152">
        <ele>135.68</ele>
        <time>2017-02-04T08:45:35Z</time>
      </trkpt>
      <trkpt lat="43.32637" lon="-0.52147">
        <ele>135.68</ele>
        <time>2017-02-04T08:45:36Z</time>
      </trkpt>
      <trkpt lat="43.32601" lon="-0.52092">
        <ele>137.13</ele>
        <time>2017-02-04T08:45:49Z</time>
      </trkpt>
      <trkpt lat="43.32567" lon="-0.52031">
        <ele>137.61</ele>
        <time>2017-02-04T08:46:03Z</time>
      </trkpt>
      <trkpt lat="43.32527" lon="-0.51983">
        <ele>137.61</ele>
        <time>2017-02-04T08:46:17Z</time>
      </trkpt>
      <trkpt lat="43.32499" lon="-0.51959">
        <ele>139.53</ele>
        <time>2017-02-04T08:46:27Z</time>
      </trkpt>
      <trkpt lat="43.32456" lon="-0.51929">
        <ele>140.01</ele>
        <time>2017-02-04T08:46:38Z</time>
      </trkpt>
      <trkpt lat="43.32394" lon="-0.51879">
        <ele>137.13</ele>
        <time>2017-02-04T08:46:51Z</time>
      </trkpt>
      <trkpt lat="43.32332" lon="-0.51821">
        <ele>134.72</ele>
        <time>2017-02-04T08:47:03Z</time>
      </trkpt>
      <trkpt lat="43.32324" lon="-0.51813">
        <ele>134.72</ele>
        <time>2017-02-04T08:47:05Z</time>
      </trkpt>
      <trkpt lat="43.3232" lon="-0.51809">
        <ele>134.24</ele>
        <time>2017-02-04T08:47:06Z</time>
      </trkpt>
      <trkpt lat="43.32289" lon="-0.51759">
        <ele>135.2</ele>
        <time>2017-02-04T08:47:17Z</time>
      </trkpt>
      <trkpt lat="43.32266" lon="-0.51714">
        <ele>137.13</ele>
        <time>2017-02-04T08:47:27Z</time>
      </trkpt>
      <trkpt lat="43.32233" lon="-0.51673">
        <ele>139.05</ele>
        <time>2017-02-04T08:47:38Z</time>
      </trkpt>
      <trkpt lat="43.32201" lon="-0.51634">
        <ele>142.89</ele>
        <time>2017-02-04T08:47:48Z</time>
      </trkpt>
      <trkpt lat="43.32156" lon="-0.51596">
        <ele>142.41</ele>
        <time>2017-02-04T08:48:00Z</time>
      </trkpt>
      <trkpt lat="43.32112" lon="-0.51557">
        <ele>146.26</ele>
        <time>2017-02-04T08:48:14Z</time>
      </trkpt>
      <trkpt lat="43.32069" lon="-0.51522">
        <ele>147.7</ele>
        <time>2017-02-04T08:48:28Z</time>
      </trkpt>
      <trkpt lat="43.3204" lon="-0.51471">
        <ele>147.7</ele>
        <time>2017-02-04T08:48:41Z</time>
      </trkpt>
      <trkpt lat="43.32033" lon="-0.51458">
        <ele>146.74</ele>
        <time>2017-02-04T08:48:44Z</time>
      </trkpt>
      <trkpt lat="43.32029" lon="-0.51454">
        <ele>146.74</ele>
        <time>2017-02-04T08:48:45Z</time>
      </trkpt>
      <trkpt lat="43.32024" lon="-0.51451">
        <ele>146.26</ele>
        <time>2017-02-04T08:48:46Z</time>
      </trkpt>
      <trkpt lat="43.32019" lon="-0.51448">
        <ele>145.78</ele>
        <time>2017-02-04T08:48:47Z</time>
      </trkpt>
      <trkpt lat="43.32013" lon="-0.51446">
        <ele>145.3</ele>
        <time>2017-02-04T08:48:48Z</time>
      </trkpt>
      <trkpt lat="43.32006" lon="-0.51444">
        <ele>144.34</ele>
        <time>2017-02-04T08:48:49Z</time>
      </trkpt>
      <trkpt lat="43.31999" lon="-0.51442">
        <ele>143.85</ele>
        <time>2017-02-04T08:48:50Z</time>
      </trkpt>
      <trkpt lat="43.31987" lon="-0.51437">
        <ele>142.41</ele>
        <time>2017-02-04T08:48:52Z</time>
      </trkpt>
      <trkpt lat="43.31981" lon="-0.51432">
        <ele>141.93</ele>
        <time>2017-02-04T08:48:53Z</time>
      </trkpt>
      <trkpt lat="43.31969" lon="-0.51423">
        <ele>140.97</ele>
        <time>2017-02-04T08:48:55Z</time>
      </trkpt>
      <trkpt lat="43.31964" lon="-0.5142">
        <ele>140.97</ele>
        <time>2017-02-04T08:48:56Z</time>
      </trkpt>
      <trkpt lat="43.31957" lon="-0.51418">
        <ele>140.49</ele>
        <time>2017-02-04T08:48:57Z</time>
      </trkpt>
      <trkpt lat="43.32032" lon="-0.51457">
        <ele>191.44</ele>
        <time>2017-02-04T08:51:41Z</time>
      </trkpt>
      <trkpt lat="43.31911" lon="-0.51236">
        <ele>165.48</ele>
        <time>2017-02-04T08:51:59Z</time>
      </trkpt>
      <trkpt lat="43.31916" lon="-0.51271">
        <ele>159.72</ele>
        <time>2017-02-04T08:52:07Z</time>
      </trkpt>
      <trkpt lat="43.31916" lon="-0.51277">
        <ele>159.72</ele>
        <time>2017-02-04T08:52:08Z</time>
      </trkpt>
      <trkpt lat="43.31916" lon="-0.51283">
        <ele>159.24</ele>
        <time>2017-02-04T08:52:09Z</time>
      </trkpt>
      <trkpt lat="43.31915" lon="-0.51289">
        <ele>158.75</ele>
        <time>2017-02-04T08:52:10Z</time>
      </trkpt>
      <trkpt lat="43.31916" lon="-0.51294">
        <ele>158.27</ele>
        <time>2017-02-04T08:52:11Z</time>
      </trkpt>
      <trkpt lat="43.31905" lon="-0.51353">
        <ele>151.54</ele>
        <time>2017-02-04T08:52:23Z</time>
      </trkpt>
      <trkpt lat="43.31888" lon="-0.51396">
        <ele>148.66</ele>
        <time>2017-02-04T08:52:36Z</time>
      </trkpt>
      <trkpt lat="43.31859" lon="-0.51434">
        <ele>147.22</ele>
        <time>2017-02-04T08:52:47Z</time>
      </trkpt>
      <trkpt lat="43.31829" lon="-0.51443">
        <ele>147.7</ele>
        <time>2017-02-04T08:52:58Z</time>
      </trkpt>
      <trkpt lat="43.31804" lon="-0.51427">
        <ele>148.18</ele>
        <time>2017-02-04T08:53:07Z</time>
      </trkpt>
      <trkpt lat="43.31787" lon="-0.51414">
        <ele>147.22</ele>
        <time>2017-02-04T08:53:11Z</time>
      </trkpt>
      <trkpt lat="43.31782" lon="-0.51412">
        <ele>147.22</ele>
        <time>2017-02-04T08:53:12Z</time>
      </trkpt>
      <trkpt lat="43.31777" lon="-0.51409">
        <ele>147.22</ele>
        <time>2017-02-04T08:53:13Z</time>
      </trkpt>
      <trkpt lat="43.31772" lon="-0.51408">
        <ele>147.22</ele>
        <time>2017-02-04T08:53:14Z</time>
      </trkpt>
      <trkpt lat="43.31767" lon="-0.51406">
        <ele>147.22</ele>
        <time>2017-02-04T08:53:15Z</time>
      </trkpt>
      <trkpt lat="43.31762" lon="-0.51405">
        <ele>147.22</ele>
        <time>2017-02-04T08:53:16Z</time>
      </trkpt>
      <trkpt lat="43.31757" lon="-0.51404">
        <ele>147.22</ele>
        <time>2017-02-04T08:53:17Z</time>
      </trkpt>
      <trkpt lat="43.31729" lon="-0.51399">
        <ele>146.26</ele>
        <time>2017-02-04T08:53:22Z</time>
      </trkpt>
      <trkpt lat="43.31685" lon="-0.51383">
        <ele>144.82</ele>
        <time>2017-02-04T08:53:32Z</time>
      </trkpt>
      <trkpt lat="43.31652" lon="-0.51372">
        <ele>147.22</ele>
        <time>2017-02-04T08:53:42Z</time>
      </trkpt>
      <trkpt lat="43.31619" lon="-0.51355">
        <ele>149.14</ele>
        <time>2017-02-04T08:53:52Z</time>
      </trkpt>
      <trkpt lat="43.31592" lon="-0.51328">
        <ele>152.51</ele>
        <time>2017-02-04T08:54:04Z</time>
      </trkpt>
      <trkpt lat="43.3157" lon="-0.51296">
        <ele>160.2</ele>
        <time>2017-02-04T08:54:20Z</time>
      </trkpt>
      <trkpt lat="43.31563" lon="-0.51283">
        <ele>165.48</ele>
        <time>2017-02-04T08:54:26Z</time>
      </trkpt>
      <trkpt lat="43.31562" lon="-0.51281">
        <ele>166.93</ele>
        <time>2017-02-04T08:54:27Z</time>
      </trkpt>
      <trkpt lat="43.31561" lon="-0.51279">
        <ele>167.89</ele>
        <time>2017-02-04T08:54:28Z</time>
      </trkpt>
      <trkpt lat="43.3156" lon="-0.51276">
        <ele>169.33</ele>
        <time>2017-02-04T08:54:29Z</time>
      </trkpt>
      <trkpt lat="43.31559" lon="-0.51274">
        <ele>170.77</ele>
        <time>2017-02-04T08:54:30Z</time>
      </trkpt>
      <trkpt lat="43.31558" lon="-0.51271">
        <ele>171.73</ele>
        <time>2017-02-04T08:54:31Z</time>
      </trkpt>
      <trkpt lat="43.31546" lon="-0.51235">
        <ele>180.38</ele>
        <time>2017-02-04T08:54:44Z</time>
      </trkpt>
      <trkpt lat="43.31527" lon="-0.51215">
        <ele>180.38</ele>
        <time>2017-02-04T08:54:56Z</time>
      </trkpt>
      <trkpt lat="43.31494" lon="-0.51218">
        <ele>178.94</ele>
        <time>2017-02-04T08:55:08Z</time>
      </trkpt>
      <trkpt lat="43.31455" lon="-0.51221">
        <ele>170.29</ele>
        <time>2017-02-04T08:55:20Z</time>
      </trkpt>
      <trkpt lat="43.31412" lon="-0.51221">
        <ele>163.56</ele>
        <time>2017-02-04T08:55:33Z</time>
      </trkpt>
      <trkpt lat="43.31359" lon="-0.51208">
        <ele>159.24</ele>
        <time>2017-02-04T08:55:51Z</time>
      </trkpt>
      <trkpt lat="43.31307" lon="-0.51183">
        <ele>154.91</ele>
        <time>2017-02-04T08:56:09Z</time>
      </trkpt>
      <trkpt lat="43.31265" lon="-0.51157">
        <ele>152.99</ele>
        <time>2017-02-04T08:56:25Z</time>
      </trkpt>
      <trkpt lat="43.31234" lon="-0.51129">
        <ele>153.95</ele>
        <time>2017-02-04T08:56:36Z</time>
      </trkpt>
      <trkpt lat="43.31207" lon="-0.51104">
        <ele>155.87</ele>
        <time>2017-02-04T08:56:46Z</time>
      </trkpt>
      <trkpt lat="43.31177" lon="-0.51064">
        <ele>161.64</ele>
        <time>2017-02-04T08:57:00Z</time>
      </trkpt>
      <trkpt lat="43.31157" lon="-0.51027">
        <ele>162.12</ele>
        <time>2017-02-04T08:57:10Z</time>
      </trkpt>
      <trkpt lat="43.31125" lon="-0.50989">
        <ele>160.2</ele>
        <time>2017-02-04T08:57:23Z</time>
      </trkpt>
      <trkpt lat="43.31094" lon="-0.50956">
        <ele>159.24</ele>
        <time>2017-02-04T08:57:36Z</time>
      </trkpt>
      <trkpt lat="43.31067" lon="-0.50919">
        <ele>164.52</ele>
        <time>2017-02-04T08:57:50Z</time>
      </trkpt>
      <trkpt lat="43.31043" lon="-0.50871">
        <ele>164.52</ele>
        <time>2017-02-04T08:58:04Z</time>
      </trkpt>
      <trkpt lat="43.31041" lon="-0.50865">
        <ele>164.04</ele>
        <time>2017-02-04T08:58:05Z</time>
      </trkpt>
      <trkpt lat="43.31037" lon="-0.50861">
        <ele>164.04</ele>
        <time>2017-02-04T08:58:06Z</time>
      </trkpt>
      <trkpt lat="43.31034" lon="-0.50856">
        <ele>163.56</ele>
        <time>2017-02-04T08:58:07Z</time>
      </trkpt>
      <trkpt lat="43.3103" lon="-0.50853">
        <ele>163.08</ele>
        <time>2017-02-04T08:58:08Z</time>
      </trkpt>
      <trkpt lat="43.31027" lon="-0.5085">
        <ele>163.08</ele>
        <time>2017-02-04T08:58:09Z</time>
      </trkpt>
      <trkpt lat="43.30982" lon="-0.50814">
        <ele>164.52</ele>
        <time>2017-02-04T08:58:22Z</time>
      </trkpt>
      <trkpt lat="43.30939" lon="-0.50779">
        <ele>169.33</ele>
        <time>2017-02-04T08:58:39Z</time>
      </trkpt>
      <trkpt lat="43.30889" lon="-0.50728">
        <ele>170.29</ele>
        <time>2017-02-04T08:58:55Z</time>
      </trkpt>
      <trkpt lat="43.30855" lon="-0.50698">
        <ele>175.1</ele>
        <time>2017-02-04T08:59:07Z</time>
      </trkpt>
      <trkpt lat="43.30851" lon="-0.50697">
        <ele>175.1</ele>
        <time>2017-02-04T08:59:08Z</time>
      </trkpt>
      <trkpt lat="43.30846" lon="-0.50695">
        <ele>174.62</ele>
        <time>2017-02-04T08:59:09Z</time>
      </trkpt>
      <trkpt lat="43.30813" lon="-0.50682">
        <ele>175.1</ele>
        <time>2017-02-04T08:59:20Z</time>
      </trkpt>
      <trkpt lat="43.30775" lon="-0.50666">
        <ele>173.17</ele>
        <time>2017-02-04T08:59:37Z</time>
      </trkpt>
      <trkpt lat="43.3076" lon="-0.5066">
        <ele>172.21</ele>
        <time>2017-02-04T08:59:45Z</time>
      </trkpt>
      <trkpt lat="43.30758" lon="-0.50659">
        <ele>172.21</ele>
        <time>2017-02-04T08:59:46Z</time>
      </trkpt>
      <trkpt lat="43.30756" lon="-0.50659">
        <ele>172.69</ele>
        <time>2017-02-04T08:59:47Z</time>
      </trkpt>
      <trkpt lat="43.30755" lon="-0.50658">
        <ele>172.69</ele>
        <time>2017-02-04T08:59:48Z</time>
      </trkpt>
      <trkpt lat="43.30753" lon="-0.50657">
        <ele>172.69</ele>
        <time>2017-02-04T08:59:49Z</time>
      </trkpt>
      <trkpt lat="43.30737" lon="-0.50645">
        <ele>177.02</ele>
        <time>2017-02-04T09:00:00Z</time>
      </trkpt>
      <trkpt lat="43.30724" lon="-0.50631">
        <ele>181.83</ele>
        <time>2017-02-04T09:00:12Z</time>
      </trkpt>
      <trkpt lat="43.30717" lon="-0.50622">
        <ele>184.23</ele>
        <time>2017-02-04T09:00:19Z</time>
      </trkpt>
      <trkpt lat="43.30716" lon="-0.50621">
        <ele>184.71</ele>
        <time>2017-02-04T09:00:20Z</time>
      </trkpt>
      <trkpt lat="43.30715" lon="-0.5062">
        <ele>184.71</ele>
        <time>2017-02-04T09:00:21Z</time>
      </trkpt>
      <trkpt lat="43.30697" lon="-0.50599">
        <ele>186.63</ele>
        <time>2017-02-04T09:00:34Z</time>
      </trkpt>
      <trkpt lat="43.30671" lon="-0.50572">
        <ele>189.04</ele>
        <time>2017-02-04T09:00:49Z</time>
      </trkpt>
      <trkpt lat="43.30642" lon="-0.50544">
        <ele>194.8</ele>
        <time>2017-02-04T09:01:04Z</time>
      </trkpt>
      <trkpt lat="43.30608" lon="-0.50525">
        <ele>194.8</ele>
        <time>2017-02-04T09:01:20Z</time>
      </trkpt>
      <trkpt lat="43.30581" lon="-0.50503">
        <ele>198.17</ele>
        <time>2017-02-04T09:01:36Z</time>
      </trkpt>
      <trkpt lat="43.30557" lon="-0.50478">
        <ele>197.21</ele>
        <time>2017-02-04T09:01:51Z</time>
      </trkpt>
      <trkpt lat="43.30538" lon="-0.50457">
        <ele>197.69</ele>
        <time>2017-02-04T09:02:02Z</time>
      </trkpt>
      <trkpt lat="43.30519" lon="-0.50434">
        <ele>202.49</ele>
        <time>2017-02-04T09:02:14Z</time>
      </trkpt>
      <trkpt lat="43.30497" lon="-0.50407">
        <ele>204.9</ele>
        <time>2017-02-04T09:02:27Z</time>
      </trkpt>
      <trkpt lat="43.3047" lon="-0.50378">
        <ele>206.34</ele>
        <time>2017-02-04T09:02:41Z</time>
      </trkpt>
      <trkpt lat="43.30439" lon="-0.50336">
        <ele>205.86</ele>
        <time>2017-02-04T09:02:58Z</time>
      </trkpt>
      <trkpt lat="43.30418" lon="-0.50314">
        <ele>205.86</ele>
        <time>2017-02-04T09:03:10Z</time>
      </trkpt>
      <trkpt lat="43.304" lon="-0.50291">
        <ele>208.74</ele>
        <time>2017-02-04T09:03:20Z</time>
      </trkpt>
      <trkpt lat="43.30398" lon="-0.50289">
        <ele>208.74</ele>
        <time>2017-02-04T09:03:21Z</time>
      </trkpt>
      <trkpt lat="43.30397" lon="-0.50288">
        <ele>208.26</ele>
        <time>2017-02-04T09:03:22Z</time>
      </trkpt>
      <trkpt lat="43.30395" lon="-0.50286">
        <ele>208.26</ele>
        <time>2017-02-04T09:03:23Z</time>
      </trkpt>
      <trkpt lat="43.30393" lon="-0.50285">
        <ele>208.26</ele>
        <time>2017-02-04T09:03:24Z</time>
      </trkpt>
      <trkpt lat="43.30391" lon="-0.50283">
        <ele>208.26</ele>
        <time>2017-02-04T09:03:25Z</time>
      </trkpt>
      <trkpt lat="43.3039" lon="-0.50282">
        <ele>207.78</ele>
        <time>2017-02-04T09:03:26Z</time>
      </trkpt>
      <trkpt lat="43.30388" lon="-0.50281">
        <ele>208.26</ele>
        <time>2017-02-04T09:03:27Z</time>
      </trkpt>
      <trkpt lat="43.3037" lon="-0.50254">
        <ele>212.59</ele>
        <time>2017-02-04T09:03:40Z</time>
      </trkpt>
      <trkpt lat="43.3037" lon="-0.50252">
        <ele>212.59</ele>
        <time>2017-02-04T09:03:41Z</time>
      </trkpt>
      <trkpt lat="43.30371" lon="-0.5025">
        <ele>213.07</ele>
        <time>2017-02-04T09:03:42Z</time>
      </trkpt>
      <trkpt lat="43.30372" lon="-0.50248">
        <ele>213.07</ele>
        <time>2017-02-04T09:03:43Z</time>
      </trkpt>
      <trkpt lat="43.30372" lon="-0.50246">
        <ele>213.07</ele>
        <time>2017-02-04T09:03:44Z</time>
      </trkpt>
      <trkpt lat="43.30372" lon="-0.50244">
        <ele>213.07</ele>
        <time>2017-02-04T09:03:45Z</time>
      </trkpt>
      <trkpt lat="43.30373" lon="-0.50243">
        <ele>213.07</ele>
        <time>2017-02-04T09:03:46Z</time>
      </trkpt>
      <trkpt lat="43.30374" lon="-0.50245">
        <ele>212.59</ele>
        <time>2017-02-04T09:03:49Z</time>
      </trkpt>
      <trkpt lat="43.30372" lon="-0.50248">
        <ele>212.59</ele>
        <time>2017-02-04T09:03:50Z</time>
      </trkpt>
      <trkpt lat="43.30366" lon="-0.50252">
        <ele>211.15</ele>
        <time>2017-02-04T09:03:54Z</time>
      </trkpt>
      <trkpt lat="43.30364" lon="-0.50251">
        <ele>211.15</ele>
        <time>2017-02-04T09:03:55Z</time>
      </trkpt>
      <trkpt lat="43.30348" lon="-0.50243">
        <ele>205.86</ele>
        <time>2017-02-04T09:04:06Z</time>
      </trkpt>
      <trkpt lat="43.30347" lon="-0.50243">
        <ele>205.86</ele>
        <time>2017-02-04T09:04:07Z</time>
      </trkpt>
      <trkpt lat="43.30346" lon="-0.50243">
        <ele>205.38</ele>
        <time>2017-02-04T09:04:08Z</time>
      </trkpt>
      <trkpt lat="43.3034" lon="-0.50234">
        <ele>201.05</ele>
        <time>2017-02-04T09:04:16Z</time>
      </trkpt>
      <trkpt lat="43.3034" lon="-0.50231">
        <ele>200.57</ele>
        <time>2017-02-04T09:04:17Z</time>
      </trkpt>
      <trkpt lat="43.30338" lon="-0.5023">
        <ele>198.65</ele>
        <time>2017-02-04T09:04:27Z</time>
      </trkpt>
      <trkpt lat="43.30336" lon="-0.50223">
        <ele>198.17</ele>
        <time>2017-02-04T09:04:32Z</time>
      </trkpt>
      <trkpt lat="43.30336" lon="-0.5022">
        <ele>197.69</ele>
        <time>2017-02-04T09:04:33Z</time>
      </trkpt>
      <trkpt lat="43.30336" lon="-0.50218">
        <ele>197.69</ele>
        <time>2017-02-04T09:04:34Z</time>
      </trkpt>
      <trkpt lat="43.30336" lon="-0.50209">
        <ele>194.8</ele>
        <time>2017-02-04T09:04:40Z</time>
      </trkpt>
      <trkpt lat="43.30336" lon="-0.50207">
        <ele>194.8</ele>
        <time>2017-02-04T09:04:41Z</time>
      </trkpt>
      <trkpt lat="43.30333" lon="-0.50202">
        <ele>191.92</ele>
        <time>2017-02-04T09:04:53Z</time>
      </trkpt>
      <trkpt lat="43.30326" lon="-0.50195">
        <ele>187.59</ele>
        <time>2017-02-04T09:05:02Z</time>
      </trkpt>
      <trkpt lat="43.30318" lon="-0.50193">
        <ele>184.23</ele>
        <time>2017-02-04T09:05:11Z</time>
      </trkpt>
      <trkpt lat="43.30315" lon="-0.50187">
        <ele>176.54</ele>
        <time>2017-02-04T09:05:21Z</time>
      </trkpt>
      <trkpt lat="43.30314" lon="-0.50185">
        <ele>175.58</ele>
        <time>2017-02-04T09:05:23Z</time>
      </trkpt>
      <trkpt lat="43.30315" lon="-0.50177">
        <ele>172.69</ele>
        <time>2017-02-04T09:05:32Z</time>
      </trkpt>
      <trkpt lat="43.30305" lon="-0.50166">
        <ele>173.66</ele>
        <time>2017-02-04T09:05:43Z</time>
      </trkpt>
      <trkpt lat="43.30304" lon="-0.50165">
        <ele>173.17</ele>
        <time>2017-02-04T09:05:44Z</time>
      </trkpt>
      <trkpt lat="43.30302" lon="-0.50164">
        <ele>172.69</ele>
        <time>2017-02-04T09:05:45Z</time>
      </trkpt>
      <trkpt lat="43.30291" lon="-0.50158">
        <ele>166.45</ele>
        <time>2017-02-04T09:05:56Z</time>
      </trkpt>
      <trkpt lat="43.30288" lon="-0.50155">
        <ele>167.41</ele>
        <time>2017-02-04T09:06:00Z</time>
      </trkpt>
      <trkpt lat="43.30286" lon="-0.50153">
        <ele>168.37</ele>
        <time>2017-02-04T09:06:02Z</time>
      </trkpt>
      <trkpt lat="43.3028" lon="-0.5015">
        <ele>169.33</ele>
        <time>2017-02-04T09:06:07Z</time>
      </trkpt>
      <trkpt lat="43.30278" lon="-0.50149">
        <ele>169.81</ele>
        <time>2017-02-04T09:06:08Z</time>
      </trkpt>
      <trkpt lat="43.30277" lon="-0.50148">
        <ele>170.29</ele>
        <time>2017-02-04T09:06:09Z</time>
      </trkpt>
      <trkpt lat="43.3027" lon="-0.50139">
        <ele>171.25</ele>
        <time>2017-02-04T09:06:18Z</time>
      </trkpt>
      <trkpt lat="43.30259" lon="-0.50134">
        <ele>170.77</ele>
        <time>2017-02-04T09:06:28Z</time>
      </trkpt>
      <trkpt lat="43.3025" lon="-0.5013">
        <ele>169.81</ele>
        <time>2017-02-04T09:06:35Z</time>
      </trkpt>
      <trkpt lat="43.30248" lon="-0.5013">
        <ele>169.81</ele>
        <time>2017-02-04T09:06:36Z</time>
      </trkpt>
      <trkpt lat="43.30245" lon="-0.50128">
        <ele>168.85</ele>
        <time>2017-02-04T09:06:39Z</time>
      </trkpt>
      <trkpt lat="43.30244" lon="-0.50128">
        <ele>168.85</ele>
        <time>2017-02-04T09:06:40Z</time>
      </trkpt>
      <trkpt lat="43.30242" lon="-0.50127">
        <ele>168.37</ele>
        <time>2017-02-04T09:06:41Z</time>
      </trkpt>
      <trkpt lat="43.30239" lon="-0.50127">
        <ele>167.89</ele>
        <time>2017-02-04T09:06:42Z</time>
      </trkpt>
      <trkpt lat="43.30238" lon="-0.50125">
        <ele>167.41</ele>
        <time>2017-02-04T09:06:43Z</time>
      </trkpt>
      <trkpt lat="43.30231" lon="-0.50124">
        <ele>164.52</ele>
        <time>2017-02-04T09:06:49Z</time>
      </trkpt>
      <trkpt lat="43.30229" lon="-0.50123">
        <ele>164.04</ele>
        <time>2017-02-04T09:06:50Z</time>
      </trkpt>
      <trkpt lat="43.30223" lon="-0.50122">
        <ele>159.72</ele>
        <time>2017-02-04T09:06:59Z</time>
      </trkpt>
      <trkpt lat="43.30222" lon="-0.50123">
        <ele>158.27</ele>
        <time>2017-02-04T09:07:02Z</time>
      </trkpt>
      <trkpt lat="43.3022" lon="-0.50124">
        <ele>156.35</ele>
        <time>2017-02-04T09:07:04Z</time>
      </trkpt>
      <trkpt lat="43.30218" lon="-0.50124">
        <ele>155.87</ele>
        <time>2017-02-04T09:07:05Z</time>
      </trkpt>
      <trkpt lat="43.30215" lon="-0.50121">
        <ele>151.06</ele>
        <time>2017-02-04T09:07:12Z</time>
      </trkpt>
      <trkpt lat="43.30214" lon="-0.5012">
        <ele>150.1</ele>
        <time>2017-02-04T09:07:13Z</time>
      </trkpt>
      <trkpt lat="43.30213" lon="-0.50117">
        <ele>149.14</ele>
        <time>2017-02-04T09:07:15Z</time>
      </trkpt>
      <trkpt lat="43.30212" lon="-0.50112">
        <ele>146.26</ele>
        <time>2017-02-04T09:07:18Z</time>
      </trkpt>
      <trkpt lat="43.30211" lon="-0.50106">
        <ele>142.41</ele>
        <time>2017-02-04T09:07:22Z</time>
      </trkpt>
      <trkpt lat="43.3021" lon="-0.50098">
        <ele>138.09</ele>
        <time>2017-02-04T09:07:26Z</time>
      </trkpt>
      <trkpt lat="43.30198" lon="-0.50094">
        <ele>133.28</ele>
        <time>2017-02-04T09:07:36Z</time>
      </trkpt>
      <trkpt lat="43.30194" lon="-0.50094">
        <ele>133.76</ele>
        <time>2017-02-04T09:07:41Z</time>
      </trkpt>
      <trkpt lat="43.30194" lon="-0.50095">
        <ele>134.24</ele>
        <time>2017-02-04T09:07:42Z</time>
      </trkpt>
      <trkpt lat="43.30192" lon="-0.501">
        <ele>135.68</ele>
        <time>2017-02-04T09:07:45Z</time>
      </trkpt>
      <trkpt lat="43.30189" lon="-0.50112">
        <ele>135.2</ele>
        <time>2017-02-04T09:07:50Z</time>
      </trkpt>
      <trkpt lat="43.30185" lon="-0.50117">
        <ele>134.24</ele>
        <time>2017-02-04T09:07:53Z</time>
      </trkpt>
      <trkpt lat="43.30184" lon="-0.5012">
        <ele>134.24</ele>
        <time>2017-02-04T09:07:54Z</time>
      </trkpt>
      <trkpt lat="43.30184" lon="-0.50123">
        <ele>133.76</ele>
        <time>2017-02-04T09:07:55Z</time>
      </trkpt>
      <trkpt lat="43.30182" lon="-0.50169">
        <ele>125.11</ele>
        <time>2017-02-04T09:08:05Z</time>
      </trkpt>
      <trkpt lat="43.30181" lon="-0.50174">
        <ele>124.15</ele>
        <time>2017-02-04T09:08:06Z</time>
      </trkpt>
      <trkpt lat="43.30179" lon="-0.502">
        <ele>120.3</ele>
        <time>2017-02-04T09:08:10Z</time>
      </trkpt>
      <trkpt lat="43.30178" lon="-0.50212">
        <ele>119.34</ele>
        <time>2017-02-04T09:08:12Z</time>
      </trkpt>
      <trkpt lat="43.30177" lon="-0.50219">
        <ele>119.34</ele>
        <time>2017-02-04T09:08:13Z</time>
      </trkpt>
      <trkpt lat="43.30163" lon="-0.50339">
        <ele>121.74</ele>
        <time>2017-02-04T09:08:28Z</time>
      </trkpt>
      <trkpt lat="43.30159" lon="-0.50364">
        <ele>125.59</ele>
        <time>2017-02-04T09:08:33Z</time>
      </trkpt>
      <trkpt lat="43.30156" lon="-0.50365">
        <ele>126.07</ele>
        <time>2017-02-04T09:08:34Z</time>
      </trkpt>
      <trkpt lat="43.30152" lon="-0.50364">
        <ele>126.55</ele>
        <time>2017-02-04T09:08:35Z</time>
      </trkpt>
      <trkpt lat="43.3015" lon="-0.50363">
        <ele>127.99</ele>
        <time>2017-02-04T09:08:36Z</time>
      </trkpt>
      <trkpt lat="43.30147" lon="-0.5036">
        <ele>128.47</ele>
        <time>2017-02-04T09:08:37Z</time>
      </trkpt>
      <trkpt lat="43.30144" lon="-0.50357">
        <ele>128.95</ele>
        <time>2017-02-04T09:08:38Z</time>
      </trkpt>
      <trkpt lat="43.30142" lon="-0.50355">
        <ele>129.92</ele>
        <time>2017-02-04T09:08:39Z</time>
      </trkpt>
      <trkpt lat="43.3011" lon="-0.50321">
        <ele>137.13</ele>
        <time>2017-02-04T09:08:53Z</time>
      </trkpt>
      <trkpt lat="43.30086" lon="-0.50287">
        <ele>140.97</ele>
        <time>2017-02-04T09:09:04Z</time>
      </trkpt>
      <trkpt lat="43.30044" lon="-0.50242">
        <ele>142.89</ele>
        <time>2017-02-04T09:09:18Z</time>
      </trkpt>
      <trkpt lat="43.30037" lon="-0.50236">
        <ele>142.89</ele>
        <time>2017-02-04T09:09:20Z</time>
      </trkpt>
      <trkpt lat="43.30033" lon="-0.50233">
        <ele>142.89</ele>
        <time>2017-02-04T09:09:21Z</time>
      </trkpt>
      <trkpt lat="43.30029" lon="-0.50231">
        <ele>142.41</ele>
        <time>2017-02-04T09:09:22Z</time>
      </trkpt>
      <trkpt lat="43.30025" lon="-0.5023">
        <ele>142.41</ele>
        <time>2017-02-04T09:09:23Z</time>
      </trkpt>
      <trkpt lat="43.30021" lon="-0.50229">
        <ele>141.93</ele>
        <time>2017-02-04T09:09:24Z</time>
      </trkpt>
      <trkpt lat="43.29987" lon="-0.5022">
        <ele>142.41</ele>
        <time>2017-02-04T09:09:32Z</time>
      </trkpt>
      <trkpt lat="43.29983" lon="-0.50219">
        <ele>142.41</ele>
        <time>2017-02-04T09:09:33Z</time>
      </trkpt>
      <trkpt lat="43.29979" lon="-0.50217">
        <ele>142.89</ele>
        <time>2017-02-04T09:09:34Z</time>
      </trkpt>
      <trkpt lat="43.29958" lon="-0.50213">
        <ele>143.85</ele>
        <time>2017-02-04T09:09:39Z</time>
      </trkpt>
      <trkpt lat="43.2995" lon="-0.5021">
        <ele>144.34</ele>
        <time>2017-02-04T09:09:41Z</time>
      </trkpt>
      <trkpt lat="43.29946" lon="-0.50207">
        <ele>144.34</ele>
        <time>2017-02-04T09:09:42Z</time>
      </trkpt>
      <trkpt lat="43.29942" lon="-0.50206">
        <ele>144.34</ele>
        <time>2017-02-04T09:09:43Z</time>
      </trkpt>
      <trkpt lat="43.29899" lon="-0.5019">
        <ele>145.3</ele>
        <time>2017-02-04T09:09:54Z</time>
      </trkpt>
      <trkpt lat="43.29889" lon="-0.50184">
        <ele>145.78</ele>
        <time>2017-02-04T09:09:56Z</time>
      </trkpt>
      <trkpt lat="43.29884" lon="-0.50183">
        <ele>145.78</ele>
        <time>2017-02-04T09:09:57Z</time>
      </trkpt>
      <trkpt lat="43.29864" lon="-0.5018">
        <ele>144.34</ele>
        <time>2017-02-04T09:10:01Z</time>
      </trkpt>
      <trkpt lat="43.29861" lon="-0.50181">
        <ele>143.85</ele>
        <time>2017-02-04T09:10:02Z</time>
      </trkpt>
      <trkpt lat="43.29857" lon="-0.50182">
        <ele>143.85</ele>
        <time>2017-02-04T09:10:03Z</time>
      </trkpt>
      <trkpt lat="43.29855" lon="-0.50185">
        <ele>143.85</ele>
        <time>2017-02-04T09:10:04Z</time>
      </trkpt>
      <trkpt lat="43.29854" lon="-0.50188">
        <ele>143.37</ele>
        <time>2017-02-04T09:10:05Z</time>
      </trkpt>
      <trkpt lat="43.29832" lon="-0.50187">
        <ele>143.37</ele>
        <time>2017-02-04T09:10:14Z</time>
      </trkpt>
      <trkpt lat="43.29825" lon="-0.50183">
        <ele>142.89</ele>
        <time>2017-02-04T09:10:16Z</time>
      </trkpt>
      <trkpt lat="43.29764" lon="-0.50172">
        <ele>143.37</ele>
        <time>2017-02-04T09:10:30Z</time>
      </trkpt>
      <trkpt lat="43.2975" lon="-0.50173">
        <ele>144.82</ele>
        <time>2017-02-04T09:10:34Z</time>
      </trkpt>
      <trkpt lat="43.29748" lon="-0.50176">
        <ele>144.82</ele>
        <time>2017-02-04T09:10:35Z</time>
      </trkpt>
      <trkpt lat="43.29746" lon="-0.5018">
        <ele>144.82</ele>
        <time>2017-02-04T09:10:36Z</time>
      </trkpt>
      <trkpt lat="43.29746" lon="-0.50187">
        <ele>144.82</ele>
        <time>2017-02-04T09:10:37Z</time>
      </trkpt>
      <trkpt lat="43.29746" lon="-0.50193">
        <ele>144.82</ele>
        <time>2017-02-04T09:10:38Z</time>
      </trkpt>
      <trkpt lat="43.29745" lon="-0.50208">
        <ele>144.34</ele>
        <time>2017-02-04T09:10:40Z</time>
      </trkpt>
      <trkpt lat="43.29723" lon="-0.50337">
        <ele>140.49</ele>
        <time>2017-02-04T09:10:55Z</time>
      </trkpt>
      <trkpt lat="43.29699" lon="-0.50463">
        <ele>140.49</ele>
        <time>2017-02-04T09:11:10Z</time>
      </trkpt>
      <trkpt lat="43.29698" lon="-0.5048">
        <ele>140.49</ele>
        <time>2017-02-04T09:11:12Z</time>
      </trkpt>
      <trkpt lat="43.29684" lon="-0.50578">
        <ele>140.01</ele>
        <time>2017-02-04T09:11:25Z</time>
      </trkpt>
      <trkpt lat="43.29681" lon="-0.50584">
        <ele>140.01</ele>
        <time>2017-02-04T09:11:26Z</time>
      </trkpt>
      <trkpt lat="43.29678" lon="-0.5059">
        <ele>140.01</ele>
        <time>2017-02-04T09:11:27Z</time>
      </trkpt>
      <trkpt lat="43.29674" lon="-0.50594">
        <ele>140.49</ele>
        <time>2017-02-04T09:11:28Z</time>
      </trkpt>
      <trkpt lat="43.2967" lon="-0.50598">
        <ele>140.01</ele>
        <time>2017-02-04T09:11:29Z</time>
      </trkpt>
      <trkpt lat="43.2966" lon="-0.50605">
        <ele>139.53</ele>
        <time>2017-02-04T09:11:31Z</time>
      </trkpt>
      <trkpt lat="43.29651" lon="-0.50611">
        <ele>139.53</ele>
        <time>2017-02-04T09:11:33Z</time>
      </trkpt>
      <trkpt lat="43.29648" lon="-0.50616">
        <ele>139.53</ele>
        <time>2017-02-04T09:11:34Z</time>
      </trkpt>
      <trkpt lat="43.29645" lon="-0.50622">
        <ele>139.53</ele>
        <time>2017-02-04T09:11:35Z</time>
      </trkpt>
      <trkpt lat="43.29644" lon="-0.50629">
        <ele>140.01</ele>
        <time>2017-02-04T09:11:36Z</time>
      </trkpt>
      <trkpt lat="43.29643" lon="-0.50635">
        <ele>140.01</ele>
        <time>2017-02-04T09:11:37Z</time>
      </trkpt>
      <trkpt lat="43.29644" lon="-0.50642">
        <ele>140.49</ele>
        <time>2017-02-04T09:11:38Z</time>
      </trkpt>
      <trkpt lat="43.29645" lon="-0.50649">
        <ele>140.49</ele>
        <time>2017-02-04T09:11:39Z</time>
      </trkpt>
      <trkpt lat="43.29645" lon="-0.50656">
        <ele>140.49</ele>
        <time>2017-02-04T09:11:40Z</time>
      </trkpt>
      <trkpt lat="43.29646" lon="-0.50663">
        <ele>140.49</ele>
        <time>2017-02-04T09:11:41Z</time>
      </trkpt>
      <trkpt lat="43.29647" lon="-0.5067">
        <ele>140.49</ele>
        <time>2017-02-04T09:11:42Z</time>
      </trkpt>
      <trkpt lat="43.29649" lon="-0.50684">
        <ele>140.01</ele>
        <time>2017-02-04T09:11:44Z</time>
      </trkpt>
      <trkpt lat="43.29651" lon="-0.5069">
        <ele>140.01</ele>
        <time>2017-02-04T09:11:45Z</time>
      </trkpt>
      <trkpt lat="43.29654" lon="-0.50696">
        <ele>140.01</ele>
        <time>2017-02-04T09:11:46Z</time>
      </trkpt>
      <trkpt lat="43.29658" lon="-0.507">
        <ele>140.01</ele>
        <time>2017-02-04T09:11:47Z</time>
      </trkpt>
      <trkpt lat="43.29664" lon="-0.50702">
        <ele>140.01</ele>
        <time>2017-02-04T09:11:48Z</time>
      </trkpt>
      <trkpt lat="43.29668" lon="-0.50703">
        <ele>140.01</ele>
        <time>2017-02-04T09:11:49Z</time>
      </trkpt>
      <trkpt lat="43.29674" lon="-0.50703">
        <ele>140.01</ele>
        <time>2017-02-04T09:11:50Z</time>
      </trkpt>
      <trkpt lat="43.29707" lon="-0.50708">
        <ele>140.01</ele>
        <time>2017-02-04T09:11:56Z</time>
      </trkpt>
      <trkpt lat="43.29713" lon="-0.50711">
        <ele>140.01</ele>
        <time>2017-02-04T09:11:57Z</time>
      </trkpt>
      <trkpt lat="43.29729" lon="-0.50721">
        <ele>140.01</ele>
        <time>2017-02-04T09:12:00Z</time>
      </trkpt>
      <trkpt lat="43.29734" lon="-0.50725">
        <ele>139.53</ele>
        <time>2017-02-04T09:12:01Z</time>
      </trkpt>
      <trkpt lat="43.29815" lon="-0.50804">
        <ele>139.53</ele>
        <time>2017-02-04T09:12:17Z</time>
      </trkpt>
      <trkpt lat="43.29884" lon="-0.50877">
        <ele>139.05</ele>
        <time>2017-02-04T09:12:32Z</time>
      </trkpt>
      <trkpt lat="43.29888" lon="-0.50883">
        <ele>139.05</ele>
        <time>2017-02-04T09:12:33Z</time>
      </trkpt>
      <trkpt lat="43.29891" lon="-0.50891">
        <ele>139.05</ele>
        <time>2017-02-04T09:12:34Z</time>
      </trkpt>
      <trkpt lat="43.29908" lon="-0.50944">
        <ele>139.05</ele>
        <time>2017-02-04T09:12:42Z</time>
      </trkpt>
      <trkpt lat="43.29909" lon="-0.50951">
        <ele>139.05</ele>
        <time>2017-02-04T09:12:43Z</time>
      </trkpt>
      <trkpt lat="43.29909" lon="-0.50957">
        <ele>139.05</ele>
        <time>2017-02-04T09:12:44Z</time>
      </trkpt>
      <trkpt lat="43.29908" lon="-0.50965">
        <ele>138.57</ele>
        <time>2017-02-04T09:12:45Z</time>
      </trkpt>
      <trkpt lat="43.29907" lon="-0.50972">
        <ele>138.57</ele>
        <time>2017-02-04T09:12:46Z</time>
      </trkpt>
      <trkpt lat="43.29905" lon="-0.50979">
        <ele>138.57</ele>
        <time>2017-02-04T09:12:47Z</time>
      </trkpt>
      <trkpt lat="43.29872" lon="-0.51069">
        <ele>137.13</ele>
        <time>2017-02-04T09:13:00Z</time>
      </trkpt>
      <trkpt lat="43.29865" lon="-0.51089">
        <ele>136.16</ele>
        <time>2017-02-04T09:13:03Z</time>
      </trkpt>
      <trkpt lat="43.29861" lon="-0.5111">
        <ele>134.24</ele>
        <time>2017-02-04T09:13:06Z</time>
      </trkpt>
      <trkpt lat="43.29863" lon="-0.51124">
        <ele>133.28</ele>
        <time>2017-02-04T09:13:08Z</time>
      </trkpt>
      <trkpt lat="43.29873" lon="-0.51168">
        <ele>131.84</ele>
        <time>2017-02-04T09:13:14Z</time>
      </trkpt>
      <trkpt lat="43.29876" lon="-0.51174">
        <ele>131.84</ele>
        <time>2017-02-04T09:13:15Z</time>
      </trkpt>
      <trkpt lat="43.29879" lon="-0.5118">
        <ele>131.84</ele>
        <time>2017-02-04T09:13:16Z</time>
      </trkpt>
      <trkpt lat="43.29894" lon="-0.51203">
        <ele>132.32</ele>
        <time>2017-02-04T09:13:20Z</time>
      </trkpt>
      <trkpt lat="43.299" lon="-0.51214">
        <ele>132.32</ele>
        <time>2017-02-04T09:13:22Z</time>
      </trkpt>
      <trkpt lat="43.29902" lon="-0.51221">
        <ele>132.8</ele>
        <time>2017-02-04T09:13:23Z</time>
      </trkpt>
      <trkpt lat="43.29904" lon="-0.51228">
        <ele>133.28</ele>
        <time>2017-02-04T09:13:24Z</time>
      </trkpt>
      <trkpt lat="43.29904" lon="-0.51234">
        <ele>133.28</ele>
        <time>2017-02-04T09:13:25Z</time>
      </trkpt>
      <trkpt lat="43.29903" lon="-0.51241">
        <ele>133.76</ele>
        <time>2017-02-04T09:13:26Z</time>
      </trkpt>
      <trkpt lat="43.29903" lon="-0.51247">
        <ele>134.24</ele>
        <time>2017-02-04T09:13:27Z</time>
      </trkpt>
      <trkpt lat="43.29902" lon="-0.51252">
        <ele>134.24</ele>
        <time>2017-02-04T09:13:28Z</time>
      </trkpt>
      <trkpt lat="43.299" lon="-0.51258">
        <ele>134.24</ele>
        <time>2017-02-04T09:13:29Z</time>
      </trkpt>
      <trkpt lat="43.29896" lon="-0.51272">
        <ele>134.24</ele>
        <time>2017-02-04T09:13:32Z</time>
      </trkpt>
      <trkpt lat="43.2989" lon="-0.51283">
        <ele>134.24</ele>
        <time>2017-02-04T09:13:34Z</time>
      </trkpt>
      <trkpt lat="43.29879" lon="-0.51298">
        <ele>134.72</ele>
        <time>2017-02-04T09:13:37Z</time>
      </trkpt>
      <trkpt lat="43.29833" lon="-0.51347">
        <ele>137.61</ele>
        <time>2017-02-04T09:13:50Z</time>
      </trkpt>
      <trkpt lat="43.29822" lon="-0.51382">
        <ele>139.05</ele>
        <time>2017-02-04T09:13:57Z</time>
      </trkpt>
      <trkpt lat="43.2981" lon="-0.51465">
        <ele>141.45</ele>
        <time>2017-02-04T09:14:14Z</time>
      </trkpt>
      <trkpt lat="43.29797" lon="-0.51538">
        <ele>142.89</ele>
        <time>2017-02-04T09:14:30Z</time>
      </trkpt>
      <trkpt lat="43.29787" lon="-0.51612">
        <ele>143.37</ele>
        <time>2017-02-04T09:14:46Z</time>
      </trkpt>
      <trkpt lat="43.29785" lon="-0.51693">
        <ele>144.34</ele>
        <time>2017-02-04T09:15:04Z</time>
      </trkpt>
      <trkpt lat="43.29785" lon="-0.51772">
        <ele>146.26</ele>
        <time>2017-02-04T09:15:21Z</time>
      </trkpt>
      <trkpt lat="43.29791" lon="-0.51839">
        <ele>148.66</ele>
        <time>2017-02-04T09:15:37Z</time>
      </trkpt>
      <trkpt lat="43.29799" lon="-0.5187">
        <ele>150.1</ele>
        <time>2017-02-04T09:15:45Z</time>
      </trkpt>
      <trkpt lat="43.298" lon="-0.51871">
        <ele>150.1</ele>
        <time>2017-02-04T09:15:46Z</time>
      </trkpt>
      <trkpt lat="43.29803" lon="-0.51872">
        <ele>150.1</ele>
        <time>2017-02-04T09:15:47Z</time>
      </trkpt>
      <trkpt lat="43.29845" lon="-0.519">
        <ele>148.66</ele>
        <time>2017-02-04T09:16:01Z</time>
      </trkpt>
      <trkpt lat="43.29883" lon="-0.51946">
        <ele>148.66</ele>
        <time>2017-02-04T09:16:15Z</time>
      </trkpt>
      <trkpt lat="43.29919" lon="-0.51985">
        <ele>148.66</ele>
        <time>2017-02-04T09:16:27Z</time>
      </trkpt>
      <trkpt lat="43.2994" lon="-0.52011">
        <ele>148.66</ele>
        <time>2017-02-04T09:16:34Z</time>
      </trkpt>
      <trkpt lat="43.29944" lon="-0.52011">
        <ele>148.66</ele>
        <time>2017-02-04T09:16:35Z</time>
      </trkpt>
      <trkpt lat="43.29988" lon="-0.52">
        <ele>151.54</ele>
        <time>2017-02-04T09:16:48Z</time>
      </trkpt>
      <trkpt lat="43.30029" lon="-0.51988">
        <ele>152.03</ele>
        <time>2017-02-04T09:17:00Z</time>
      </trkpt>
      <trkpt lat="43.30081" lon="-0.51984">
        <ele>148.18</ele>
        <time>2017-02-04T09:17:10Z</time>
      </trkpt>
      <trkpt lat="43.30086" lon="-0.51984">
        <ele>148.18</ele>
        <time>2017-02-04T09:17:11Z</time>
      </trkpt>
      <trkpt lat="43.30091" lon="-0.51985">
        <ele>148.18</ele>
        <time>2017-02-04T09:17:12Z</time>
      </trkpt>
      <trkpt lat="43.30095" lon="-0.51986">
        <ele>148.18</ele>
        <time>2017-02-04T09:17:13Z</time>
      </trkpt>
      <trkpt lat="43.301" lon="-0.51988">
        <ele>148.18</ele>
        <time>2017-02-04T09:17:14Z</time>
      </trkpt>
      <trkpt lat="43.30129" lon="-0.52002">
        <ele>151.06</ele>
        <time>2017-02-04T09:17:26Z</time>
      </trkpt>
      <trkpt lat="43.30135" lon="-0.5203">
        <ele>152.51</ele>
        <time>2017-02-04T09:17:37Z</time>
      </trkpt>
      <trkpt lat="43.30138" lon="-0.52061">
        <ele>154.91</ele>
        <time>2017-02-04T09:17:51Z</time>
      </trkpt>
      <trkpt lat="43.30142" lon="-0.52089">
        <ele>157.31</ele>
        <time>2017-02-04T09:18:07Z</time>
      </trkpt>
      <trkpt lat="43.30144" lon="-0.52115">
        <ele>162.6</ele>
        <time>2017-02-04T09:18:22Z</time>
      </trkpt>
      <trkpt lat="43.30143" lon="-0.52132">
        <ele>165</ele>
        <time>2017-02-04T09:18:32Z</time>
      </trkpt>
      <trkpt lat="43.30143" lon="-0.52133">
        <ele>165.48</ele>
        <time>2017-02-04T09:18:33Z</time>
      </trkpt>
      <trkpt lat="43.30143" lon="-0.52135">
        <ele>165.48</ele>
        <time>2017-02-04T09:18:34Z</time>
      </trkpt>
      <trkpt lat="43.30141" lon="-0.52163">
        <ele>167.89</ele>
        <time>2017-02-04T09:18:50Z</time>
      </trkpt>
      <trkpt lat="43.30139" lon="-0.52198">
        <ele>168.85</ele>
        <time>2017-02-04T09:19:08Z</time>
      </trkpt>
      <trkpt lat="43.3014" lon="-0.52233">
        <ele>170.77</ele>
        <time>2017-02-04T09:19:25Z</time>
      </trkpt>
      <trkpt lat="43.30143" lon="-0.52267">
        <ele>172.21</ele>
        <time>2017-02-04T09:19:41Z</time>
      </trkpt>
      <trkpt lat="43.30146" lon="-0.52297">
        <ele>175.1</ele>
        <time>2017-02-04T09:19:55Z</time>
      </trkpt>
      <trkpt lat="43.30148" lon="-0.5233">
        <ele>177.02</ele>
        <time>2017-02-04T09:20:11Z</time>
      </trkpt>
      <trkpt lat="43.30149" lon="-0.52343">
        <ele>177.98</ele>
        <time>2017-02-04T09:20:17Z</time>
      </trkpt>
      <trkpt lat="43.30149" lon="-0.52345">
        <ele>177.98</ele>
        <time>2017-02-04T09:20:18Z</time>
      </trkpt>
      <trkpt lat="43.30149" lon="-0.52347">
        <ele>178.46</ele>
        <time>2017-02-04T09:20:19Z</time>
      </trkpt>
      <trkpt lat="43.3015" lon="-0.52349">
        <ele>178.46</ele>
        <time>2017-02-04T09:20:20Z</time>
      </trkpt>
      <trkpt lat="43.3015" lon="-0.52351">
        <ele>178.46</ele>
        <time>2017-02-04T09:20:21Z</time>
      </trkpt>
      <trkpt lat="43.30151" lon="-0.52361">
        <ele>178.94</ele>
        <time>2017-02-04T09:20:26Z</time>
      </trkpt>
      <trkpt lat="43.30151" lon="-0.52363">
        <ele>178.94</ele>
        <time>2017-02-04T09:20:27Z</time>
      </trkpt>
      <trkpt lat="43.30152" lon="-0.52397">
        <ele>181.35</ele>
        <time>2017-02-04T09:20:43Z</time>
      </trkpt>
      <trkpt lat="43.30148" lon="-0.52423">
        <ele>183.27</ele>
        <time>2017-02-04T09:20:56Z</time>
      </trkpt>
      <trkpt lat="43.30136" lon="-0.52435">
        <ele>184.23</ele>
        <time>2017-02-04T09:21:05Z</time>
      </trkpt>
      <trkpt lat="43.30125" lon="-0.52448">
        <ele>183.75</ele>
        <time>2017-02-04T09:21:14Z</time>
      </trkpt>
      <trkpt lat="43.30124" lon="-0.5245">
        <ele>183.75</ele>
        <time>2017-02-04T09:21:15Z</time>
      </trkpt>
      <trkpt lat="43.30124" lon="-0.52453">
        <ele>184.23</ele>
        <time>2017-02-04T09:21:16Z</time>
      </trkpt>
      <trkpt lat="43.30124" lon="-0.52455">
        <ele>184.23</ele>
        <time>2017-02-04T09:21:17Z</time>
      </trkpt>
      <trkpt lat="43.30124" lon="-0.52458">
        <ele>184.71</ele>
        <time>2017-02-04T09:21:18Z</time>
      </trkpt>
      <trkpt lat="43.30123" lon="-0.5246">
        <ele>184.71</ele>
        <time>2017-02-04T09:21:19Z</time>
      </trkpt>
      <trkpt lat="43.30122" lon="-0.52462">
        <ele>185.19</ele>
        <time>2017-02-04T09:21:20Z</time>
      </trkpt>
      <trkpt lat="43.30122" lon="-0.52465">
        <ele>185.19</ele>
        <time>2017-02-04T09:21:21Z</time>
      </trkpt>
      <trkpt lat="43.30122" lon="-0.52467">
        <ele>185.67</ele>
        <time>2017-02-04T09:21:22Z</time>
      </trkpt>
      <trkpt lat="43.30122" lon="-0.5247">
        <ele>185.67</ele>
        <time>2017-02-04T09:21:23Z</time>
      </trkpt>
      <trkpt lat="43.30119" lon="-0.52516">
        <ele>187.11</ele>
        <time>2017-02-04T09:21:39Z</time>
      </trkpt>
      <trkpt lat="43.30112" lon="-0.52559">
        <ele>189.52</ele>
        <time>2017-02-04T09:21:54Z</time>
      </trkpt>
      <trkpt lat="43.30101" lon="-0.52607">
        <ele>192.4</ele>
        <time>2017-02-04T09:22:13Z</time>
      </trkpt>
      <trkpt lat="43.3009" lon="-0.52645">
        <ele>195.77</ele>
        <time>2017-02-04T09:22:28Z</time>
      </trkpt>
      <trkpt lat="43.30073" lon="-0.52687">
        <ele>200.09</ele>
        <time>2017-02-04T09:22:47Z</time>
      </trkpt>
      <trkpt lat="43.30065" lon="-0.52701">
        <ele>201.53</ele>
        <time>2017-02-04T09:22:54Z</time>
      </trkpt>
      <trkpt lat="43.30053" lon="-0.52729">
        <ele>203.46</ele>
        <time>2017-02-04T09:23:09Z</time>
      </trkpt>
      <trkpt lat="43.30033" lon="-0.52768">
        <ele>203.94</ele>
        <time>2017-02-04T09:23:26Z</time>
      </trkpt>
      <trkpt lat="43.30009" lon="-0.52808">
        <ele>205.38</ele>
        <time>2017-02-04T09:23:44Z</time>
      </trkpt>
      <trkpt lat="43.29992" lon="-0.52834">
        <ele>207.78</ele>
        <time>2017-02-04T09:23:59Z</time>
      </trkpt>
      <trkpt lat="43.2998" lon="-0.52854">
        <ele>209.7</ele>
        <time>2017-02-04T09:24:12Z</time>
      </trkpt>
      <trkpt lat="43.29963" lon="-0.52876">
        <ele>213.55</ele>
        <time>2017-02-04T09:24:29Z</time>
      </trkpt>
      <trkpt lat="43.29952" lon="-0.52889">
        <ele>215.95</ele>
        <time>2017-02-04T09:24:39Z</time>
      </trkpt>
      <trkpt lat="43.29952" lon="-0.52891">
        <ele>215.95</ele>
        <time>2017-02-04T09:24:40Z</time>
      </trkpt>
      <trkpt lat="43.29951" lon="-0.52895">
        <ele>215.95</ele>
        <time>2017-02-04T09:24:48Z</time>
      </trkpt>
      <trkpt lat="43.2995" lon="-0.52895">
        <ele>216.43</ele>
        <time>2017-02-04T09:24:49Z</time>
      </trkpt>
      <trkpt lat="43.29949" lon="-0.52896">
        <ele>216.43</ele>
        <time>2017-02-04T09:24:50Z</time>
      </trkpt>
      <trkpt lat="43.29948" lon="-0.52897">
        <ele>216.91</ele>
        <time>2017-02-04T09:24:51Z</time>
      </trkpt>
      <trkpt lat="43.29947" lon="-0.52898">
        <ele>216.91</ele>
        <time>2017-02-04T09:24:52Z</time>
      </trkpt>
      <trkpt lat="43.29946" lon="-0.52899">
        <ele>217.4</ele>
        <time>2017-02-04T09:24:53Z</time>
      </trkpt>
      <trkpt lat="43.29945" lon="-0.529">
        <ele>217.4</ele>
        <time>2017-02-04T09:24:54Z</time>
      </trkpt>
      <trkpt lat="43.29944" lon="-0.52902">
        <ele>217.88</ele>
        <time>2017-02-04T09:24:55Z</time>
      </trkpt>
      <trkpt lat="43.29943" lon="-0.52903">
        <ele>217.88</ele>
        <time>2017-02-04T09:24:56Z</time>
      </trkpt>
      <trkpt lat="43.29941" lon="-0.52908">
        <ele>218.84</ele>
        <time>2017-02-04T09:24:59Z</time>
      </trkpt>
      <trkpt lat="43.2994" lon="-0.52909">
        <ele>218.84</ele>
        <time>2017-02-04T09:25:00Z</time>
      </trkpt>
      <trkpt lat="43.29939" lon="-0.5291">
        <ele>219.32</ele>
        <time>2017-02-04T09:25:01Z</time>
      </trkpt>
      <trkpt lat="43.29938" lon="-0.52912">
        <ele>219.8</ele>
        <time>2017-02-04T09:25:02Z</time>
      </trkpt>
      <trkpt lat="43.29938" lon="-0.52913">
        <ele>219.8</ele>
        <time>2017-02-04T09:25:03Z</time>
      </trkpt>
      <trkpt lat="43.29926" lon="-0.52936">
        <ele>223.64</ele>
        <time>2017-02-04T09:25:19Z</time>
      </trkpt>
      <trkpt lat="43.29914" lon="-0.52962">
        <ele>227.01</ele>
        <time>2017-02-04T09:25:36Z</time>
      </trkpt>
      <trkpt lat="43.29913" lon="-0.52969">
        <ele>227.49</ele>
        <time>2017-02-04T09:25:40Z</time>
      </trkpt>
      <trkpt lat="43.29912" lon="-0.52971">
        <ele>227.97</ele>
        <time>2017-02-04T09:25:41Z</time>
      </trkpt>
      <trkpt lat="43.29912" lon="-0.52973">
        <ele>227.97</ele>
        <time>2017-02-04T09:25:42Z</time>
      </trkpt>
      <trkpt lat="43.29911" lon="-0.52974">
        <ele>228.45</ele>
        <time>2017-02-04T09:25:43Z</time>
      </trkpt>
      <trkpt lat="43.29911" lon="-0.52976">
        <ele>228.45</ele>
        <time>2017-02-04T09:25:44Z</time>
      </trkpt>
      <trkpt lat="43.2991" lon="-0.52978">
        <ele>228.45</ele>
        <time>2017-02-04T09:25:45Z</time>
      </trkpt>
      <trkpt lat="43.29909" lon="-0.52979">
        <ele>228.93</ele>
        <time>2017-02-04T09:25:46Z</time>
      </trkpt>
      <trkpt lat="43.29909" lon="-0.52981">
        <ele>228.93</ele>
        <time>2017-02-04T09:25:47Z</time>
      </trkpt>
      <trkpt lat="43.29904" lon="-0.53007">
        <ele>232.78</ele>
        <time>2017-02-04T09:26:02Z</time>
      </trkpt>
      <trkpt lat="43.29898" lon="-0.53033">
        <ele>236.14</ele>
        <time>2017-02-04T09:26:18Z</time>
      </trkpt>
      <trkpt lat="43.29891" lon="-0.53061">
        <ele>239.51</ele>
        <time>2017-02-04T09:26:34Z</time>
      </trkpt>
      <trkpt lat="43.29889" lon="-0.53073">
        <ele>241.43</ele>
        <time>2017-02-04T09:26:41Z</time>
      </trkpt>
      <trkpt lat="43.29888" lon="-0.53075">
        <ele>241.43</ele>
        <time>2017-02-04T09:26:42Z</time>
      </trkpt>
      <trkpt lat="43.2989" lon="-0.53094">
        <ele>242.87</ele>
        <time>2017-02-04T09:26:54Z</time>
      </trkpt>
      <trkpt lat="43.29923" lon="-0.53111">
        <ele>241.43</ele>
        <time>2017-02-04T09:27:09Z</time>
      </trkpt>
      <trkpt lat="43.29951" lon="-0.53127">
        <ele>242.39</ele>
        <time>2017-02-04T09:27:23Z</time>
      </trkpt>
      <trkpt lat="43.29988" lon="-0.53144">
        <ele>243.35</ele>
        <time>2017-02-04T09:27:39Z</time>
      </trkpt>
      <trkpt lat="43.30023" lon="-0.53161">
        <ele>242.87</ele>
        <time>2017-02-04T09:27:54Z</time>
      </trkpt>
      <trkpt lat="43.30067" lon="-0.53181">
        <ele>242.39</ele>
        <time>2017-02-04T09:28:11Z</time>
      </trkpt>
      <trkpt lat="43.30115" lon="-0.53203">
        <ele>238.54</ele>
        <time>2017-02-04T09:28:23Z</time>
      </trkpt>
      <trkpt lat="43.30194" lon="-0.53247">
        <ele>232.3</ele>
        <time>2017-02-04T09:28:35Z</time>
      </trkpt>
      <trkpt lat="43.30213" lon="-0.53264">
        <ele>231.81</ele>
        <time>2017-02-04T09:28:38Z</time>
      </trkpt>
      <trkpt lat="43.30218" lon="-0.5327">
        <ele>231.33</ele>
        <time>2017-02-04T09:28:39Z</time>
      </trkpt>
      <trkpt lat="43.30251" lon="-0.53307">
        <ele>231.33</ele>
        <time>2017-02-04T09:28:46Z</time>
      </trkpt>
      <trkpt lat="43.30254" lon="-0.53312">
        <ele>231.33</ele>
        <time>2017-02-04T09:28:47Z</time>
      </trkpt>
      <trkpt lat="43.30258" lon="-0.53316">
        <ele>231.33</ele>
        <time>2017-02-04T09:28:48Z</time>
      </trkpt>
      <trkpt lat="43.30261" lon="-0.5332">
        <ele>231.81</ele>
        <time>2017-02-04T09:28:49Z</time>
      </trkpt>
      <trkpt lat="43.30265" lon="-0.53323">
        <ele>231.81</ele>
        <time>2017-02-04T09:28:50Z</time>
      </trkpt>
      <trkpt lat="43.30283" lon="-0.5334">
        <ele>232.3</ele>
        <time>2017-02-04T09:28:59Z</time>
      </trkpt>
      <trkpt lat="43.30305" lon="-0.5337">
        <ele>232.3</ele>
        <time>2017-02-04T09:29:13Z</time>
      </trkpt>
      <trkpt lat="43.3033" lon="-0.53405">
        <ele>232.3</ele>
        <time>2017-02-04T09:29:28Z</time>
      </trkpt>
      <trkpt lat="43.30358" lon="-0.53445">
        <ele>235.18</ele>
        <time>2017-02-04T09:29:45Z</time>
      </trkpt>
      <trkpt lat="43.3039" lon="-0.53486">
        <ele>236.62</ele>
        <time>2017-02-04T09:30:03Z</time>
      </trkpt>
      <trkpt lat="43.30401" lon="-0.535">
        <ele>237.58</ele>
        <time>2017-02-04T09:30:15Z</time>
      </trkpt>
      <trkpt lat="43.30397" lon="-0.535">
        <ele>239.51</ele>
        <time>2017-02-04T09:30:57Z</time>
      </trkpt>
      <trkpt lat="43.30401" lon="-0.53495">
        <ele>237.1</ele>
        <time>2017-02-04T09:31:33Z</time>
      </trkpt>
      <trkpt lat="43.30401" lon="-0.53501">
        <ele>236.62</ele>
        <time>2017-02-04T09:32:11Z</time>
      </trkpt>
      <trkpt lat="43.30397" lon="-0.53503">
        <ele>236.62</ele>
        <time>2017-02-04T09:32:46Z</time>
      </trkpt>
      <trkpt lat="43.30401" lon="-0.53505">
        <ele>234.22</ele>
        <time>2017-02-04T09:33:20Z</time>
      </trkpt>
      <trkpt lat="43.30398" lon="-0.53503">
        <ele>235.18</ele>
        <time>2017-02-04T09:33:55Z</time>
      </trkpt>
      <trkpt lat="43.30395" lon="-0.53507">
        <ele>230.37</ele>
        <time>2017-02-04T09:34:28Z</time>
      </trkpt>
      <trkpt lat="43.30396" lon="-0.53503">
        <ele>239.51</ele>
        <time>2017-02-04T09:35:08Z</time>
      </trkpt>
      <trkpt lat="43.30398" lon="-0.53506">
        <ele>239.02</ele>
        <time>2017-02-04T09:35:50Z</time>
      </trkpt>
      <trkpt lat="43.30398" lon="-0.53506">
        <ele>231.81</ele>
        <time>2017-02-04T09:36:28Z</time>
      </trkpt>
      <trkpt lat="43.30396" lon="-0.53506">
        <ele>233.26</ele>
        <time>2017-02-04T09:37:07Z</time>
      </trkpt>
      <trkpt lat="43.304" lon="-0.53505">
        <ele>230.37</ele>
        <time>2017-02-04T09:37:47Z</time>
      </trkpt>
      <trkpt lat="43.30398" lon="-0.535">
        <ele>230.85</ele>
        <time>2017-02-04T09:38:21Z</time>
      </trkpt>
      <trkpt lat="43.30404" lon="-0.5351">
        <ele>227.49</ele>
        <time>2017-02-04T09:38:56Z</time>
      </trkpt>
      <trkpt lat="43.30406" lon="-0.53503">
        <ele>230.37</ele>
        <time>2017-02-04T09:39:37Z</time>
      </trkpt>
      <trkpt lat="43.30397" lon="-0.53503">
        <ele>228.93</ele>
        <time>2017-02-04T09:40:11Z</time>
      </trkpt>
      <trkpt lat="43.30401" lon="-0.53502">
        <ele>240.95</ele>
        <time>2017-02-04T09:40:48Z</time>
      </trkpt>
      <trkpt lat="43.30403" lon="-0.53501">
        <ele>240.95</ele>
        <time>2017-02-04T09:41:16Z</time>
      </trkpt>
      <trkpt lat="43.30404" lon="-0.53501">
        <ele>241.91</ele>
        <time>2017-02-04T09:41:30Z</time>
      </trkpt>
      <trkpt lat="43.30406" lon="-0.53502">
        <ele>241.91</ele>
        <time>2017-02-04T09:41:31Z</time>
      </trkpt>
      <trkpt lat="43.30427" lon="-0.53524">
        <ele>242.87</ele>
        <time>2017-02-04T09:41:46Z</time>
      </trkpt>
      <trkpt lat="43.30449" lon="-0.53554">
        <ele>242.39</ele>
        <time>2017-02-04T09:41:59Z</time>
      </trkpt>
      <trkpt lat="43.30469" lon="-0.53586">
        <ele>245.27</ele>
        <time>2017-02-04T09:42:13Z</time>
      </trkpt>
      <trkpt lat="43.30488" lon="-0.53596">
        <ele>249.12</ele>
        <time>2017-02-04T09:42:25Z</time>
      </trkpt>
      <trkpt lat="43.30518" lon="-0.53551">
        <ele>242.87</ele>
        <time>2017-02-04T09:42:32Z</time>
      </trkpt>
      <trkpt lat="43.30536" lon="-0.53519">
        <ele>238.06</ele>
        <time>2017-02-04T09:42:37Z</time>
      </trkpt>
      <trkpt lat="43.30558" lon="-0.53471">
        <ele>228.93</ele>
        <time>2017-02-04T09:42:48Z</time>
      </trkpt>
      <trkpt lat="43.3056" lon="-0.53478">
        <ele>229.41</ele>
        <time>2017-02-04T09:42:57Z</time>
      </trkpt>
      <trkpt lat="43.3058" lon="-0.53488">
        <ele>226.53</ele>
        <time>2017-02-04T09:43:08Z</time>
      </trkpt>
      <trkpt lat="43.30584" lon="-0.5349">
        <ele>227.01</ele>
        <time>2017-02-04T09:43:28Z</time>
      </trkpt>
      <trkpt lat="43.30599" lon="-0.53497">
        <ele>224.61</ele>
        <time>2017-02-04T09:43:39Z</time>
      </trkpt>
      <trkpt lat="43.30654" lon="-0.53514">
        <ele>219.32</ele>
        <time>2017-02-04T09:43:50Z</time>
      </trkpt>
      <trkpt lat="43.30688" lon="-0.5352">
        <ele>215.47</ele>
        <time>2017-02-04T09:44:00Z</time>
      </trkpt>
      <trkpt lat="43.3069" lon="-0.53517">
        <ele>215.47</ele>
        <time>2017-02-04T09:44:01Z</time>
      </trkpt>
      <trkpt lat="43.30705" lon="-0.53492">
        <ele>214.51</ele>
        <time>2017-02-04T09:44:09Z</time>
      </trkpt>
      <trkpt lat="43.30707" lon="-0.53489">
        <ele>214.51</ele>
        <time>2017-02-04T09:44:10Z</time>
      </trkpt>
      <trkpt lat="43.30708" lon="-0.53486">
        <ele>214.51</ele>
        <time>2017-02-04T09:44:11Z</time>
      </trkpt>
      <trkpt lat="43.3071" lon="-0.53483">
        <ele>214.03</ele>
        <time>2017-02-04T09:44:12Z</time>
      </trkpt>
      <trkpt lat="43.30712" lon="-0.53481">
        <ele>214.03</ele>
        <time>2017-02-04T09:44:13Z</time>
      </trkpt>
      <trkpt lat="43.30751" lon="-0.53437">
        <ele>211.15</ele>
        <time>2017-02-04T09:44:26Z</time>
      </trkpt>
      <trkpt lat="43.30761" lon="-0.53425">
        <ele>210.67</ele>
        <time>2017-02-04T09:44:29Z</time>
      </trkpt>
      <trkpt lat="43.30765" lon="-0.53422">
        <ele>210.19</ele>
        <time>2017-02-04T09:44:30Z</time>
      </trkpt>
      <trkpt lat="43.30768" lon="-0.53418">
        <ele>209.7</ele>
        <time>2017-02-04T09:44:31Z</time>
      </trkpt>
      <trkpt lat="43.30782" lon="-0.53401">
        <ele>207.3</ele>
        <time>2017-02-04T09:44:35Z</time>
      </trkpt>
      <trkpt lat="43.30784" lon="-0.53397">
        <ele>206.82</ele>
        <time>2017-02-04T09:44:36Z</time>
      </trkpt>
      <trkpt lat="43.30786" lon="-0.53391">
        <ele>206.34</ele>
        <time>2017-02-04T09:44:37Z</time>
      </trkpt>
      <trkpt lat="43.30786" lon="-0.53385">
        <ele>205.86</ele>
        <time>2017-02-04T09:44:38Z</time>
      </trkpt>
      <trkpt lat="43.30787" lon="-0.53378">
        <ele>204.9</ele>
        <time>2017-02-04T09:44:39Z</time>
      </trkpt>
      <trkpt lat="43.30789" lon="-0.53371">
        <ele>204.42</ele>
        <time>2017-02-04T09:44:40Z</time>
      </trkpt>
      <trkpt lat="43.30791" lon="-0.53366">
        <ele>203.94</ele>
        <time>2017-02-04T09:44:41Z</time>
      </trkpt>
      <trkpt lat="43.30795" lon="-0.53361">
        <ele>202.98</ele>
        <time>2017-02-04T09:44:42Z</time>
      </trkpt>
      <trkpt lat="43.30803" lon="-0.5335">
        <ele>201.53</ele>
        <time>2017-02-04T09:44:44Z</time>
      </trkpt>
      <trkpt lat="43.30807" lon="-0.53346">
        <ele>200.57</ele>
        <time>2017-02-04T09:44:45Z</time>
      </trkpt>
      <trkpt lat="43.30811" lon="-0.53341">
        <ele>200.09</ele>
        <time>2017-02-04T09:44:46Z</time>
      </trkpt>
      <trkpt lat="43.30826" lon="-0.53329">
        <ele>197.69</ele>
        <time>2017-02-04T09:44:49Z</time>
      </trkpt>
      <trkpt lat="43.30845" lon="-0.53316">
        <ele>195.77</ele>
        <time>2017-02-04T09:44:52Z</time>
      </trkpt>
      <trkpt lat="43.30872" lon="-0.53293">
        <ele>193.84</ele>
        <time>2017-02-04T09:44:57Z</time>
      </trkpt>
      <trkpt lat="43.30906" lon="-0.53264">
        <ele>191.44</ele>
        <time>2017-02-04T09:45:04Z</time>
      </trkpt>
      <trkpt lat="43.30935" lon="-0.53235">
        <ele>188.08</ele>
        <time>2017-02-04T09:45:13Z</time>
      </trkpt>
      <trkpt lat="43.30962" lon="-0.53218">
        <ele>185.67</ele>
        <time>2017-02-04T09:45:20Z</time>
      </trkpt>
      <trkpt lat="43.30967" lon="-0.53215">
        <ele>185.19</ele>
        <time>2017-02-04T09:45:21Z</time>
      </trkpt>
      <trkpt lat="43.30986" lon="-0.53203">
        <ele>184.23</ele>
        <time>2017-02-04T09:45:25Z</time>
      </trkpt>
      <trkpt lat="43.30991" lon="-0.53199">
        <ele>184.23</ele>
        <time>2017-02-04T09:45:26Z</time>
      </trkpt>
      <trkpt lat="43.30995" lon="-0.53195">
        <ele>183.75</ele>
        <time>2017-02-04T09:45:27Z</time>
      </trkpt>
      <trkpt lat="43.30999" lon="-0.53189">
        <ele>183.75</ele>
        <time>2017-02-04T09:45:28Z</time>
      </trkpt>
      <trkpt lat="43.31003" lon="-0.53183">
        <ele>183.75</ele>
        <time>2017-02-04T09:45:29Z</time>
      </trkpt>
      <trkpt lat="43.31007" lon="-0.53178">
        <ele>183.27</ele>
        <time>2017-02-04T09:45:30Z</time>
      </trkpt>
      <trkpt lat="43.31019" lon="-0.53163">
        <ele>182.31</ele>
        <time>2017-02-04T09:45:33Z</time>
      </trkpt>
      <trkpt lat="43.31024" lon="-0.53159">
        <ele>181.83</ele>
        <time>2017-02-04T09:45:34Z</time>
      </trkpt>
      <trkpt lat="43.3103" lon="-0.53155">
        <ele>181.35</ele>
        <time>2017-02-04T09:45:35Z</time>
      </trkpt>
      <trkpt lat="43.31036" lon="-0.53151">
        <ele>180.87</ele>
        <time>2017-02-04T09:45:36Z</time>
      </trkpt>
      <trkpt lat="43.31042" lon="-0.53148">
        <ele>179.9</ele>
        <time>2017-02-04T09:45:37Z</time>
      </trkpt>
      <trkpt lat="43.31049" lon="-0.53144">
        <ele>179.42</ele>
        <time>2017-02-04T09:45:38Z</time>
      </trkpt>
      <trkpt lat="43.31054" lon="-0.53141">
        <ele>178.94</ele>
        <time>2017-02-04T09:45:39Z</time>
      </trkpt>
      <trkpt lat="43.31118" lon="-0.53095">
        <ele>174.14</ele>
        <time>2017-02-04T09:45:51Z</time>
      </trkpt>
      <trkpt lat="43.31121" lon="-0.53091">
        <ele>173.66</ele>
        <time>2017-02-04T09:45:52Z</time>
      </trkpt>
      <trkpt lat="43.31132" lon="-0.53078">
        <ele>172.21</ele>
        <time>2017-02-04T09:45:55Z</time>
      </trkpt>
      <trkpt lat="43.31136" lon="-0.53073">
        <ele>172.21</ele>
        <time>2017-02-04T09:45:56Z</time>
      </trkpt>
      <trkpt lat="43.31166" lon="-0.53037">
        <ele>169.81</ele>
        <time>2017-02-04T09:46:04Z</time>
      </trkpt>
      <trkpt lat="43.31195" lon="-0.53012">
        <ele>168.85</ele>
        <time>2017-02-04T09:46:13Z</time>
      </trkpt>
      <trkpt lat="43.31241" lon="-0.52957">
        <ele>162.6</ele>
        <time>2017-02-04T09:46:25Z</time>
      </trkpt>
      <trkpt lat="43.31286" lon="-0.52894">
        <ele>155.39</ele>
        <time>2017-02-04T09:46:34Z</time>
      </trkpt>
      <trkpt lat="43.31332" lon="-0.52843">
        <ele>150.58</ele>
        <time>2017-02-04T09:46:44Z</time>
      </trkpt>
      <trkpt lat="43.31335" lon="-0.5284">
        <ele>150.58</ele>
        <time>2017-02-04T09:46:45Z</time>
      </trkpt>
      <trkpt lat="43.31346" lon="-0.52826">
        <ele>150.1</ele>
        <time>2017-02-04T09:46:48Z</time>
      </trkpt>
      <trkpt lat="43.31374" lon="-0.52787">
        <ele>147.22</ele>
        <time>2017-02-04T09:46:54Z</time>
      </trkpt>
      <trkpt lat="43.31378" lon="-0.52781">
        <ele>146.74</ele>
        <time>2017-02-04T09:46:55Z</time>
      </trkpt>
      <trkpt lat="43.31383" lon="-0.52775">
        <ele>145.78</ele>
        <time>2017-02-04T09:46:56Z</time>
      </trkpt>
      <trkpt lat="43.31431" lon="-0.52724">
        <ele>141.45</ele>
        <time>2017-02-04T09:47:04Z</time>
      </trkpt>
      <trkpt lat="43.31501" lon="-0.52642">
        <ele>135.2</ele>
        <time>2017-02-04T09:47:17Z</time>
      </trkpt>
      <trkpt lat="43.31506" lon="-0.52637">
        <ele>134.72</ele>
        <time>2017-02-04T09:47:18Z</time>
      </trkpt>
      <trkpt lat="43.31554" lon="-0.52587">
        <ele>131.36</ele>
        <time>2017-02-04T09:47:28Z</time>
      </trkpt>
      <trkpt lat="43.31563" lon="-0.52578">
        <ele>131.36</ele>
        <time>2017-02-04T09:47:30Z</time>
      </trkpt>
      <trkpt lat="43.31571" lon="-0.52569">
        <ele>131.36</ele>
        <time>2017-02-04T09:47:32Z</time>
      </trkpt>
      <trkpt lat="43.31575" lon="-0.52564">
        <ele>131.84</ele>
        <time>2017-02-04T09:47:33Z</time>
      </trkpt>
      <trkpt lat="43.31578" lon="-0.52559">
        <ele>131.84</ele>
        <time>2017-02-04T09:47:34Z</time>
      </trkpt>
      <trkpt lat="43.31606" lon="-0.52498">
        <ele>131.36</ele>
        <time>2017-02-04T09:47:47Z</time>
      </trkpt>
      <trkpt lat="43.31628" lon="-0.52444">
        <ele>131.84</ele>
        <time>2017-02-04T09:48:00Z</time>
      </trkpt>
      <trkpt lat="43.31655" lon="-0.524">
        <ele>131.36</ele>
        <time>2017-02-04T09:48:13Z</time>
      </trkpt>
      <trkpt lat="43.31686" lon="-0.52429">
        <ele>130.88</ele>
        <time>2017-02-04T09:48:24Z</time>
      </trkpt>
      <trkpt lat="43.31706" lon="-0.52446">
        <ele>130.88</ele>
        <time>2017-02-04T09:48:30Z</time>
      </trkpt>
      <trkpt lat="43.31762" lon="-0.52471">
        <ele>129.92</ele>
        <time>2017-02-04T09:48:44Z</time>
      </trkpt>
      <trkpt lat="43.31767" lon="-0.52471">
        <ele>129.92</ele>
        <time>2017-02-04T09:48:45Z</time>
      </trkpt>
      <trkpt lat="43.31771" lon="-0.52472">
        <ele>129.92</ele>
        <time>2017-02-04T09:48:46Z</time>
      </trkpt>
      <trkpt lat="43.31775" lon="-0.52473">
        <ele>130.4</ele>
        <time>2017-02-04T09:48:47Z</time>
      </trkpt>
      <trkpt lat="43.31778" lon="-0.52474">
        <ele>130.4</ele>
        <time>2017-02-04T09:48:48Z</time>
      </trkpt>
      <trkpt lat="43.31782" lon="-0.52476">
        <ele>130.4</ele>
        <time>2017-02-04T09:48:49Z</time>
      </trkpt>
      <trkpt lat="43.31842" lon="-0.52502">
        <ele>129.92</ele>
        <time>2017-02-04T09:49:04Z</time>
      </trkpt>
      <trkpt lat="43.3187" lon="-0.52515">
        <ele>129.43</ele>
        <time>2017-02-04T09:49:11Z</time>
      </trkpt>
      <trkpt lat="43.31874" lon="-0.52518">
        <ele>129.43</ele>
        <time>2017-02-04T09:49:12Z</time>
      </trkpt>
      <trkpt lat="43.31877" lon="-0.52521">
        <ele>129.43</ele>
        <time>2017-02-04T09:49:13Z</time>
      </trkpt>
      <trkpt lat="43.3188" lon="-0.52524">
        <ele>129.43</ele>
        <time>2017-02-04T09:49:14Z</time>
      </trkpt>
      <trkpt lat="43.31884" lon="-0.52527">
        <ele>129.43</ele>
        <time>2017-02-04T09:49:15Z</time>
      </trkpt>
      <trkpt lat="43.31887" lon="-0.52531">
        <ele>129.43</ele>
        <time>2017-02-04T09:49:16Z</time>
      </trkpt>
      <trkpt lat="43.31891" lon="-0.52534">
        <ele>129.92</ele>
        <time>2017-02-04T09:49:17Z</time>
      </trkpt>
      <trkpt lat="43.31914" lon="-0.52559">
        <ele>131.36</ele>
        <time>2017-02-04T09:49:24Z</time>
      </trkpt>
      <trkpt lat="43.31932" lon="-0.52591">
        <ele>131.36</ele>
        <time>2017-02-04T09:49:31Z</time>
      </trkpt>
      <trkpt lat="43.31933" lon="-0.52596">
        <ele>131.36</ele>
        <time>2017-02-04T09:49:32Z</time>
      </trkpt>
      <trkpt lat="43.31934" lon="-0.52603">
        <ele>131.84</ele>
        <time>2017-02-04T09:49:33Z</time>
      </trkpt>
      <trkpt lat="43.31934" lon="-0.52608">
        <ele>131.84</ele>
        <time>2017-02-04T09:49:34Z</time>
      </trkpt>
      <trkpt lat="43.31934" lon="-0.52614">
        <ele>131.36</ele>
        <time>2017-02-04T09:49:35Z</time>
      </trkpt>
      <trkpt lat="43.31933" lon="-0.5262">
        <ele>131.36</ele>
        <time>2017-02-04T09:49:36Z</time>
      </trkpt>
      <trkpt lat="43.31932" lon="-0.52626">
        <ele>131.36</ele>
        <time>2017-02-04T09:49:37Z</time>
      </trkpt>
      <trkpt lat="43.31931" lon="-0.52631">
        <ele>131.36</ele>
        <time>2017-02-04T09:49:38Z</time>
      </trkpt>
      <trkpt lat="43.31929" lon="-0.52637">
        <ele>131.36</ele>
        <time>2017-02-04T09:49:39Z</time>
      </trkpt>
      <trkpt lat="43.31918" lon="-0.52695">
        <ele>131.36</ele>
        <time>2017-02-04T09:49:51Z</time>
      </trkpt>
      <trkpt lat="43.31934" lon="-0.52771">
        <ele>131.36</ele>
        <time>2017-02-04T09:50:06Z</time>
      </trkpt>
      <trkpt lat="43.31944" lon="-0.52818">
        <ele>132.8</ele>
        <time>2017-02-04T09:50:15Z</time>
      </trkpt>
      <trkpt lat="43.31945" lon="-0.52823">
        <ele>132.8</ele>
        <time>2017-02-04T09:50:16Z</time>
      </trkpt>
      <trkpt lat="43.31948" lon="-0.52835">
        <ele>132.8</ele>
        <time>2017-02-04T09:50:18Z</time>
      </trkpt>
      <trkpt lat="43.31953" lon="-0.52857">
        <ele>132.8</ele>
        <time>2017-02-04T09:50:22Z</time>
      </trkpt>
      <trkpt lat="43.31985" lon="-0.52932">
        <ele>132.8</ele>
        <time>2017-02-04T09:50:38Z</time>
      </trkpt>
      <trkpt lat="43.32024" lon="-0.52998">
        <ele>132.8</ele>
        <time>2017-02-04T09:50:53Z</time>
      </trkpt>
      <trkpt lat="43.3207" lon="-0.53053">
        <ele>134.72</ele>
        <time>2017-02-04T09:51:09Z</time>
      </trkpt>
      <trkpt lat="43.32098" lon="-0.53114">
        <ele>135.68</ele>
        <time>2017-02-04T09:51:24Z</time>
      </trkpt>
      <trkpt lat="43.32121" lon="-0.53199">
        <ele>136.16</ele>
        <time>2017-02-04T09:51:43Z</time>
      </trkpt>
      <trkpt lat="43.32137" lon="-0.53256">
        <ele>139.05</ele>
        <time>2017-02-04T09:51:57Z</time>
      </trkpt>
      <trkpt lat="43.32158" lon="-0.53287">
        <ele>140.97</ele>
        <time>2017-02-04T09:52:10Z</time>
      </trkpt>
      <trkpt lat="43.32185" lon="-0.53346">
        <ele>142.41</ele>
        <time>2017-02-04T09:52:29Z</time>
      </trkpt>
      <trkpt lat="43.3221" lon="-0.53419">
        <ele>141.93</ele>
        <time>2017-02-04T09:52:44Z</time>
      </trkpt>
      <trkpt lat="43.32214" lon="-0.53433">
        <ele>141.93</ele>
        <time>2017-02-04T09:52:46Z</time>
      </trkpt>
      <trkpt lat="43.32247" lon="-0.53508">
        <ele>142.41</ele>
        <time>2017-02-04T09:53:00Z</time>
      </trkpt>
      <trkpt lat="43.32282" lon="-0.53592">
        <ele>140.01</ele>
        <time>2017-02-04T09:53:14Z</time>
      </trkpt>
      <trkpt lat="43.3232" lon="-0.53686">
        <ele>135.2</ele>
        <time>2017-02-04T09:53:26Z</time>
      </trkpt>
      <trkpt lat="43.32323" lon="-0.53694">
        <ele>135.2</ele>
        <time>2017-02-04T09:53:27Z</time>
      </trkpt>
      <trkpt lat="43.32327" lon="-0.53701">
        <ele>135.2</ele>
        <time>2017-02-04T09:53:28Z</time>
      </trkpt>
      <trkpt lat="43.32331" lon="-0.53707">
        <ele>135.2</ele>
        <time>2017-02-04T09:53:29Z</time>
      </trkpt>
      <trkpt lat="43.32335" lon="-0.53713">
        <ele>135.2</ele>
        <time>2017-02-04T09:53:30Z</time>
      </trkpt>
      <trkpt lat="43.32366" lon="-0.53749">
        <ele>135.68</ele>
        <time>2017-02-04T09:53:38Z</time>
      </trkpt>
      <trkpt lat="43.32417" lon="-0.53825">
        <ele>136.16</ele>
        <time>2017-02-04T09:53:54Z</time>
      </trkpt>
      <trkpt lat="43.32458" lon="-0.53908">
        <ele>139.05</ele>
        <time>2017-02-04T09:54:10Z</time>
      </trkpt>
      <trkpt lat="43.3249" lon="-0.53969">
        <ele>141.45</ele>
        <time>2017-02-04T09:54:24Z</time>
      </trkpt>
      <trkpt lat="43.32517" lon="-0.53987">
        <ele>142.89</ele>
        <time>2017-02-04T09:54:36Z</time>
      </trkpt>
      <trkpt lat="43.32558" lon="-0.53926">
        <ele>134.24</ele>
        <time>2017-02-04T09:54:44Z</time>
      </trkpt>
      <trkpt lat="43.32633" lon="-0.53807">
        <ele>127.51</ele>
        <time>2017-02-04T09:54:56Z</time>
      </trkpt>
      <trkpt lat="43.32656" lon="-0.53762">
        <ele>126.07</ele>
        <time>2017-02-04T09:55:01Z</time>
      </trkpt>
      <trkpt lat="43.32661" lon="-0.53757">
        <ele>126.07</ele>
        <time>2017-02-04T09:55:02Z</time>
      </trkpt>
      <trkpt lat="43.32665" lon="-0.53754">
        <ele>125.59</ele>
        <time>2017-02-04T09:55:03Z</time>
      </trkpt>
      <trkpt lat="43.3267" lon="-0.53753">
        <ele>125.59</ele>
        <time>2017-02-04T09:55:04Z</time>
      </trkpt>
      <trkpt lat="43.32674" lon="-0.53754">
        <ele>125.11</ele>
        <time>2017-02-04T09:55:05Z</time>
      </trkpt>
      <trkpt lat="43.32677" lon="-0.53754">
        <ele>125.11</ele>
        <time>2017-02-04T09:55:06Z</time>
      </trkpt>
      <trkpt lat="43.32679" lon="-0.53756">
        <ele>125.11</ele>
        <time>2017-02-04T09:55:07Z</time>
      </trkpt>
      <trkpt lat="43.32681" lon="-0.53759">
        <ele>124.63</ele>
        <time>2017-02-04T09:55:08Z</time>
      </trkpt>
      <trkpt lat="43.32683" lon="-0.53762">
        <ele>124.63</ele>
        <time>2017-02-04T09:55:09Z</time>
      </trkpt>
      <trkpt lat="43.32686" lon="-0.53765">
        <ele>124.63</ele>
        <time>2017-02-04T09:55:10Z</time>
      </trkpt>
      <trkpt lat="43.32689" lon="-0.53768">
        <ele>124.15</ele>
        <time>2017-02-04T09:55:11Z</time>
      </trkpt>
      <trkpt lat="43.32692" lon="-0.53772">
        <ele>124.15</ele>
        <time>2017-02-04T09:55:12Z</time>
      </trkpt>
      <trkpt lat="43.32695" lon="-0.53774">
        <ele>124.15</ele>
        <time>2017-02-04T09:55:13Z</time>
      </trkpt>
      <trkpt lat="43.32749" lon="-0.53821">
        <ele>122.22</ele>
        <time>2017-02-04T09:55:29Z</time>
      </trkpt>
      <trkpt lat="43.32811" lon="-0.53868">
        <ele>124.63</ele>
        <time>2017-02-04T09:55:46Z</time>
      </trkpt>
      <trkpt lat="43.32815" lon="-0.53871">
        <ele>124.63</ele>
        <time>2017-02-04T09:55:47Z</time>
      </trkpt>
      <trkpt lat="43.32819" lon="-0.53873">
        <ele>124.63</ele>
        <time>2017-02-04T09:55:48Z</time>
      </trkpt>
      <trkpt lat="43.32823" lon="-0.53877">
        <ele>124.63</ele>
        <time>2017-02-04T09:55:49Z</time>
      </trkpt>
      <trkpt lat="43.32843" lon="-0.539">
        <ele>126.07</ele>
        <time>2017-02-04T09:55:56Z</time>
      </trkpt>
      <trkpt lat="43.32846" lon="-0.53902">
        <ele>126.07</ele>
        <time>2017-02-04T09:55:57Z</time>
      </trkpt>
      <trkpt lat="43.32849" lon="-0.53904">
        <ele>126.55</ele>
        <time>2017-02-04T09:55:58Z</time>
      </trkpt>
      <trkpt lat="43.32852" lon="-0.53907">
        <ele>126.55</ele>
        <time>2017-02-04T09:55:59Z</time>
      </trkpt>
      <trkpt lat="43.32856" lon="-0.5391">
        <ele>126.55</ele>
        <time>2017-02-04T09:56:00Z</time>
      </trkpt>
      <trkpt lat="43.32885" lon="-0.53933">
        <ele>127.51</ele>
        <time>2017-02-04T09:56:09Z</time>
      </trkpt>
      <trkpt lat="43.32889" lon="-0.53931">
        <ele>127.99</ele>
        <time>2017-02-04T09:56:10Z</time>
      </trkpt>
      <trkpt lat="43.32892" lon="-0.53927">
        <ele>127.99</ele>
        <time>2017-02-04T09:56:11Z</time>
      </trkpt>
      <trkpt lat="43.32894" lon="-0.53923">
        <ele>128.47</ele>
        <time>2017-02-04T09:56:12Z</time>
      </trkpt>
      <trkpt lat="43.32896" lon="-0.53918">
        <ele>128.47</ele>
        <time>2017-02-04T09:56:13Z</time>
      </trkpt>
      <trkpt lat="43.32927" lon="-0.53836">
        <ele>127.99</ele>
        <time>2017-02-04T09:56:28Z</time>
      </trkpt>
      <trkpt lat="43.32939" lon="-0.53809">
        <ele>127.99</ele>
        <time>2017-02-04T09:56:33Z</time>
      </trkpt>
      <trkpt lat="43.32948" lon="-0.53795">
        <ele>127.99</ele>
        <time>2017-02-04T09:56:36Z</time>
      </trkpt>
      <trkpt lat="43.32969" lon="-0.53773">
        <ele>127.51</ele>
        <time>2017-02-04T09:56:42Z</time>
      </trkpt>
      <trkpt lat="43.33045" lon="-0.53722">
        <ele>127.51</ele>
        <time>2017-02-04T09:56:59Z</time>
      </trkpt>
      <trkpt lat="43.33117" lon="-0.53673">
        <ele>127.03</ele>
        <time>2017-02-04T09:57:15Z</time>
      </trkpt>
      <trkpt lat="43.33153" lon="-0.53632">
        <ele>127.51</ele>
        <time>2017-02-04T09:57:25Z</time>
      </trkpt>
      <trkpt lat="43.33156" lon="-0.53627">
        <ele>127.51</ele>
        <time>2017-02-04T09:57:26Z</time>
      </trkpt>
      <trkpt lat="43.33213" lon="-0.53551">
        <ele>126.07</ele>
        <time>2017-02-04T09:57:43Z</time>
      </trkpt>
      <trkpt lat="43.33268" lon="-0.53481">
        <ele>125.11</ele>
        <time>2017-02-04T09:57:59Z</time>
      </trkpt>
      <trkpt lat="43.33325" lon="-0.53406">
        <ele>126.07</ele>
        <time>2017-02-04T09:58:16Z</time>
      </trkpt>
      <trkpt lat="43.33383" lon="-0.53329">
        <ele>127.51</ele>
        <time>2017-02-04T09:58:35Z</time>
      </trkpt>
      <trkpt lat="43.33422" lon="-0.53279">
        <ele>128.95</ele>
        <time>2017-02-04T09:58:50Z</time>
      </trkpt>
      <trkpt lat="43.3345" lon="-0.53244">
        <ele>130.4</ele>
        <time>2017-02-04T09:59:04Z</time>
      </trkpt>
      <trkpt lat="43.33458" lon="-0.53241">
        <ele>130.4</ele>
        <time>2017-02-04T09:59:07Z</time>
      </trkpt>
      <trkpt lat="43.33459" lon="-0.53242">
        <ele>130.4</ele>
        <time>2017-02-04T09:59:08Z</time>
      </trkpt>
      <trkpt lat="43.33461" lon="-0.53243">
        <ele>130.4</ele>
        <time>2017-02-04T09:59:09Z</time>
      </trkpt>
      <trkpt lat="43.33462" lon="-0.53246">
        <ele>130.4</ele>
        <time>2017-02-04T09:59:10Z</time>
      </trkpt>
      <trkpt lat="43.33463" lon="-0.53248">
        <ele>129.92</ele>
        <time>2017-02-04T09:59:11Z</time>
      </trkpt>
      <trkpt lat="43.33463" lon="-0.5325">
        <ele>130.4</ele>
        <time>2017-02-04T09:59:12Z</time>
      </trkpt>
      <trkpt lat="43.33467" lon="-0.53249">
        <ele>132.32</ele>
        <time>2017-02-04T09:59:19Z</time>
      </trkpt>
      <trkpt lat="43.33469" lon="-0.53248">
        <ele>132.32</ele>
        <time>2017-02-04T09:59:20Z</time>
      </trkpt>
      <trkpt lat="43.3348" lon="-0.5324">
        <ele>134.72</ele>
        <time>2017-02-04T09:59:27Z</time>
      </trkpt>
      <trkpt lat="43.33481" lon="-0.53238">
        <ele>134.72</ele>
        <time>2017-02-04T09:59:28Z</time>
      </trkpt>
      <trkpt lat="43.33483" lon="-0.53237">
        <ele>135.2</ele>
        <time>2017-02-04T09:59:29Z</time>
      </trkpt>
      <trkpt lat="43.33484" lon="-0.53236">
        <ele>135.2</ele>
        <time>2017-02-04T09:59:30Z</time>
      </trkpt>
      <trkpt lat="43.33485" lon="-0.53235">
        <ele>135.2</ele>
        <time>2017-02-04T09:59:31Z</time>
      </trkpt>
      <trkpt lat="43.33487" lon="-0.53234">
        <ele>135.68</ele>
        <time>2017-02-04T09:59:32Z</time>
      </trkpt>
      <trkpt lat="43.33506" lon="-0.5323">
        <ele>136.64</ele>
        <time>2017-02-04T09:59:46Z</time>
      </trkpt>
      <trkpt lat="43.33531" lon="-0.53234">
        <ele>138.09</ele>
        <time>2017-02-04T10:00:04Z</time>
      </trkpt>
      <trkpt lat="43.33552" lon="-0.53235">
        <ele>139.05</ele>
        <time>2017-02-04T10:00:19Z</time>
      </trkpt>
      <trkpt lat="43.33566" lon="-0.53238">
        <ele>140.97</ele>
        <time>2017-02-04T10:00:28Z</time>
      </trkpt>
      <trkpt lat="43.33572" lon="-0.53239">
        <ele>142.89</ele>
        <time>2017-02-04T10:00:33Z</time>
      </trkpt>
      <trkpt lat="43.33573" lon="-0.5324">
        <ele>143.37</ele>
        <time>2017-02-04T10:00:34Z</time>
      </trkpt>
      <trkpt lat="43.33575" lon="-0.5324">
        <ele>143.85</ele>
        <time>2017-02-04T10:00:35Z</time>
      </trkpt>
      <trkpt lat="43.33576" lon="-0.53241">
        <ele>143.85</ele>
        <time>2017-02-04T10:00:36Z</time>
      </trkpt>
      <trkpt lat="43.33578" lon="-0.53241">
        <ele>144.34</ele>
        <time>2017-02-04T10:00:37Z</time>
      </trkpt>
      <trkpt lat="43.3358" lon="-0.53241">
        <ele>144.82</ele>
        <time>2017-02-04T10:00:38Z</time>
      </trkpt>
      <trkpt lat="43.33595" lon="-0.53242">
        <ele>148.18</ele>
        <time>2017-02-04T10:00:50Z</time>
      </trkpt>
      <trkpt lat="43.33597" lon="-0.53242">
        <ele>148.18</ele>
        <time>2017-02-04T10:00:51Z</time>
      </trkpt>
      <trkpt lat="43.33598" lon="-0.53242">
        <ele>148.18</ele>
        <time>2017-02-04T10:00:52Z</time>
      </trkpt>
      <trkpt lat="43.33599" lon="-0.53242">
        <ele>148.18</ele>
        <time>2017-02-04T10:00:53Z</time>
      </trkpt>
      <trkpt lat="43.33601" lon="-0.53243">
        <ele>148.66</ele>
        <time>2017-02-04T10:00:55Z</time>
      </trkpt>
      <trkpt lat="43.33611" lon="-0.53244">
        <ele>149.14</ele>
        <time>2017-02-04T10:01:04Z</time>
      </trkpt>
      <trkpt lat="43.33629" lon="-0.5325">
        <ele>152.99</ele>
        <time>2017-02-04T10:01:19Z</time>
      </trkpt>
      <trkpt lat="43.33637" lon="-0.53253">
        <ele>154.43</ele>
        <time>2017-02-04T10:01:26Z</time>
      </trkpt>
      <trkpt lat="43.33639" lon="-0.53255">
        <ele>154.43</ele>
        <time>2017-02-04T10:01:28Z</time>
      </trkpt>
      <trkpt lat="43.33641" lon="-0.53256">
        <ele>154.91</ele>
        <time>2017-02-04T10:01:29Z</time>
      </trkpt>
      <trkpt lat="43.33642" lon="-0.53256">
        <ele>154.91</ele>
        <time>2017-02-04T10:01:30Z</time>
      </trkpt>
      <trkpt lat="43.33666" lon="-0.53273">
        <ele>155.87</ele>
        <time>2017-02-04T10:01:47Z</time>
      </trkpt>
      <trkpt lat="43.33691" lon="-0.533">
        <ele>156.83</ele>
        <time>2017-02-04T10:02:07Z</time>
      </trkpt>
      <trkpt lat="43.33715" lon="-0.53312">
        <ele>156.35</ele>
        <time>2017-02-04T10:02:24Z</time>
      </trkpt>
      <trkpt lat="43.33718" lon="-0.53312">
        <ele>156.83</ele>
        <time>2017-02-04T10:02:26Z</time>
      </trkpt>
      <trkpt lat="43.33719" lon="-0.53311">
        <ele>156.83</ele>
        <time>2017-02-04T10:02:27Z</time>
      </trkpt>
      <trkpt lat="43.33743" lon="-0.53304">
        <ele>163.08</ele>
        <time>2017-02-04T10:02:45Z</time>
      </trkpt>
      <trkpt lat="43.33755" lon="-0.53305">
        <ele>161.64</ele>
        <time>2017-02-04T10:02:54Z</time>
      </trkpt>
      <trkpt lat="43.33762" lon="-0.53304">
        <ele>161.16</ele>
        <time>2017-02-04T10:02:59Z</time>
      </trkpt>
      <trkpt lat="43.33782" lon="-0.5331">
        <ele>164.52</ele>
        <time>2017-02-04T10:03:13Z</time>
      </trkpt>
      <trkpt lat="43.33789" lon="-0.53309">
        <ele>166.45</ele>
        <time>2017-02-04T10:03:19Z</time>
      </trkpt>
      <trkpt lat="43.33791" lon="-0.53309">
        <ele>166.45</ele>
        <time>2017-02-04T10:03:20Z</time>
      </trkpt>
      <trkpt lat="43.33808" lon="-0.53307">
        <ele>167.89</ele>
        <time>2017-02-04T10:03:33Z</time>
      </trkpt>
      <trkpt lat="43.33826" lon="-0.53307">
        <ele>173.66</ele>
        <time>2017-02-04T10:03:47Z</time>
      </trkpt>
      <trkpt lat="43.33838" lon="-0.53307">
        <ele>176.54</ele>
        <time>2017-02-04T10:03:57Z</time>
      </trkpt>
      <trkpt lat="43.33856" lon="-0.53306">
        <ele>177.98</ele>
        <time>2017-02-04T10:04:11Z</time>
      </trkpt>
      <trkpt lat="43.3387" lon="-0.53308">
        <ele>177.98</ele>
        <time>2017-02-04T10:04:21Z</time>
      </trkpt>
      <trkpt lat="43.33872" lon="-0.53308">
        <ele>177.98</ele>
        <time>2017-02-04T10:04:22Z</time>
      </trkpt>
      <trkpt lat="43.33892" lon="-0.53309">
        <ele>177.5</ele>
        <time>2017-02-04T10:04:36Z</time>
      </trkpt>
      <trkpt lat="43.33913" lon="-0.53317">
        <ele>176.54</ele>
        <time>2017-02-04T10:04:52Z</time>
      </trkpt>
      <trkpt lat="43.3393" lon="-0.53321">
        <ele>177.98</ele>
        <time>2017-02-04T10:05:04Z</time>
      </trkpt>
      <trkpt lat="43.3395" lon="-0.53315">
        <ele>176.06</ele>
        <time>2017-02-04T10:05:16Z</time>
      </trkpt>
      <trkpt lat="43.33968" lon="-0.53308">
        <ele>176.06</ele>
        <time>2017-02-04T10:05:29Z</time>
      </trkpt>
      <trkpt lat="43.33971" lon="-0.53309">
        <ele>176.54</ele>
        <time>2017-02-04T10:05:31Z</time>
      </trkpt>
      <trkpt lat="43.33973" lon="-0.53309">
        <ele>177.02</ele>
        <time>2017-02-04T10:05:32Z</time>
      </trkpt>
      <trkpt lat="43.33974" lon="-0.53309">
        <ele>177.98</ele>
        <time>2017-02-04T10:05:33Z</time>
      </trkpt>
      <trkpt lat="43.34001" lon="-0.53316">
        <ele>183.75</ele>
        <time>2017-02-04T10:05:50Z</time>
      </trkpt>
      <trkpt lat="43.34027" lon="-0.53315">
        <ele>189.52</ele>
        <time>2017-02-04T10:06:06Z</time>
      </trkpt>
      <trkpt lat="43.34054" lon="-0.53301">
        <ele>196.25</ele>
        <time>2017-02-04T10:06:25Z</time>
      </trkpt>
      <trkpt lat="43.34071" lon="-0.53283">
        <ele>202.01</ele>
        <time>2017-02-04T10:06:40Z</time>
      </trkpt>
      <trkpt lat="43.34087" lon="-0.53272">
        <ele>205.38</ele>
        <time>2017-02-04T10:06:54Z</time>
      </trkpt>
      <trkpt lat="43.34101" lon="-0.5326">
        <ele>210.19</ele>
        <time>2017-02-04T10:07:07Z</time>
      </trkpt>
      <trkpt lat="43.34115" lon="-0.53247">
        <ele>213.07</ele>
        <time>2017-02-04T10:07:20Z</time>
      </trkpt>
      <trkpt lat="43.34121" lon="-0.53241">
        <ele>213.55</ele>
        <time>2017-02-04T10:07:24Z</time>
      </trkpt>
      <trkpt lat="43.34122" lon="-0.53239">
        <ele>213.07</ele>
        <time>2017-02-04T10:07:25Z</time>
      </trkpt>
      <trkpt lat="43.34123" lon="-0.53238">
        <ele>213.55</ele>
        <time>2017-02-04T10:07:26Z</time>
      </trkpt>
      <trkpt lat="43.34124" lon="-0.53236">
        <ele>213.55</ele>
        <time>2017-02-04T10:07:27Z</time>
      </trkpt>
      <trkpt lat="43.34124" lon="-0.53235">
        <ele>213.55</ele>
        <time>2017-02-04T10:07:28Z</time>
      </trkpt>
      <trkpt lat="43.34127" lon="-0.53229">
        <ele>214.51</ele>
        <time>2017-02-04T10:07:32Z</time>
      </trkpt>
      <trkpt lat="43.34135" lon="-0.53213">
        <ele>213.07</ele>
        <time>2017-02-04T10:07:42Z</time>
      </trkpt>
      <trkpt lat="43.34136" lon="-0.53211">
        <ele>213.07</ele>
        <time>2017-02-04T10:07:43Z</time>
      </trkpt>
      <trkpt lat="43.34136" lon="-0.5321">
        <ele>213.55</ele>
        <time>2017-02-04T10:07:44Z</time>
      </trkpt>
      <trkpt lat="43.34137" lon="-0.53209">
        <ele>213.55</ele>
        <time>2017-02-04T10:07:45Z</time>
      </trkpt>
      <trkpt lat="43.34138" lon="-0.53207">
        <ele>213.55</ele>
        <time>2017-02-04T10:07:46Z</time>
      </trkpt>
      <trkpt lat="43.34139" lon="-0.53206">
        <ele>213.55</ele>
        <time>2017-02-04T10:07:47Z</time>
      </trkpt>
      <trkpt lat="43.34139" lon="-0.53204">
        <ele>213.55</ele>
        <time>2017-02-04T10:07:48Z</time>
      </trkpt>
      <trkpt lat="43.3414" lon="-0.53202">
        <ele>214.03</ele>
        <time>2017-02-04T10:07:49Z</time>
      </trkpt>
      <trkpt lat="43.34142" lon="-0.53187">
        <ele>216.43</ele>
        <time>2017-02-04T10:07:59Z</time>
      </trkpt>
      <trkpt lat="43.34141" lon="-0.53185">
        <ele>216.43</ele>
        <time>2017-02-04T10:08:00Z</time>
      </trkpt>
      <trkpt lat="43.3414" lon="-0.53184">
        <ele>215.95</ele>
        <time>2017-02-04T10:08:01Z</time>
      </trkpt>
      <trkpt lat="43.34138" lon="-0.53182">
        <ele>215.95</ele>
        <time>2017-02-04T10:08:02Z</time>
      </trkpt>
      <trkpt lat="43.34137" lon="-0.5318">
        <ele>215.95</ele>
        <time>2017-02-04T10:08:03Z</time>
      </trkpt>
      <trkpt lat="43.34111" lon="-0.53175">
        <ele>212.11</ele>
        <time>2017-02-04T10:08:17Z</time>
      </trkpt>
      <trkpt lat="43.34077" lon="-0.53178">
        <ele>208.26</ele>
        <time>2017-02-04T10:08:29Z</time>
      </trkpt>
      <trkpt lat="43.34047" lon="-0.53179">
        <ele>207.78</ele>
        <time>2017-02-04T10:08:36Z</time>
      </trkpt>
      <trkpt lat="43.34013" lon="-0.53174">
        <ele>205.86</ele>
        <time>2017-02-04T10:08:43Z</time>
      </trkpt>
      <trkpt lat="43.33994" lon="-0.53167">
        <ele>203.94</ele>
        <time>2017-02-04T10:08:50Z</time>
      </trkpt>
      <trkpt lat="43.33993" lon="-0.53168">
        <ele>203.46</ele>
        <time>2017-02-04T10:08:51Z</time>
      </trkpt>
      <trkpt lat="43.33993" lon="-0.53174">
        <ele>202.98</ele>
        <time>2017-02-04T10:08:53Z</time>
      </trkpt>
      <trkpt lat="43.33979" lon="-0.53204">
        <ele>199.61</ele>
        <time>2017-02-04T10:09:03Z</time>
      </trkpt>
      <trkpt lat="43.33969" lon="-0.53213">
        <ele>197.69</ele>
        <time>2017-02-04T10:09:06Z</time>
      </trkpt>
      <trkpt lat="43.33943" lon="-0.53217">
        <ele>194.32</ele>
        <time>2017-02-04T10:09:13Z</time>
      </trkpt>
      <trkpt lat="43.3394" lon="-0.53216">
        <ele>193.36</ele>
        <time>2017-02-04T10:09:15Z</time>
      </trkpt>
      <trkpt lat="43.33929" lon="-0.53216">
        <ele>190.48</ele>
        <time>2017-02-04T10:09:20Z</time>
      </trkpt>
      <trkpt lat="43.33914" lon="-0.532">
        <ele>188.56</ele>
        <time>2017-02-04T10:09:28Z</time>
      </trkpt>
      <trkpt lat="43.33908" lon="-0.53191">
        <ele>188.56</ele>
        <time>2017-02-04T10:09:32Z</time>
      </trkpt>
      <trkpt lat="43.33887" lon="-0.53202">
        <ele>185.19</ele>
        <time>2017-02-04T10:09:40Z</time>
      </trkpt>
      <trkpt lat="43.33868" lon="-0.53193">
        <ele>183.27</ele>
        <time>2017-02-04T10:09:46Z</time>
      </trkpt>
      <trkpt lat="43.33854" lon="-0.53189">
        <ele>182.31</ele>
        <time>2017-02-04T10:09:51Z</time>
      </trkpt>
      <trkpt lat="43.33846" lon="-0.53177">
        <ele>182.31</ele>
        <time>2017-02-04T10:09:57Z</time>
      </trkpt>
      <trkpt lat="43.33826" lon="-0.53169">
        <ele>180.38</ele>
        <time>2017-02-04T10:10:05Z</time>
      </trkpt>
      <trkpt lat="43.3381" lon="-0.53157">
        <ele>177.98</ele>
        <time>2017-02-04T10:10:14Z</time>
      </trkpt>
      <trkpt lat="43.33781" lon="-0.53149">
        <ele>173.66</ele>
        <time>2017-02-04T10:10:23Z</time>
      </trkpt>
      <trkpt lat="43.33749" lon="-0.53166">
        <ele>170.77</ele>
        <time>2017-02-04T10:10:32Z</time>
      </trkpt>
      <trkpt lat="43.33742" lon="-0.53165">
        <ele>170.29</ele>
        <time>2017-02-04T10:10:34Z</time>
      </trkpt>
      <trkpt lat="43.33719" lon="-0.53143">
        <ele>166.45</ele>
        <time>2017-02-04T10:10:41Z</time>
      </trkpt>
      <trkpt lat="43.33701" lon="-0.53132">
        <ele>163.56</ele>
        <time>2017-02-04T10:10:45Z</time>
      </trkpt>
      <trkpt lat="43.33684" lon="-0.53124">
        <ele>162.6</ele>
        <time>2017-02-04T10:10:49Z</time>
      </trkpt>
      <trkpt lat="43.33664" lon="-0.53141">
        <ele>157.79</ele>
        <time>2017-02-04T10:10:54Z</time>
      </trkpt>
      <trkpt lat="43.33621" lon="-0.5316">
        <ele>148.66</ele>
        <time>2017-02-04T10:11:03Z</time>
      </trkpt>
      <trkpt lat="43.33607" lon="-0.53178">
        <ele>142.89</ele>
        <time>2017-02-04T10:11:09Z</time>
      </trkpt>
      <trkpt lat="43.33598" lon="-0.53178">
        <ele>141.93</ele>
        <time>2017-02-04T10:11:11Z</time>
      </trkpt>
      <trkpt lat="43.33563" lon="-0.53171">
        <ele>138.57</ele>
        <time>2017-02-04T10:11:18Z</time>
      </trkpt>
      <trkpt lat="43.33546" lon="-0.53187">
        <ele>137.61</ele>
        <time>2017-02-04T10:11:23Z</time>
      </trkpt>
      <trkpt lat="43.33525" lon="-0.53204">
        <ele>135.68</ele>
        <time>2017-02-04T10:11:28Z</time>
      </trkpt>
      <trkpt lat="43.33511" lon="-0.53208">
        <ele>134.24</ele>
        <time>2017-02-04T10:11:31Z</time>
      </trkpt>
      <trkpt lat="43.33507" lon="-0.53211">
        <ele>134.24</ele>
        <time>2017-02-04T10:11:32Z</time>
      </trkpt>
      <trkpt lat="43.33502" lon="-0.53213">
        <ele>133.76</ele>
        <time>2017-02-04T10:11:33Z</time>
      </trkpt>
      <trkpt lat="43.33495" lon="-0.53219">
        <ele>133.76</ele>
        <time>2017-02-04T10:11:35Z</time>
      </trkpt>
      <trkpt lat="43.33491" lon="-0.53228">
        <ele>132.8</ele>
        <time>2017-02-04T10:11:37Z</time>
      </trkpt>
      <trkpt lat="43.33489" lon="-0.53231">
        <ele>132.32</ele>
        <time>2017-02-04T10:11:38Z</time>
      </trkpt>
      <trkpt lat="43.33486" lon="-0.53234">
        <ele>131.84</ele>
        <time>2017-02-04T10:11:39Z</time>
      </trkpt>
      <trkpt lat="43.33483" lon="-0.53237">
        <ele>131.36</ele>
        <time>2017-02-04T10:11:40Z</time>
      </trkpt>
      <trkpt lat="43.3348" lon="-0.53241">
        <ele>131.36</ele>
        <time>2017-02-04T10:11:41Z</time>
      </trkpt>
      <trkpt lat="43.33476" lon="-0.53244">
        <ele>131.36</ele>
        <time>2017-02-04T10:11:42Z</time>
      </trkpt>
      <trkpt lat="43.33472" lon="-0.53245">
        <ele>131.36</ele>
        <time>2017-02-04T10:11:43Z</time>
      </trkpt>
      <trkpt lat="43.33469" lon="-0.53243">
        <ele>130.88</ele>
        <time>2017-02-04T10:11:44Z</time>
      </trkpt>
      <trkpt lat="43.33466" lon="-0.53241">
        <ele>130.88</ele>
        <time>2017-02-04T10:11:45Z</time>
      </trkpt>
      <trkpt lat="43.33464" lon="-0.5324">
        <ele>130.4</ele>
        <time>2017-02-04T10:11:46Z</time>
      </trkpt>
      <trkpt lat="43.33462" lon="-0.53235">
        <ele>130.4</ele>
        <time>2017-02-04T10:11:48Z</time>
      </trkpt>
      <trkpt lat="43.33463" lon="-0.53232">
        <ele>130.4</ele>
        <time>2017-02-04T10:11:49Z</time>
      </trkpt>
      <trkpt lat="43.33464" lon="-0.5323">
        <ele>130.88</ele>
        <time>2017-02-04T10:11:50Z</time>
      </trkpt>
      <trkpt lat="43.33465" lon="-0.53228">
        <ele>130.88</ele>
        <time>2017-02-04T10:11:51Z</time>
      </trkpt>
      <trkpt lat="43.33467" lon="-0.53226">
        <ele>131.36</ele>
        <time>2017-02-04T10:11:52Z</time>
      </trkpt>
      <trkpt lat="43.33469" lon="-0.53223">
        <ele>131.36</ele>
        <time>2017-02-04T10:11:53Z</time>
      </trkpt>
      <trkpt lat="43.33497" lon="-0.53184">
        <ele>134.72</ele>
        <time>2017-02-04T10:12:07Z</time>
      </trkpt>
      <trkpt lat="43.33544" lon="-0.53122">
        <ele>137.13</ele>
        <time>2017-02-04T10:12:25Z</time>
      </trkpt>
      <trkpt lat="43.33584" lon="-0.5307">
        <ele>139.53</ele>
        <time>2017-02-04T10:12:40Z</time>
      </trkpt>
      <trkpt lat="43.33619" lon="-0.53021">
        <ele>142.41</ele>
        <time>2017-02-04T10:12:55Z</time>
      </trkpt>
      <trkpt lat="43.33643" lon="-0.52973">
        <ele>142.41</ele>
        <time>2017-02-04T10:13:10Z</time>
      </trkpt>
      <trkpt lat="43.33665" lon="-0.52948">
        <ele>146.74</ele>
        <time>2017-02-04T10:13:28Z</time>
      </trkpt>
      <trkpt lat="43.33684" lon="-0.52926">
        <ele>151.06</ele>
        <time>2017-02-04T10:13:44Z</time>
      </trkpt>
      <trkpt lat="43.33685" lon="-0.52925">
        <ele>151.06</ele>
        <time>2017-02-04T10:13:45Z</time>
      </trkpt>
      <trkpt lat="43.33687" lon="-0.52923">
        <ele>151.54</ele>
        <time>2017-02-04T10:13:46Z</time>
      </trkpt>
      <trkpt lat="43.33706" lon="-0.52902">
        <ele>157.31</ele>
        <time>2017-02-04T10:14:04Z</time>
      </trkpt>
      <trkpt lat="43.3372" lon="-0.52882">
        <ele>163.56</ele>
        <time>2017-02-04T10:14:20Z</time>
      </trkpt>
      <trkpt lat="43.33735" lon="-0.52865">
        <ele>167.41</ele>
        <time>2017-02-04T10:14:36Z</time>
      </trkpt>
      <trkpt lat="43.33751" lon="-0.52847">
        <ele>169.33</ele>
        <time>2017-02-04T10:14:53Z</time>
      </trkpt>
      <trkpt lat="43.33768" lon="-0.52828">
        <ele>168.85</ele>
        <time>2017-02-04T10:15:09Z</time>
      </trkpt>
      <trkpt lat="43.33789" lon="-0.52814">
        <ele>174.62</ele>
        <time>2017-02-04T10:15:28Z</time>
      </trkpt>
      <trkpt lat="43.338" lon="-0.52813">
        <ele>176.54</ele>
        <time>2017-02-04T10:15:37Z</time>
      </trkpt>
      <trkpt lat="43.33801" lon="-0.52813">
        <ele>177.02</ele>
        <time>2017-02-04T10:15:38Z</time>
      </trkpt>
      <trkpt lat="43.33802" lon="-0.52814">
        <ele>177.02</ele>
        <time>2017-02-04T10:15:39Z</time>
      </trkpt>
      <trkpt lat="43.33819" lon="-0.52821">
        <ele>176.06</ele>
        <time>2017-02-04T10:15:56Z</time>
      </trkpt>
      <trkpt lat="43.33837" lon="-0.52828">
        <ele>177.5</ele>
        <time>2017-02-04T10:16:12Z</time>
      </trkpt>
      <trkpt lat="43.33841" lon="-0.52827">
        <ele>178.46</ele>
        <time>2017-02-04T10:16:16Z</time>
      </trkpt>
      <trkpt lat="43.3386" lon="-0.5281">
        <ele>184.23</ele>
        <time>2017-02-04T10:16:35Z</time>
      </trkpt>
      <trkpt lat="43.33882" lon="-0.52791">
        <ele>185.19</ele>
        <time>2017-02-04T10:16:53Z</time>
      </trkpt>
      <trkpt lat="43.33902" lon="-0.52773">
        <ele>188.08</ele>
        <time>2017-02-04T10:17:10Z</time>
      </trkpt>
      <trkpt lat="43.33916" lon="-0.52761">
        <ele>191.92</ele>
        <time>2017-02-04T10:17:25Z</time>
      </trkpt>
      <trkpt lat="43.33926" lon="-0.5275">
        <ele>194.32</ele>
        <time>2017-02-04T10:17:35Z</time>
      </trkpt>
      <trkpt lat="43.33943" lon="-0.52735">
        <ele>197.69</ele>
        <time>2017-02-04T10:17:49Z</time>
      </trkpt>
      <trkpt lat="43.3396" lon="-0.52718">
        <ele>201.53</ele>
        <time>2017-02-04T10:18:07Z</time>
      </trkpt>
      <trkpt lat="43.33978" lon="-0.52704">
        <ele>205.38</ele>
        <time>2017-02-04T10:18:23Z</time>
      </trkpt>
      <trkpt lat="43.34001" lon="-0.52692">
        <ele>211.63</ele>
        <time>2017-02-04T10:18:40Z</time>
      </trkpt>
      <trkpt lat="43.34023" lon="-0.52656">
        <ele>211.63</ele>
        <time>2017-02-04T10:18:52Z</time>
      </trkpt>
      <trkpt lat="43.34043" lon="-0.52633">
        <ele>211.15</ele>
        <time>2017-02-04T10:18:59Z</time>
      </trkpt>
      <trkpt lat="43.3405" lon="-0.52627">
        <ele>211.15</ele>
        <time>2017-02-04T10:19:01Z</time>
      </trkpt>
      <trkpt lat="43.34054" lon="-0.52624">
        <ele>211.15</ele>
        <time>2017-02-04T10:19:02Z</time>
      </trkpt>
      <trkpt lat="43.34099" lon="-0.52601">
        <ele>208.26</ele>
        <time>2017-02-04T10:19:15Z</time>
      </trkpt>
      <trkpt lat="43.34123" lon="-0.52581">
        <ele>206.34</ele>
        <time>2017-02-04T10:19:29Z</time>
      </trkpt>
      <trkpt lat="43.3415" lon="-0.52562">
        <ele>205.86</ele>
        <time>2017-02-04T10:19:44Z</time>
      </trkpt>
      <trkpt lat="43.34152" lon="-0.52527">
        <ele>206.82</ele>
        <time>2017-02-04T10:19:57Z</time>
      </trkpt>
      <trkpt lat="43.34138" lon="-0.52483">
        <ele>204.42</ele>
        <time>2017-02-04T10:20:08Z</time>
      </trkpt>
      <trkpt lat="43.34125" lon="-0.52445">
        <ele>206.82</ele>
        <time>2017-02-04T10:20:19Z</time>
      </trkpt>
      <trkpt lat="43.34103" lon="-0.52388">
        <ele>208.74</ele>
        <time>2017-02-04T10:20:33Z</time>
      </trkpt>
      <trkpt lat="43.34088" lon="-0.5234">
        <ele>211.15</ele>
        <time>2017-02-04T10:20:45Z</time>
      </trkpt>
      <trkpt lat="43.34086" lon="-0.5233">
        <ele>212.11</ele>
        <time>2017-02-04T10:20:47Z</time>
      </trkpt>
      <trkpt lat="43.34082" lon="-0.52318">
        <ele>213.55</ele>
        <time>2017-02-04T10:20:49Z</time>
      </trkpt>
      <trkpt lat="43.34079" lon="-0.52311">
        <ele>213.55</ele>
        <time>2017-02-04T10:20:50Z</time>
      </trkpt>
      <trkpt lat="43.34076" lon="-0.52305">
        <ele>213.07</ele>
        <time>2017-02-04T10:20:51Z</time>
      </trkpt>
      <trkpt lat="43.34043" lon="-0.52259">
        <ele>209.22</ele>
        <time>2017-02-04T10:21:01Z</time>
      </trkpt>
      <trkpt lat="43.34028" lon="-0.52226">
        <ele>210.67</ele>
        <time>2017-02-04T10:21:14Z</time>
      </trkpt>
      <trkpt lat="43.34021" lon="-0.52209">
        <ele>212.59</ele>
        <time>2017-02-04T10:21:22Z</time>
      </trkpt>
      <trkpt lat="43.3402" lon="-0.52207">
        <ele>212.59</ele>
        <time>2017-02-04T10:21:23Z</time>
      </trkpt>
      <trkpt lat="43.34019" lon="-0.52205">
        <ele>213.07</ele>
        <time>2017-02-04T10:21:24Z</time>
      </trkpt>
      <trkpt lat="43.34018" lon="-0.52203">
        <ele>213.07</ele>
        <time>2017-02-04T10:21:25Z</time>
      </trkpt>
      <trkpt lat="43.34017" lon="-0.52201">
        <ele>213.07</ele>
        <time>2017-02-04T10:21:26Z</time>
      </trkpt>
      <trkpt lat="43.34016" lon="-0.52199">
        <ele>213.07</ele>
        <time>2017-02-04T10:21:27Z</time>
      </trkpt>
      <trkpt lat="43.34016" lon="-0.52197">
        <ele>212.59</ele>
        <time>2017-02-04T10:21:28Z</time>
      </trkpt>
      <trkpt lat="43.3401" lon="-0.52176">
        <ele>214.03</ele>
        <time>2017-02-04T10:21:39Z</time>
      </trkpt>
      <trkpt lat="43.34012" lon="-0.52175">
        <ele>214.51</ele>
        <time>2017-02-04T10:21:40Z</time>
      </trkpt>
      <trkpt lat="43.34013" lon="-0.52175">
        <ele>214.99</ele>
        <time>2017-02-04T10:21:41Z</time>
      </trkpt>
      <trkpt lat="43.34014" lon="-0.52176">
        <ele>214.99</ele>
        <time>2017-02-04T10:21:42Z</time>
      </trkpt>
      <trkpt lat="43.34015" lon="-0.52177">
        <ele>214.51</ele>
        <time>2017-02-04T10:21:43Z</time>
      </trkpt>
      <trkpt lat="43.34034" lon="-0.52185">
        <ele>214.03</ele>
        <time>2017-02-04T10:21:54Z</time>
      </trkpt>
      <trkpt lat="43.34036" lon="-0.52186">
        <ele>214.03</ele>
        <time>2017-02-04T10:21:55Z</time>
      </trkpt>
      <trkpt lat="43.34038" lon="-0.52187">
        <ele>214.03</ele>
        <time>2017-02-04T10:21:56Z</time>
      </trkpt>
      <trkpt lat="43.3404" lon="-0.52188">
        <ele>214.03</ele>
        <time>2017-02-04T10:21:57Z</time>
      </trkpt>
      <trkpt lat="43.34041" lon="-0.52189">
        <ele>213.55</ele>
        <time>2017-02-04T10:21:58Z</time>
      </trkpt>
      <trkpt lat="43.34068" lon="-0.52205">
        <ele>210.19</ele>
        <time>2017-02-04T10:22:08Z</time>
      </trkpt>
      <trkpt lat="43.34091" lon="-0.52226">
        <ele>209.22</ele>
        <time>2017-02-04T10:22:21Z</time>
      </trkpt>
      <trkpt lat="43.34109" lon="-0.52249">
        <ele>211.15</ele>
        <time>2017-02-04T10:22:33Z</time>
      </trkpt>
      <trkpt lat="43.34122" lon="-0.52258">
        <ele>210.19</ele>
        <time>2017-02-04T10:22:41Z</time>
      </trkpt>
      <trkpt lat="43.34123" lon="-0.52258">
        <ele>210.67</ele>
        <time>2017-02-04T10:22:42Z</time>
      </trkpt>
      <trkpt lat="43.34125" lon="-0.52259">
        <ele>211.15</ele>
        <time>2017-02-04T10:22:43Z</time>
      </trkpt>
      <trkpt lat="43.34127" lon="-0.52259">
        <ele>212.11</ele>
        <time>2017-02-04T10:22:44Z</time>
      </trkpt>
      <trkpt lat="43.3413" lon="-0.5226">
        <ele>212.11</ele>
        <time>2017-02-04T10:22:45Z</time>
      </trkpt>
      <trkpt lat="43.34133" lon="-0.52261">
        <ele>212.11</ele>
        <time>2017-02-04T10:22:46Z</time>
      </trkpt>
      <trkpt lat="43.34147" lon="-0.52269">
        <ele>212.59</ele>
        <time>2017-02-04T10:22:50Z</time>
      </trkpt>
      <trkpt lat="43.34151" lon="-0.52273">
        <ele>213.07</ele>
        <time>2017-02-04T10:22:51Z</time>
      </trkpt>
      <trkpt lat="43.34155" lon="-0.52276">
        <ele>213.07</ele>
        <time>2017-02-04T10:22:52Z</time>
      </trkpt>
      <trkpt lat="43.34159" lon="-0.5228">
        <ele>213.07</ele>
        <time>2017-02-04T10:22:53Z</time>
      </trkpt>
      <trkpt lat="43.34162" lon="-0.52285">
        <ele>213.07</ele>
        <time>2017-02-04T10:22:54Z</time>
      </trkpt>
      <trkpt lat="43.34166" lon="-0.52291">
        <ele>212.59</ele>
        <time>2017-02-04T10:22:55Z</time>
      </trkpt>
      <trkpt lat="43.3417" lon="-0.52295">
        <ele>212.59</ele>
        <time>2017-02-04T10:22:56Z</time>
      </trkpt>
      <trkpt lat="43.34175" lon="-0.52299">
        <ele>212.11</ele>
        <time>2017-02-04T10:22:57Z</time>
      </trkpt>
      <trkpt lat="43.3418" lon="-0.52302">
        <ele>212.11</ele>
        <time>2017-02-04T10:22:58Z</time>
      </trkpt>
      <trkpt lat="43.34185" lon="-0.52306">
        <ele>212.11</ele>
        <time>2017-02-04T10:22:59Z</time>
      </trkpt>
      <trkpt lat="43.3419" lon="-0.5231">
        <ele>211.63</ele>
        <time>2017-02-04T10:23:00Z</time>
      </trkpt>
      <trkpt lat="43.342" lon="-0.52318">
        <ele>211.15</ele>
        <time>2017-02-04T10:23:02Z</time>
      </trkpt>
      <trkpt lat="43.34206" lon="-0.5232">
        <ele>211.15</ele>
        <time>2017-02-04T10:23:03Z</time>
      </trkpt>
      <trkpt lat="43.34213" lon="-0.5232">
        <ele>211.15</ele>
        <time>2017-02-04T10:23:04Z</time>
      </trkpt>
      <trkpt lat="43.34218" lon="-0.52321">
        <ele>210.67</ele>
        <time>2017-02-04T10:23:05Z</time>
      </trkpt>
      <trkpt lat="43.34224" lon="-0.52322">
        <ele>210.67</ele>
        <time>2017-02-04T10:23:06Z</time>
      </trkpt>
      <trkpt lat="43.3426" lon="-0.52343">
        <ele>210.67</ele>
        <time>2017-02-04T10:23:16Z</time>
      </trkpt>
      <trkpt lat="43.34273" lon="-0.52376">
        <ele>210.67</ele>
        <time>2017-02-04T10:23:25Z</time>
      </trkpt>
      <trkpt lat="43.34274" lon="-0.52382">
        <ele>210.19</ele>
        <time>2017-02-04T10:23:26Z</time>
      </trkpt>
      <trkpt lat="43.34285" lon="-0.52412">
        <ele>208.26</ele>
        <time>2017-02-04T10:23:31Z</time>
      </trkpt>
      <trkpt lat="43.34294" lon="-0.52429">
        <ele>206.82</ele>
        <time>2017-02-04T10:23:34Z</time>
      </trkpt>
      <trkpt lat="43.34297" lon="-0.52433">
        <ele>206.82</ele>
        <time>2017-02-04T10:23:35Z</time>
      </trkpt>
      <trkpt lat="43.343" lon="-0.52436">
        <ele>206.34</ele>
        <time>2017-02-04T10:23:36Z</time>
      </trkpt>
      <trkpt lat="43.34302" lon="-0.52439">
        <ele>205.86</ele>
        <time>2017-02-04T10:23:37Z</time>
      </trkpt>
      <trkpt lat="43.34304" lon="-0.52441">
        <ele>205.38</ele>
        <time>2017-02-04T10:23:38Z</time>
      </trkpt>
      <trkpt lat="43.34328" lon="-0.52476">
        <ele>203.94</ele>
        <time>2017-02-04T10:23:52Z</time>
      </trkpt>
      <trkpt lat="43.34345" lon="-0.52502">
        <ele>205.86</ele>
        <time>2017-02-04T10:24:03Z</time>
      </trkpt>
      <trkpt lat="43.34358" lon="-0.52537">
        <ele>205.86</ele>
        <time>2017-02-04T10:24:16Z</time>
      </trkpt>
      <trkpt lat="43.34375" lon="-0.52575">
        <ele>208.74</ele>
        <time>2017-02-04T10:24:30Z</time>
      </trkpt>
      <trkpt lat="43.34395" lon="-0.52598">
        <ele>207.3</ele>
        <time>2017-02-04T10:24:43Z</time>
      </trkpt>
      <trkpt lat="43.344" lon="-0.52601">
        <ele>206.82</ele>
        <time>2017-02-04T10:24:46Z</time>
      </trkpt>
      <trkpt lat="43.34406" lon="-0.52604">
        <ele>206.82</ele>
        <time>2017-02-04T10:24:51Z</time>
      </trkpt>
      <trkpt lat="43.34408" lon="-0.52606">
        <ele>206.82</ele>
        <time>2017-02-04T10:24:52Z</time>
      </trkpt>
      <trkpt lat="43.3441" lon="-0.52607">
        <ele>207.78</ele>
        <time>2017-02-04T10:24:53Z</time>
      </trkpt>
      <trkpt lat="43.34411" lon="-0.52609">
        <ele>207.78</ele>
        <time>2017-02-04T10:24:54Z</time>
      </trkpt>
      <trkpt lat="43.34412" lon="-0.52612">
        <ele>208.26</ele>
        <time>2017-02-04T10:24:56Z</time>
      </trkpt>
      <trkpt lat="43.34414" lon="-0.52632">
        <ele>211.15</ele>
        <time>2017-02-04T10:25:01Z</time>
      </trkpt>
      <trkpt lat="43.34415" lon="-0.52637">
        <ele>212.59</ele>
        <time>2017-02-04T10:25:02Z</time>
      </trkpt>
      <trkpt lat="43.34417" lon="-0.5265">
        <ele>216.91</ele>
        <time>2017-02-04T10:25:10Z</time>
      </trkpt>
      <trkpt lat="43.34416" lon="-0.52656">
        <ele>217.4</ele>
        <time>2017-02-04T10:25:16Z</time>
      </trkpt>
      <trkpt lat="43.34416" lon="-0.52658">
        <ele>217.4</ele>
        <time>2017-02-04T10:25:17Z</time>
      </trkpt>
      <trkpt lat="43.34417" lon="-0.5266">
        <ele>216.91</ele>
        <time>2017-02-04T10:25:18Z</time>
      </trkpt>
      <trkpt lat="43.34418" lon="-0.52661">
        <ele>216.91</ele>
        <time>2017-02-04T10:25:19Z</time>
      </trkpt>
      <trkpt lat="43.3442" lon="-0.52661">
        <ele>216.91</ele>
        <time>2017-02-04T10:25:20Z</time>
      </trkpt>
      <trkpt lat="43.34422" lon="-0.52662">
        <ele>216.91</ele>
        <time>2017-02-04T10:25:21Z</time>
      </trkpt>
      <trkpt lat="43.34429" lon="-0.52667">
        <ele>216.43</ele>
        <time>2017-02-04T10:25:25Z</time>
      </trkpt>
      <trkpt lat="43.3443" lon="-0.52669">
        <ele>215.95</ele>
        <time>2017-02-04T10:25:26Z</time>
      </trkpt>
      <trkpt lat="43.34431" lon="-0.52685">
        <ele>217.4</ele>
        <time>2017-02-04T10:25:34Z</time>
      </trkpt>
      <trkpt lat="43.34437" lon="-0.5269">
        <ele>218.84</ele>
        <time>2017-02-04T10:25:40Z</time>
      </trkpt>
      <trkpt lat="43.34439" lon="-0.52691">
        <ele>218.84</ele>
        <time>2017-02-04T10:25:41Z</time>
      </trkpt>
      <trkpt lat="43.34442" lon="-0.52692">
        <ele>218.84</ele>
        <time>2017-02-04T10:25:42Z</time>
      </trkpt>
      <trkpt lat="43.34445" lon="-0.52695">
        <ele>219.32</ele>
        <time>2017-02-04T10:25:43Z</time>
      </trkpt>
      <trkpt lat="43.34447" lon="-0.52698">
        <ele>218.84</ele>
        <time>2017-02-04T10:25:44Z</time>
      </trkpt>
      <trkpt lat="43.34449" lon="-0.52701">
        <ele>218.36</ele>
        <time>2017-02-04T10:25:45Z</time>
      </trkpt>
      <trkpt lat="43.3445" lon="-0.52705">
        <ele>218.36</ele>
        <time>2017-02-04T10:25:46Z</time>
      </trkpt>
      <trkpt lat="43.3445" lon="-0.52709">
        <ele>218.36</ele>
        <time>2017-02-04T10:25:47Z</time>
      </trkpt>
      <trkpt lat="43.34451" lon="-0.52712">
        <ele>217.88</ele>
        <time>2017-02-04T10:25:48Z</time>
      </trkpt>
      <trkpt lat="43.34452" lon="-0.52716">
        <ele>217.4</ele>
        <time>2017-02-04T10:25:49Z</time>
      </trkpt>
      <trkpt lat="43.34452" lon="-0.52718">
        <ele>217.4</ele>
        <time>2017-02-04T10:25:50Z</time>
      </trkpt>
      <trkpt lat="43.34453" lon="-0.52721">
        <ele>216.91</ele>
        <time>2017-02-04T10:25:51Z</time>
      </trkpt>
      <trkpt lat="43.34457" lon="-0.52746">
        <ele>217.88</ele>
        <time>2017-02-04T10:25:58Z</time>
      </trkpt>
      <trkpt lat="43.34457" lon="-0.52751">
        <ele>217.88</ele>
        <time>2017-02-04T10:25:59Z</time>
      </trkpt>
      <trkpt lat="43.34457" lon="-0.52763">
        <ele>217.88</ele>
        <time>2017-02-04T10:26:01Z</time>
      </trkpt>
      <trkpt lat="43.34463" lon="-0.528">
        <ele>218.36</ele>
        <time>2017-02-04T10:26:10Z</time>
      </trkpt>
      <trkpt lat="43.34484" lon="-0.52843">
        <ele>224.12</ele>
        <time>2017-02-04T10:26:21Z</time>
      </trkpt>
      <trkpt lat="43.34489" lon="-0.52849">
        <ele>224.61</ele>
        <time>2017-02-04T10:26:22Z</time>
      </trkpt>
      <trkpt lat="43.34505" lon="-0.52867">
        <ele>224.61</ele>
        <time>2017-02-04T10:26:25Z</time>
      </trkpt>
      <trkpt lat="43.34508" lon="-0.52872">
        <ele>224.61</ele>
        <time>2017-02-04T10:26:26Z</time>
      </trkpt>
      <trkpt lat="43.34524" lon="-0.52901">
        <ele>225.09</ele>
        <time>2017-02-04T10:26:35Z</time>
      </trkpt>
      <trkpt lat="43.34528" lon="-0.52906">
        <ele>225.09</ele>
        <time>2017-02-04T10:26:38Z</time>
      </trkpt>
      <trkpt lat="43.3453" lon="-0.52907">
        <ele>225.09</ele>
        <time>2017-02-04T10:26:39Z</time>
      </trkpt>
      <trkpt lat="43.34532" lon="-0.52908">
        <ele>225.09</ele>
        <time>2017-02-04T10:26:40Z</time>
      </trkpt>
      <trkpt lat="43.34534" lon="-0.5291">
        <ele>225.09</ele>
        <time>2017-02-04T10:26:41Z</time>
      </trkpt>
      <trkpt lat="43.34535" lon="-0.52912">
        <ele>225.09</ele>
        <time>2017-02-04T10:26:42Z</time>
      </trkpt>
      <trkpt lat="43.34537" lon="-0.52915">
        <ele>224.61</ele>
        <time>2017-02-04T10:26:43Z</time>
      </trkpt>
      <trkpt lat="43.34539" lon="-0.52917">
        <ele>224.12</ele>
        <time>2017-02-04T10:26:44Z</time>
      </trkpt>
      <trkpt lat="43.34541" lon="-0.52919">
        <ele>223.64</ele>
        <time>2017-02-04T10:26:45Z</time>
      </trkpt>
      <trkpt lat="43.3457" lon="-0.5295">
        <ele>221.24</ele>
        <time>2017-02-04T10:26:56Z</time>
      </trkpt>
      <trkpt lat="43.34575" lon="-0.52952">
        <ele>221.24</ele>
        <time>2017-02-04T10:26:57Z</time>
      </trkpt>
      <trkpt lat="43.34579" lon="-0.52954">
        <ele>220.76</ele>
        <time>2017-02-04T10:26:58Z</time>
      </trkpt>
      <trkpt lat="43.34582" lon="-0.52956">
        <ele>220.76</ele>
        <time>2017-02-04T10:26:59Z</time>
      </trkpt>
      <trkpt lat="43.34586" lon="-0.52958">
        <ele>220.76</ele>
        <time>2017-02-04T10:27:00Z</time>
      </trkpt>
      <trkpt lat="43.34589" lon="-0.5296">
        <ele>220.76</ele>
        <time>2017-02-04T10:27:01Z</time>
      </trkpt>
      <trkpt lat="43.34592" lon="-0.52964">
        <ele>220.76</ele>
        <time>2017-02-04T10:27:02Z</time>
      </trkpt>
      <trkpt lat="43.34596" lon="-0.52967">
        <ele>220.28</ele>
        <time>2017-02-04T10:27:03Z</time>
      </trkpt>
      <trkpt lat="43.34633" lon="-0.53008">
        <ele>218.36</ele>
        <time>2017-02-04T10:27:14Z</time>
      </trkpt>
      <trkpt lat="43.34659" lon="-0.53027">
        <ele>215.47</ele>
        <time>2017-02-04T10:27:21Z</time>
      </trkpt>
      <trkpt lat="43.34664" lon="-0.53031">
        <ele>214.99</ele>
        <time>2017-02-04T10:27:22Z</time>
      </trkpt>
      <trkpt lat="43.34668" lon="-0.53037">
        <ele>214.51</ele>
        <time>2017-02-04T10:27:23Z</time>
      </trkpt>
      <trkpt lat="43.34691" lon="-0.53057">
        <ele>212.59</ele>
        <time>2017-02-04T10:27:28Z</time>
      </trkpt>
      <trkpt lat="43.34703" lon="-0.53064">
        <ele>211.15</ele>
        <time>2017-02-04T10:27:30Z</time>
      </trkpt>
      <trkpt lat="43.34709" lon="-0.53069">
        <ele>210.67</ele>
        <time>2017-02-04T10:27:31Z</time>
      </trkpt>
      <trkpt lat="43.34752" lon="-0.53126">
        <ele>205.38</ele>
        <time>2017-02-04T10:27:42Z</time>
      </trkpt>
      <trkpt lat="43.34754" lon="-0.53132">
        <ele>204.9</ele>
        <time>2017-02-04T10:27:43Z</time>
      </trkpt>
      <trkpt lat="43.34755" lon="-0.53136">
        <ele>204.9</ele>
        <time>2017-02-04T10:27:44Z</time>
      </trkpt>
      <trkpt lat="43.34756" lon="-0.5314">
        <ele>204.42</ele>
        <time>2017-02-04T10:27:45Z</time>
      </trkpt>
      <trkpt lat="43.34758" lon="-0.53143">
        <ele>203.94</ele>
        <time>2017-02-04T10:27:46Z</time>
      </trkpt>
      <trkpt lat="43.3476" lon="-0.53145">
        <ele>203.94</ele>
        <time>2017-02-04T10:27:47Z</time>
      </trkpt>
      <trkpt lat="43.34764" lon="-0.53146">
        <ele>203.94</ele>
        <time>2017-02-04T10:27:48Z</time>
      </trkpt>
      <trkpt lat="43.34767" lon="-0.53147">
        <ele>203.94</ele>
        <time>2017-02-04T10:27:49Z</time>
      </trkpt>
      <trkpt lat="43.34771" lon="-0.53148">
        <ele>203.94</ele>
        <time>2017-02-04T10:27:50Z</time>
      </trkpt>
      <trkpt lat="43.34777" lon="-0.53152">
        <ele>203.46</ele>
        <time>2017-02-04T10:27:51Z</time>
      </trkpt>
      <trkpt lat="43.34787" lon="-0.53158">
        <ele>202.01</ele>
        <time>2017-02-04T10:27:53Z</time>
      </trkpt>
      <trkpt lat="43.34793" lon="-0.5316">
        <ele>201.05</ele>
        <time>2017-02-04T10:27:54Z</time>
      </trkpt>
      <trkpt lat="43.34846" lon="-0.53169">
        <ele>195.77</ele>
        <time>2017-02-04T10:28:02Z</time>
      </trkpt>
      <trkpt lat="43.34852" lon="-0.53169">
        <ele>195.28</ele>
        <time>2017-02-04T10:28:03Z</time>
      </trkpt>
      <trkpt lat="43.34879" lon="-0.53172">
        <ele>194.32</ele>
        <time>2017-02-04T10:28:12Z</time>
      </trkpt>
      <trkpt lat="43.34913" lon="-0.53173">
        <ele>196.73</ele>
        <time>2017-02-04T10:28:25Z</time>
      </trkpt>
      <trkpt lat="43.34933" lon="-0.53191">
        <ele>198.17</ele>
        <time>2017-02-04T10:28:36Z</time>
      </trkpt>
      <trkpt lat="43.34954" lon="-0.53223">
        <ele>197.69</ele>
        <time>2017-02-04T10:28:49Z</time>
      </trkpt>
      <trkpt lat="43.34955" lon="-0.53228">
        <ele>198.17</ele>
        <time>2017-02-04T10:28:51Z</time>
      </trkpt>
      <trkpt lat="43.34957" lon="-0.53231">
        <ele>198.17</ele>
        <time>2017-02-04T10:28:52Z</time>
      </trkpt>
      <trkpt lat="43.34958" lon="-0.53233">
        <ele>198.17</ele>
        <time>2017-02-04T10:28:53Z</time>
      </trkpt>
      <trkpt lat="43.34959" lon="-0.53235">
        <ele>198.17</ele>
        <time>2017-02-04T10:28:54Z</time>
      </trkpt>
      <trkpt lat="43.34961" lon="-0.53237">
        <ele>197.69</ele>
        <time>2017-02-04T10:28:55Z</time>
      </trkpt>
      <trkpt lat="43.34966" lon="-0.53277">
        <ele>198.17</ele>
        <time>2017-02-04T10:29:07Z</time>
      </trkpt>
      <trkpt lat="43.34967" lon="-0.53282">
        <ele>197.69</ele>
        <time>2017-02-04T10:29:08Z</time>
      </trkpt>
      <trkpt lat="43.34974" lon="-0.53317">
        <ele>196.73</ele>
        <time>2017-02-04T10:29:13Z</time>
      </trkpt>
      <trkpt lat="43.34977" lon="-0.53325">
        <ele>196.25</ele>
        <time>2017-02-04T10:29:14Z</time>
      </trkpt>
      <trkpt lat="43.34982" lon="-0.53332">
        <ele>195.77</ele>
        <time>2017-02-04T10:29:15Z</time>
      </trkpt>
      <trkpt lat="43.34989" lon="-0.53345">
        <ele>195.28</ele>
        <time>2017-02-04T10:29:17Z</time>
      </trkpt>
      <trkpt lat="43.34991" lon="-0.5335">
        <ele>195.28</ele>
        <time>2017-02-04T10:29:18Z</time>
      </trkpt>
      <trkpt lat="43.34993" lon="-0.53356">
        <ele>195.28</ele>
        <time>2017-02-04T10:29:19Z</time>
      </trkpt>
      <trkpt lat="43.34995" lon="-0.53377">
        <ele>194.8</ele>
        <time>2017-02-04T10:29:22Z</time>
      </trkpt>
      <trkpt lat="43.35002" lon="-0.53443">
        <ele>191.44</ele>
        <time>2017-02-04T10:29:31Z</time>
      </trkpt>
      <trkpt lat="43.35001" lon="-0.53543">
        <ele>187.59</ele>
        <time>2017-02-04T10:29:44Z</time>
      </trkpt>
      <trkpt lat="43.35016" lon="-0.5366">
        <ele>186.63</ele>
        <time>2017-02-04T10:29:59Z</time>
      </trkpt>
      <trkpt lat="43.35041" lon="-0.53731">
        <ele>187.11</ele>
        <time>2017-02-04T10:30:09Z</time>
      </trkpt>
      <trkpt lat="43.35053" lon="-0.53792">
        <ele>188.08</ele>
        <time>2017-02-04T10:30:22Z</time>
      </trkpt>
      <trkpt lat="43.35064" lon="-0.53839">
        <ele>188.56</ele>
        <time>2017-02-04T10:30:36Z</time>
      </trkpt>
      <trkpt lat="43.35068" lon="-0.53881">
        <ele>186.63</ele>
        <time>2017-02-04T10:30:48Z</time>
      </trkpt>
      <trkpt lat="43.35067" lon="-0.53894">
        <ele>187.11</ele>
        <time>2017-02-04T10:30:52Z</time>
      </trkpt>
      <trkpt lat="43.35067" lon="-0.53897">
        <ele>187.59</ele>
        <time>2017-02-04T10:30:53Z</time>
      </trkpt>
      <trkpt lat="43.3507" lon="-0.53939">
        <ele>187.11</ele>
        <time>2017-02-04T10:31:03Z</time>
      </trkpt>
      <trkpt lat="43.35088" lon="-0.53987">
        <ele>184.23</ele>
        <time>2017-02-04T10:31:16Z</time>
      </trkpt>
      <trkpt lat="43.35111" lon="-0.54023">
        <ele>181.83</ele>
        <time>2017-02-04T10:31:29Z</time>
      </trkpt>
      <trkpt lat="43.35142" lon="-0.54034">
        <ele>181.35</ele>
        <time>2017-02-04T10:31:41Z</time>
      </trkpt>
      <trkpt lat="43.35177" lon="-0.54054">
        <ele>178.46</ele>
        <time>2017-02-04T10:31:52Z</time>
      </trkpt>
      <trkpt lat="43.35184" lon="-0.54057">
        <ele>180.87</ele>
        <time>2017-02-04T10:32:02Z</time>
      </trkpt>
      <trkpt lat="43.35191" lon="-0.54064">
        <ele>185.19</ele>
        <time>2017-02-04T10:32:29Z</time>
      </trkpt>
      <trkpt lat="43.35192" lon="-0.54065">
        <ele>185.67</ele>
        <time>2017-02-04T10:32:30Z</time>
      </trkpt>
      <trkpt lat="43.35194" lon="-0.54064">
        <ele>185.67</ele>
        <time>2017-02-04T10:32:31Z</time>
      </trkpt>
      <trkpt lat="43.35198" lon="-0.54063">
        <ele>186.15</ele>
        <time>2017-02-04T10:32:33Z</time>
      </trkpt>
      <trkpt lat="43.35222" lon="-0.54068">
        <ele>190.96</ele>
        <time>2017-02-04T10:32:46Z</time>
      </trkpt>
      <trkpt lat="43.35239" lon="-0.54089">
        <ele>195.77</ele>
        <time>2017-02-04T10:32:57Z</time>
      </trkpt>
      <trkpt lat="43.35245" lon="-0.54112">
        <ele>194.8</ele>
        <time>2017-02-04T10:33:02Z</time>
      </trkpt>
      <trkpt lat="43.35269" lon="-0.54175">
        <ele>193.84</ele>
        <time>2017-02-04T10:33:16Z</time>
      </trkpt>
      <trkpt lat="43.35279" lon="-0.54212">
        <ele>193.84</ele>
        <time>2017-02-04T10:33:23Z</time>
      </trkpt>
      <trkpt lat="43.35283" lon="-0.54229">
        <ele>193.84</ele>
        <time>2017-02-04T10:33:26Z</time>
      </trkpt>
      <trkpt lat="43.35299" lon="-0.54328">
        <ele>195.77</ele>
        <time>2017-02-04T10:33:44Z</time>
      </trkpt>
      <trkpt lat="43.35295" lon="-0.544">
        <ele>196.25</ele>
        <time>2017-02-04T10:33:58Z</time>
      </trkpt>
      <trkpt lat="43.35299" lon="-0.54487">
        <ele>195.77</ele>
        <time>2017-02-04T10:34:13Z</time>
      </trkpt>
      <trkpt lat="43.35298" lon="-0.54535">
        <ele>194.8</ele>
        <time>2017-02-04T10:34:21Z</time>
      </trkpt>
      <trkpt lat="43.35299" lon="-0.54548">
        <ele>194.32</ele>
        <time>2017-02-04T10:34:23Z</time>
      </trkpt>
      <trkpt lat="43.35298" lon="-0.54587">
        <ele>194.8</ele>
        <time>2017-02-04T10:34:32Z</time>
      </trkpt>
      <trkpt lat="43.35292" lon="-0.54633">
        <ele>192.4</ele>
        <time>2017-02-04T10:34:42Z</time>
      </trkpt>
      <trkpt lat="43.35302" lon="-0.54709">
        <ele>193.84</ele>
        <time>2017-02-04T10:34:56Z</time>
      </trkpt>
      <trkpt lat="43.35332" lon="-0.54746">
        <ele>194.8</ele>
        <time>2017-02-04T10:35:09Z</time>
      </trkpt>
      <trkpt lat="43.35345" lon="-0.54756">
        <ele>193.36</ele>
        <time>2017-02-04T10:35:15Z</time>
      </trkpt>
      <trkpt lat="43.35345" lon="-0.5476">
        <ele>193.36</ele>
        <time>2017-02-04T10:35:16Z</time>
      </trkpt>
      <trkpt lat="43.35344" lon="-0.54763">
        <ele>193.36</ele>
        <time>2017-02-04T10:35:17Z</time>
      </trkpt>
      <trkpt lat="43.35342" lon="-0.54776">
        <ele>191.92</ele>
        <time>2017-02-04T10:35:21Z</time>
      </trkpt>
      <trkpt lat="43.35339" lon="-0.54778">
        <ele>191.44</ele>
        <time>2017-02-04T10:35:22Z</time>
      </trkpt>
      <trkpt lat="43.35337" lon="-0.54778">
        <ele>190.96</ele>
        <time>2017-02-04T10:35:23Z</time>
      </trkpt>
      <trkpt lat="43.35331" lon="-0.5479">
        <ele>185.19</ele>
        <time>2017-02-04T10:35:33Z</time>
      </trkpt>
      <trkpt lat="43.35329" lon="-0.54816">
        <ele>182.31</ele>
        <time>2017-02-04T10:35:41Z</time>
      </trkpt>
      <trkpt lat="43.35322" lon="-0.54847">
        <ele>177.5</ele>
        <time>2017-02-04T10:35:48Z</time>
      </trkpt>
      <trkpt lat="43.35319" lon="-0.5486">
        <ele>175.1</ele>
        <time>2017-02-04T10:35:50Z</time>
      </trkpt>
      <trkpt lat="43.35312" lon="-0.54927">
        <ele>165.96</ele>
        <time>2017-02-04T10:35:57Z</time>
      </trkpt>
      <trkpt lat="43.35316" lon="-0.54999">
        <ele>157.31</ele>
        <time>2017-02-04T10:36:06Z</time>
      </trkpt>
      <trkpt lat="43.35317" lon="-0.55008">
        <ele>155.87</ele>
        <time>2017-02-04T10:36:07Z</time>
      </trkpt>
      <trkpt lat="43.35321" lon="-0.55087">
        <ele>142.41</ele>
        <time>2017-02-04T10:36:17Z</time>
      </trkpt>
      <trkpt lat="43.35321" lon="-0.55125">
        <ele>136.16</ele>
        <time>2017-02-04T10:36:24Z</time>
      </trkpt>
      <trkpt lat="43.35319" lon="-0.5513">
        <ele>135.2</ele>
        <time>2017-02-04T10:36:25Z</time>
      </trkpt>
      <trkpt lat="43.35316" lon="-0.55134">
        <ele>134.72</ele>
        <time>2017-02-04T10:36:26Z</time>
      </trkpt>
      <trkpt lat="43.35312" lon="-0.55139">
        <ele>133.76</ele>
        <time>2017-02-04T10:36:27Z</time>
      </trkpt>
      <trkpt lat="43.35307" lon="-0.55143">
        <ele>133.28</ele>
        <time>2017-02-04T10:36:28Z</time>
      </trkpt>
      <trkpt lat="43.353" lon="-0.55152">
        <ele>131.36</ele>
        <time>2017-02-04T10:36:30Z</time>
      </trkpt>
      <trkpt lat="43.35293" lon="-0.55162">
        <ele>129.43</ele>
        <time>2017-02-04T10:36:32Z</time>
      </trkpt>
      <trkpt lat="43.35275" lon="-0.55194">
        <ele>123.67</ele>
        <time>2017-02-04T10:36:40Z</time>
      </trkpt>
      <trkpt lat="43.35272" lon="-0.55198">
        <ele>123.19</ele>
        <time>2017-02-04T10:36:41Z</time>
      </trkpt>
      <trkpt lat="43.35269" lon="-0.55201">
        <ele>122.71</ele>
        <time>2017-02-04T10:36:42Z</time>
      </trkpt>
      <trkpt lat="43.35261" lon="-0.55207">
        <ele>121.74</ele>
        <time>2017-02-04T10:36:44Z</time>
      </trkpt>
      <trkpt lat="43.35257" lon="-0.55213">
        <ele>121.26</ele>
        <time>2017-02-04T10:36:45Z</time>
      </trkpt>
      <trkpt lat="43.35253" lon="-0.55219">
        <ele>120.3</ele>
        <time>2017-02-04T10:36:46Z</time>
      </trkpt>
      <trkpt lat="43.35225" lon="-0.55259">
        <ele>115.98</ele>
        <time>2017-02-04T10:36:52Z</time>
      </trkpt>
      <trkpt lat="43.35222" lon="-0.55266">
        <ele>115.98</ele>
        <time>2017-02-04T10:36:53Z</time>
      </trkpt>
      <trkpt lat="43.35221" lon="-0.55272">
        <ele>115.98</ele>
        <time>2017-02-04T10:36:54Z</time>
      </trkpt>
      <trkpt lat="43.35221" lon="-0.55278">
        <ele>115.98</ele>
        <time>2017-02-04T10:36:55Z</time>
      </trkpt>
      <trkpt lat="43.35221" lon="-0.55285">
        <ele>115.5</ele>
        <time>2017-02-04T10:36:56Z</time>
      </trkpt>
      <trkpt lat="43.35226" lon="-0.5534">
        <ele>114.05</ele>
        <time>2017-02-04T10:37:04Z</time>
      </trkpt>
      <trkpt lat="43.35235" lon="-0.55376">
        <ele>114.53</ele>
        <time>2017-02-04T10:37:13Z</time>
      </trkpt>
      <trkpt lat="43.35235" lon="-0.55377">
        <ele>114.53</ele>
        <time>2017-02-04T10:37:14Z</time>
      </trkpt>
    </trkseg>
  </trk>
</gpx>